<?xml version="1.0" encoding="UTF-8" standalone="no" ?>
<gpx xmlns="http://www.topografix.com/GPX/1/1" xmlns:xsi="http://www.w3.org/2001/XMLSchema-instance" xsi:schemaLocation="http://www.topografix.com/GPX/1/1 http://www.topografix.com/GPX/1/1/gpx.xsd" version="1.1" creator="VisuGPX - https://www.visugpx.com">
  <metadata>
    <name>CG_25km_283m_Boucle_Aydat_Laschamps_Recoleine </name>
    <desc><![CDATA[Variante des boucles précédentes qui permet de descendre vers Laschamps]]></desc>
  </metadata>
  <trk>
    <name><![CDATA[13-JUIL-15 10:46:33]]></name>
    <trkseg>
      <trkpt lat="45.69414" lon="2.99586">
        <ele>917.24</ele>
        <time>2015-07-13T06:49:57Z</time>
      </trkpt>
      <trkpt lat="45.69414" lon="2.99587">
        <ele>913.87</ele>
        <time>2015-07-13T06:50:06Z</time>
      </trkpt>
      <trkpt lat="45.69414" lon="2.99587">
        <ele>918.2</ele>
        <time>2015-07-13T06:50:08Z</time>
      </trkpt>
      <trkpt lat="45.69414" lon="2.99587">
        <ele>916.75</ele>
        <time>2015-07-13T06:50:12Z</time>
      </trkpt>
      <trkpt lat="45.69412" lon="2.99589">
        <ele>917.24</ele>
        <time>2015-07-13T06:50:14Z</time>
      </trkpt>
      <trkpt lat="45.69404" lon="2.99576">
        <ele>917.24</ele>
        <time>2015-07-13T06:50:21Z</time>
      </trkpt>
      <trkpt lat="45.69411" lon="2.99527">
        <ele>917.24</ele>
        <time>2015-07-13T06:50:32Z</time>
      </trkpt>
      <trkpt lat="45.69417" lon="2.99485">
        <ele>917.72</ele>
        <time>2015-07-13T06:50:42Z</time>
      </trkpt>
      <trkpt lat="45.69431" lon="2.99454">
        <ele>919.64</ele>
        <time>2015-07-13T06:50:52Z</time>
      </trkpt>
      <trkpt lat="45.69462" lon="2.9942">
        <ele>921.08</ele>
        <time>2015-07-13T06:51:06Z</time>
      </trkpt>
      <trkpt lat="45.6948" lon="2.99382">
        <ele>923.96</ele>
        <time>2015-07-13T06:51:17Z</time>
      </trkpt>
      <trkpt lat="45.69495" lon="2.99343">
        <ele>925.41</ele>
        <time>2015-07-13T06:51:29Z</time>
      </trkpt>
      <trkpt lat="45.69503" lon="2.99327">
        <ele>925.41</ele>
        <time>2015-07-13T06:51:34Z</time>
      </trkpt>
      <trkpt lat="45.69512" lon="2.99305">
        <ele>926.85</ele>
        <time>2015-07-13T06:51:41Z</time>
      </trkpt>
      <trkpt lat="45.69514" lon="2.99285">
        <ele>928.29</ele>
        <time>2015-07-13T06:51:48Z</time>
      </trkpt>
      <trkpt lat="45.69519" lon="2.99277">
        <ele>928.77</ele>
        <time>2015-07-13T06:51:51Z</time>
      </trkpt>
      <trkpt lat="45.69535" lon="2.99241">
        <ele>930.21</ele>
        <time>2015-07-13T06:52:03Z</time>
      </trkpt>
      <trkpt lat="45.69547" lon="2.99194">
        <ele>930.69</ele>
        <time>2015-07-13T06:52:15Z</time>
      </trkpt>
      <trkpt lat="45.6956" lon="2.99155">
        <ele>931.65</ele>
        <time>2015-07-13T06:52:26Z</time>
      </trkpt>
      <trkpt lat="45.69568" lon="2.99118">
        <ele>934.54</ele>
        <time>2015-07-13T06:52:37Z</time>
      </trkpt>
      <trkpt lat="45.69569" lon="2.99109">
        <ele>935.5</ele>
        <time>2015-07-13T06:52:41Z</time>
      </trkpt>
      <trkpt lat="45.69567" lon="2.99105">
        <ele>935.5</ele>
        <time>2015-07-13T06:52:42Z</time>
      </trkpt>
      <trkpt lat="45.69563" lon="2.9909">
        <ele>935.98</ele>
        <time>2015-07-13T06:52:47Z</time>
      </trkpt>
      <trkpt lat="45.69554" lon="2.99048">
        <ele>935.02</ele>
        <time>2015-07-13T06:52:58Z</time>
      </trkpt>
      <trkpt lat="45.69535" lon="2.98993">
        <ele>933.1</ele>
        <time>2015-07-13T06:53:08Z</time>
      </trkpt>
      <trkpt lat="45.69534" lon="2.98986">
        <ele>933.1</ele>
        <time>2015-07-13T06:53:09Z</time>
      </trkpt>
      <trkpt lat="45.69534" lon="2.98979">
        <ele>932.62</ele>
        <time>2015-07-13T06:53:10Z</time>
      </trkpt>
      <trkpt lat="45.69533" lon="2.9897">
        <ele>933.1</ele>
        <time>2015-07-13T06:53:11Z</time>
      </trkpt>
      <trkpt lat="45.69533" lon="2.98949">
        <ele>932.62</ele>
        <time>2015-07-13T06:53:14Z</time>
      </trkpt>
      <trkpt lat="45.69551" lon="2.98907">
        <ele>934.06</ele>
        <time>2015-07-13T06:53:22Z</time>
      </trkpt>
      <trkpt lat="45.69555" lon="2.98903">
        <ele>934.06</ele>
        <time>2015-07-13T06:53:23Z</time>
      </trkpt>
      <trkpt lat="45.69557" lon="2.98899">
        <ele>934.06</ele>
        <time>2015-07-13T06:53:24Z</time>
      </trkpt>
      <trkpt lat="45.69571" lon="2.98855">
        <ele>935.5</ele>
        <time>2015-07-13T06:53:34Z</time>
      </trkpt>
      <trkpt lat="45.69572" lon="2.98847">
        <ele>935.5</ele>
        <time>2015-07-13T06:53:36Z</time>
      </trkpt>
      <trkpt lat="45.69579" lon="2.98795">
        <ele>937.42</ele>
        <time>2015-07-13T06:53:48Z</time>
      </trkpt>
      <trkpt lat="45.69587" lon="2.98753">
        <ele>938.86</ele>
        <time>2015-07-13T06:53:58Z</time>
      </trkpt>
      <trkpt lat="45.69609" lon="2.98681">
        <ele>936.46</ele>
        <time>2015-07-13T06:54:12Z</time>
      </trkpt>
      <trkpt lat="45.69614" lon="2.98661">
        <ele>935.98</ele>
        <time>2015-07-13T06:54:15Z</time>
      </trkpt>
      <trkpt lat="45.69615" lon="2.98653">
        <ele>935.98</ele>
        <time>2015-07-13T06:54:16Z</time>
      </trkpt>
      <trkpt lat="45.69616" lon="2.98647">
        <ele>935.98</ele>
        <time>2015-07-13T06:54:17Z</time>
      </trkpt>
      <trkpt lat="45.69625" lon="2.98605">
        <ele>937.42</ele>
        <time>2015-07-13T06:54:25Z</time>
      </trkpt>
      <trkpt lat="45.69626" lon="2.98601">
        <ele>937.9</ele>
        <time>2015-07-13T06:54:26Z</time>
      </trkpt>
      <trkpt lat="45.69628" lon="2.98597">
        <ele>937.9</ele>
        <time>2015-07-13T06:54:27Z</time>
      </trkpt>
      <trkpt lat="45.69629" lon="2.98592">
        <ele>938.38</ele>
        <time>2015-07-13T06:54:28Z</time>
      </trkpt>
      <trkpt lat="45.6963" lon="2.98588">
        <ele>938.38</ele>
        <time>2015-07-13T06:54:29Z</time>
      </trkpt>
      <trkpt lat="45.69631" lon="2.98584">
        <ele>938.38</ele>
        <time>2015-07-13T06:54:30Z</time>
      </trkpt>
      <trkpt lat="45.69633" lon="2.98581">
        <ele>938.38</ele>
        <time>2015-07-13T06:54:31Z</time>
      </trkpt>
      <trkpt lat="45.69636" lon="2.98578">
        <ele>938.38</ele>
        <time>2015-07-13T06:54:32Z</time>
      </trkpt>
      <trkpt lat="45.69638" lon="2.98574">
        <ele>938.38</ele>
        <time>2015-07-13T06:54:33Z</time>
      </trkpt>
      <trkpt lat="45.69639" lon="2.9857">
        <ele>938.86</ele>
        <time>2015-07-13T06:54:34Z</time>
      </trkpt>
      <trkpt lat="45.6964" lon="2.98566">
        <ele>938.86</ele>
        <time>2015-07-13T06:54:35Z</time>
      </trkpt>
      <trkpt lat="45.69641" lon="2.98562">
        <ele>939.35</ele>
        <time>2015-07-13T06:54:36Z</time>
      </trkpt>
      <trkpt lat="45.69642" lon="2.98558">
        <ele>939.35</ele>
        <time>2015-07-13T06:54:37Z</time>
      </trkpt>
      <trkpt lat="45.69648" lon="2.98521">
        <ele>941.27</ele>
        <time>2015-07-13T06:54:48Z</time>
      </trkpt>
      <trkpt lat="45.6965" lon="2.98502">
        <ele>942.23</ele>
        <time>2015-07-13T06:54:53Z</time>
      </trkpt>
      <trkpt lat="45.6965" lon="2.98498">
        <ele>942.23</ele>
        <time>2015-07-13T06:54:54Z</time>
      </trkpt>
      <trkpt lat="45.69651" lon="2.98494">
        <ele>942.23</ele>
        <time>2015-07-13T06:54:55Z</time>
      </trkpt>
      <trkpt lat="45.69651" lon="2.9849">
        <ele>942.23</ele>
        <time>2015-07-13T06:54:56Z</time>
      </trkpt>
      <trkpt lat="45.69651" lon="2.98486">
        <ele>942.71</ele>
        <time>2015-07-13T06:54:57Z</time>
      </trkpt>
      <trkpt lat="45.69652" lon="2.98482">
        <ele>943.19</ele>
        <time>2015-07-13T06:54:58Z</time>
      </trkpt>
      <trkpt lat="45.69652" lon="2.9848">
        <ele>943.19</ele>
        <time>2015-07-13T06:54:59Z</time>
      </trkpt>
      <trkpt lat="45.69652" lon="2.98476">
        <ele>943.67</ele>
        <time>2015-07-13T06:55:00Z</time>
      </trkpt>
      <trkpt lat="45.69654" lon="2.98475">
        <ele>944.15</ele>
        <time>2015-07-13T06:55:01Z</time>
      </trkpt>
      <trkpt lat="45.6966" lon="2.98444">
        <ele>946.07</ele>
        <time>2015-07-13T06:55:12Z</time>
      </trkpt>
      <trkpt lat="45.69664" lon="2.9842">
        <ele>947.04</ele>
        <time>2015-07-13T06:55:20Z</time>
      </trkpt>
      <trkpt lat="45.69673" lon="2.98394">
        <ele>948</ele>
        <time>2015-07-13T06:55:29Z</time>
      </trkpt>
      <trkpt lat="45.69678" lon="2.98374">
        <ele>948.96</ele>
        <time>2015-07-13T06:55:36Z</time>
      </trkpt>
      <trkpt lat="45.69679" lon="2.9837">
        <ele>948.96</ele>
        <time>2015-07-13T06:55:37Z</time>
      </trkpt>
      <trkpt lat="45.69685" lon="2.98324">
        <ele>948.96</ele>
        <time>2015-07-13T06:55:49Z</time>
      </trkpt>
      <trkpt lat="45.69696" lon="2.98295">
        <ele>949.44</ele>
        <time>2015-07-13T06:55:59Z</time>
      </trkpt>
      <trkpt lat="45.69697" lon="2.98251">
        <ele>949.44</ele>
        <time>2015-07-13T06:56:10Z</time>
      </trkpt>
      <trkpt lat="45.69699" lon="2.98205">
        <ele>949.44</ele>
        <time>2015-07-13T06:56:21Z</time>
      </trkpt>
      <trkpt lat="45.69705" lon="2.98135">
        <ele>948.48</ele>
        <time>2015-07-13T06:56:34Z</time>
      </trkpt>
      <trkpt lat="45.69711" lon="2.98095">
        <ele>948.48</ele>
        <time>2015-07-13T06:56:45Z</time>
      </trkpt>
      <trkpt lat="45.69717" lon="2.9806">
        <ele>948.96</ele>
        <time>2015-07-13T06:56:55Z</time>
      </trkpt>
      <trkpt lat="45.69728" lon="2.98013">
        <ele>949.92</ele>
        <time>2015-07-13T06:57:06Z</time>
      </trkpt>
      <trkpt lat="45.69741" lon="2.97962">
        <ele>950.88</ele>
        <time>2015-07-13T06:57:19Z</time>
      </trkpt>
      <trkpt lat="45.69755" lon="2.97917">
        <ele>951.36</ele>
        <time>2015-07-13T06:57:30Z</time>
      </trkpt>
      <trkpt lat="45.69758" lon="2.97913">
        <ele>951.36</ele>
        <time>2015-07-13T06:57:31Z</time>
      </trkpt>
      <trkpt lat="45.69771" lon="2.97887">
        <ele>952.8</ele>
        <time>2015-07-13T06:57:41Z</time>
      </trkpt>
      <trkpt lat="45.69773" lon="2.97886">
        <ele>952.32</ele>
        <time>2015-07-13T06:57:42Z</time>
      </trkpt>
      <trkpt lat="45.69775" lon="2.97883">
        <ele>952.8</ele>
        <time>2015-07-13T06:57:44Z</time>
      </trkpt>
      <trkpt lat="45.69774" lon="2.9788">
        <ele>952.8</ele>
        <time>2015-07-13T06:57:45Z</time>
      </trkpt>
      <trkpt lat="45.69792" lon="2.97837">
        <ele>953.77</ele>
        <time>2015-07-13T06:57:56Z</time>
      </trkpt>
      <trkpt lat="45.69793" lon="2.97833">
        <ele>953.77</ele>
        <time>2015-07-13T06:57:57Z</time>
      </trkpt>
      <trkpt lat="45.69797" lon="2.97825">
        <ele>954.25</ele>
        <time>2015-07-13T06:57:59Z</time>
      </trkpt>
      <trkpt lat="45.698" lon="2.97822">
        <ele>954.25</ele>
        <time>2015-07-13T06:58:00Z</time>
      </trkpt>
      <trkpt lat="45.69803" lon="2.97819">
        <ele>954.25</ele>
        <time>2015-07-13T06:58:01Z</time>
      </trkpt>
      <trkpt lat="45.69805" lon="2.97816">
        <ele>954.25</ele>
        <time>2015-07-13T06:58:02Z</time>
      </trkpt>
      <trkpt lat="45.69807" lon="2.97814">
        <ele>954.73</ele>
        <time>2015-07-13T06:58:03Z</time>
      </trkpt>
      <trkpt lat="45.69838" lon="2.97801">
        <ele>955.69</ele>
        <time>2015-07-13T06:58:15Z</time>
      </trkpt>
      <trkpt lat="45.6986" lon="2.97786">
        <ele>956.65</ele>
        <time>2015-07-13T06:58:24Z</time>
      </trkpt>
      <trkpt lat="45.69827" lon="2.97689">
        <ele>957.13</ele>
        <time>2015-07-13T06:58:31Z</time>
      </trkpt>
      <trkpt lat="45.69837" lon="2.97651">
        <ele>959.05</ele>
        <time>2015-07-13T06:58:43Z</time>
      </trkpt>
      <trkpt lat="45.69838" lon="2.97645">
        <ele>959.05</ele>
        <time>2015-07-13T06:58:45Z</time>
      </trkpt>
      <trkpt lat="45.6985" lon="2.97622">
        <ele>960.98</ele>
        <time>2015-07-13T06:58:54Z</time>
      </trkpt>
      <trkpt lat="45.69857" lon="2.97584">
        <ele>962.42</ele>
        <time>2015-07-13T06:59:07Z</time>
      </trkpt>
      <trkpt lat="45.69867" lon="2.97554">
        <ele>963.86</ele>
        <time>2015-07-13T06:59:17Z</time>
      </trkpt>
      <trkpt lat="45.69869" lon="2.97545">
        <ele>964.34</ele>
        <time>2015-07-13T06:59:20Z</time>
      </trkpt>
      <trkpt lat="45.69875" lon="2.97521">
        <ele>965.78</ele>
        <time>2015-07-13T06:59:28Z</time>
      </trkpt>
      <trkpt lat="45.69881" lon="2.97511">
        <ele>966.74</ele>
        <time>2015-07-13T06:59:33Z</time>
      </trkpt>
      <trkpt lat="45.69903" lon="2.97476">
        <ele>968.18</ele>
        <time>2015-07-13T06:59:44Z</time>
      </trkpt>
      <trkpt lat="45.69914" lon="2.97436">
        <ele>970.11</ele>
        <time>2015-07-13T06:59:57Z</time>
      </trkpt>
      <trkpt lat="45.69915" lon="2.97427">
        <ele>970.59</ele>
        <time>2015-07-13T06:59:59Z</time>
      </trkpt>
      <trkpt lat="45.69914" lon="2.97412">
        <ele>971.55</ele>
        <time>2015-07-13T07:00:02Z</time>
      </trkpt>
      <trkpt lat="45.69916" lon="2.97402">
        <ele>972.51</ele>
        <time>2015-07-13T07:00:07Z</time>
      </trkpt>
      <trkpt lat="45.69919" lon="2.97395">
        <ele>972.99</ele>
        <time>2015-07-13T07:00:11Z</time>
      </trkpt>
      <trkpt lat="45.69933" lon="2.97378">
        <ele>975.39</ele>
        <time>2015-07-13T07:00:20Z</time>
      </trkpt>
      <trkpt lat="45.69941" lon="2.97366">
        <ele>976.84</ele>
        <time>2015-07-13T07:00:27Z</time>
      </trkpt>
      <trkpt lat="45.69951" lon="2.97332">
        <ele>978.76</ele>
        <time>2015-07-13T07:00:38Z</time>
      </trkpt>
      <trkpt lat="45.69953" lon="2.97323">
        <ele>979.24</ele>
        <time>2015-07-13T07:00:41Z</time>
      </trkpt>
      <trkpt lat="45.69961" lon="2.97302">
        <ele>980.2</ele>
        <time>2015-07-13T07:00:49Z</time>
      </trkpt>
      <trkpt lat="45.69968" lon="2.97284">
        <ele>981.16</ele>
        <time>2015-07-13T07:00:56Z</time>
      </trkpt>
      <trkpt lat="45.69976" lon="2.97264">
        <ele>981.64</ele>
        <time>2015-07-13T07:01:04Z</time>
      </trkpt>
      <trkpt lat="45.69979" lon="2.97241">
        <ele>982.6</ele>
        <time>2015-07-13T07:01:12Z</time>
      </trkpt>
      <trkpt lat="45.69986" lon="2.97195">
        <ele>983.57</ele>
        <time>2015-07-13T07:01:25Z</time>
      </trkpt>
      <trkpt lat="45.69996" lon="2.9715">
        <ele>983.09</ele>
        <time>2015-07-13T07:01:37Z</time>
      </trkpt>
      <trkpt lat="45.70009" lon="2.97107">
        <ele>982.12</ele>
        <time>2015-07-13T07:01:47Z</time>
      </trkpt>
      <trkpt lat="45.70022" lon="2.97068">
        <ele>982.12</ele>
        <time>2015-07-13T07:01:55Z</time>
      </trkpt>
      <trkpt lat="45.70042" lon="2.97036">
        <ele>981.16</ele>
        <time>2015-07-13T07:02:02Z</time>
      </trkpt>
      <trkpt lat="45.70053" lon="2.97026">
        <ele>981.16</ele>
        <time>2015-07-13T07:02:05Z</time>
      </trkpt>
      <trkpt lat="45.70062" lon="2.97021">
        <ele>981.16</ele>
        <time>2015-07-13T07:02:07Z</time>
      </trkpt>
      <trkpt lat="45.70071" lon="2.97014">
        <ele>981.16</ele>
        <time>2015-07-13T07:02:09Z</time>
      </trkpt>
      <trkpt lat="45.70073" lon="2.97009">
        <ele>981.16</ele>
        <time>2015-07-13T07:02:10Z</time>
      </trkpt>
      <trkpt lat="45.70081" lon="2.96953">
        <ele>981.16</ele>
        <time>2015-07-13T07:02:19Z</time>
      </trkpt>
      <trkpt lat="45.70092" lon="2.96912">
        <ele>980.68</ele>
        <time>2015-07-13T07:02:26Z</time>
      </trkpt>
      <trkpt lat="45.70094" lon="2.96906">
        <ele>980.68</ele>
        <time>2015-07-13T07:02:27Z</time>
      </trkpt>
      <trkpt lat="45.701" lon="2.96888">
        <ele>980.2</ele>
        <time>2015-07-13T07:02:30Z</time>
      </trkpt>
      <trkpt lat="45.70122" lon="2.96842">
        <ele>980.2</ele>
        <time>2015-07-13T07:02:38Z</time>
      </trkpt>
      <trkpt lat="45.70124" lon="2.96836">
        <ele>980.2</ele>
        <time>2015-07-13T07:02:39Z</time>
      </trkpt>
      <trkpt lat="45.70126" lon="2.9683">
        <ele>980.2</ele>
        <time>2015-07-13T07:02:40Z</time>
      </trkpt>
      <trkpt lat="45.70129" lon="2.96819">
        <ele>980.68</ele>
        <time>2015-07-13T07:02:42Z</time>
      </trkpt>
      <trkpt lat="45.70131" lon="2.96814">
        <ele>980.68</ele>
        <time>2015-07-13T07:02:43Z</time>
      </trkpt>
      <trkpt lat="45.7014" lon="2.9679">
        <ele>981.16</ele>
        <time>2015-07-13T07:02:48Z</time>
      </trkpt>
      <trkpt lat="45.70143" lon="2.96787">
        <ele>981.16</ele>
        <time>2015-07-13T07:02:49Z</time>
      </trkpt>
      <trkpt lat="45.70145" lon="2.96783">
        <ele>981.16</ele>
        <time>2015-07-13T07:02:50Z</time>
      </trkpt>
      <trkpt lat="45.70158" lon="2.96766">
        <ele>982.12</ele>
        <time>2015-07-13T07:02:55Z</time>
      </trkpt>
      <trkpt lat="45.70159" lon="2.96761">
        <ele>982.12</ele>
        <time>2015-07-13T07:02:56Z</time>
      </trkpt>
      <trkpt lat="45.7016" lon="2.96756">
        <ele>982.12</ele>
        <time>2015-07-13T07:02:57Z</time>
      </trkpt>
      <trkpt lat="45.70175" lon="2.96734">
        <ele>983.09</ele>
        <time>2015-07-13T07:03:08Z</time>
      </trkpt>
      <trkpt lat="45.70207" lon="2.96759">
        <ele>983.57</ele>
        <time>2015-07-13T07:03:21Z</time>
      </trkpt>
      <trkpt lat="45.7022" lon="2.96763">
        <ele>984.53</ele>
        <time>2015-07-13T07:03:26Z</time>
      </trkpt>
      <trkpt lat="45.70222" lon="2.96765">
        <ele>985.49</ele>
        <time>2015-07-13T07:03:27Z</time>
      </trkpt>
      <trkpt lat="45.70223" lon="2.96766">
        <ele>985.49</ele>
        <time>2015-07-13T07:03:28Z</time>
      </trkpt>
      <trkpt lat="45.70225" lon="2.96767">
        <ele>985.49</ele>
        <time>2015-07-13T07:03:29Z</time>
      </trkpt>
      <trkpt lat="45.70227" lon="2.96767">
        <ele>985.97</ele>
        <time>2015-07-13T07:03:30Z</time>
      </trkpt>
      <trkpt lat="45.7023" lon="2.96767">
        <ele>986.45</ele>
        <time>2015-07-13T07:03:31Z</time>
      </trkpt>
      <trkpt lat="45.70233" lon="2.96768">
        <ele>986.45</ele>
        <time>2015-07-13T07:03:32Z</time>
      </trkpt>
      <trkpt lat="45.70234" lon="2.96768">
        <ele>986.93</ele>
        <time>2015-07-13T07:03:33Z</time>
      </trkpt>
      <trkpt lat="45.70236" lon="2.96769">
        <ele>986.93</ele>
        <time>2015-07-13T07:03:34Z</time>
      </trkpt>
      <trkpt lat="45.70239" lon="2.9677">
        <ele>986.93</ele>
        <time>2015-07-13T07:03:35Z</time>
      </trkpt>
      <trkpt lat="45.70241" lon="2.96771">
        <ele>987.41</ele>
        <time>2015-07-13T07:03:36Z</time>
      </trkpt>
      <trkpt lat="45.70244" lon="2.96773">
        <ele>987.41</ele>
        <time>2015-07-13T07:03:37Z</time>
      </trkpt>
      <trkpt lat="45.70247" lon="2.96774">
        <ele>987.41</ele>
        <time>2015-07-13T07:03:38Z</time>
      </trkpt>
      <trkpt lat="45.7025" lon="2.96776">
        <ele>987.41</ele>
        <time>2015-07-13T07:03:39Z</time>
      </trkpt>
      <trkpt lat="45.70252" lon="2.96777">
        <ele>987.41</ele>
        <time>2015-07-13T07:03:40Z</time>
      </trkpt>
      <trkpt lat="45.70255" lon="2.96779">
        <ele>987.41</ele>
        <time>2015-07-13T07:03:41Z</time>
      </trkpt>
      <trkpt lat="45.70288" lon="2.96799">
        <ele>987.89</ele>
        <time>2015-07-13T07:03:52Z</time>
      </trkpt>
      <trkpt lat="45.70291" lon="2.96801">
        <ele>988.37</ele>
        <time>2015-07-13T07:03:53Z</time>
      </trkpt>
      <trkpt lat="45.70319" lon="2.96821">
        <ele>988.85</ele>
        <time>2015-07-13T07:04:02Z</time>
      </trkpt>
      <trkpt lat="45.7036" lon="2.96844">
        <ele>986.93</ele>
        <time>2015-07-13T07:04:12Z</time>
      </trkpt>
      <trkpt lat="45.70388" lon="2.96856">
        <ele>985.49</ele>
        <time>2015-07-13T07:04:17Z</time>
      </trkpt>
      <trkpt lat="45.70394" lon="2.96858">
        <ele>985.49</ele>
        <time>2015-07-13T07:04:18Z</time>
      </trkpt>
      <trkpt lat="45.70406" lon="2.96862">
        <ele>985.01</ele>
        <time>2015-07-13T07:04:20Z</time>
      </trkpt>
      <trkpt lat="45.70415" lon="2.96868">
        <ele>985.01</ele>
        <time>2015-07-13T07:04:22Z</time>
      </trkpt>
      <trkpt lat="45.70436" lon="2.96887">
        <ele>983.57</ele>
        <time>2015-07-13T07:04:26Z</time>
      </trkpt>
      <trkpt lat="45.7044" lon="2.96892">
        <ele>982.6</ele>
        <time>2015-07-13T07:04:27Z</time>
      </trkpt>
      <trkpt lat="45.70473" lon="2.96921">
        <ele>979.72</ele>
        <time>2015-07-13T07:04:33Z</time>
      </trkpt>
      <trkpt lat="45.70483" lon="2.9693">
        <ele>978.76</ele>
        <time>2015-07-13T07:04:35Z</time>
      </trkpt>
      <trkpt lat="45.70488" lon="2.96936">
        <ele>978.28</ele>
        <time>2015-07-13T07:04:36Z</time>
      </trkpt>
      <trkpt lat="45.70493" lon="2.9694">
        <ele>978.28</ele>
        <time>2015-07-13T07:04:37Z</time>
      </trkpt>
      <trkpt lat="45.70504" lon="2.96949">
        <ele>976.84</ele>
        <time>2015-07-13T07:04:39Z</time>
      </trkpt>
      <trkpt lat="45.70509" lon="2.96955">
        <ele>976.36</ele>
        <time>2015-07-13T07:04:40Z</time>
      </trkpt>
      <trkpt lat="45.70516" lon="2.9696">
        <ele>975.88</ele>
        <time>2015-07-13T07:04:41Z</time>
      </trkpt>
      <trkpt lat="45.70523" lon="2.96965">
        <ele>975.88</ele>
        <time>2015-07-13T07:04:42Z</time>
      </trkpt>
      <trkpt lat="45.70529" lon="2.96971">
        <ele>974.43</ele>
        <time>2015-07-13T07:04:43Z</time>
      </trkpt>
      <trkpt lat="45.70571" lon="2.97015">
        <ele>972.51</ele>
        <time>2015-07-13T07:04:52Z</time>
      </trkpt>
      <trkpt lat="45.70575" lon="2.9702">
        <ele>972.51</ele>
        <time>2015-07-13T07:04:53Z</time>
      </trkpt>
      <trkpt lat="45.70624" lon="2.97061">
        <ele>969.63</ele>
        <time>2015-07-13T07:05:02Z</time>
      </trkpt>
      <trkpt lat="45.70629" lon="2.97063">
        <ele>969.15</ele>
        <time>2015-07-13T07:05:03Z</time>
      </trkpt>
      <trkpt lat="45.70641" lon="2.97066">
        <ele>969.15</ele>
        <time>2015-07-13T07:05:05Z</time>
      </trkpt>
      <trkpt lat="45.70647" lon="2.97067">
        <ele>968.67</ele>
        <time>2015-07-13T07:05:06Z</time>
      </trkpt>
      <trkpt lat="45.70653" lon="2.97067">
        <ele>968.18</ele>
        <time>2015-07-13T07:05:07Z</time>
      </trkpt>
      <trkpt lat="45.70673" lon="2.97063">
        <ele>966.74</ele>
        <time>2015-07-13T07:05:10Z</time>
      </trkpt>
      <trkpt lat="45.707" lon="2.97054">
        <ele>965.78</ele>
        <time>2015-07-13T07:05:14Z</time>
      </trkpt>
      <trkpt lat="45.70713" lon="2.97054">
        <ele>965.78</ele>
        <time>2015-07-13T07:05:16Z</time>
      </trkpt>
      <trkpt lat="45.70737" lon="2.97059">
        <ele>964.82</ele>
        <time>2015-07-13T07:05:20Z</time>
      </trkpt>
      <trkpt lat="45.70742" lon="2.97062">
        <ele>964.82</ele>
        <time>2015-07-13T07:05:21Z</time>
      </trkpt>
      <trkpt lat="45.70776" lon="2.97089">
        <ele>963.86</ele>
        <time>2015-07-13T07:05:27Z</time>
      </trkpt>
      <trkpt lat="45.70782" lon="2.97095">
        <ele>963.86</ele>
        <time>2015-07-13T07:05:28Z</time>
      </trkpt>
      <trkpt lat="45.70824" lon="2.97136">
        <ele>964.82</ele>
        <time>2015-07-13T07:05:36Z</time>
      </trkpt>
      <trkpt lat="45.70854" lon="2.97176">
        <ele>965.78</ele>
        <time>2015-07-13T07:05:43Z</time>
      </trkpt>
      <trkpt lat="45.70868" lon="2.97189">
        <ele>965.78</ele>
        <time>2015-07-13T07:05:46Z</time>
      </trkpt>
      <trkpt lat="45.70878" lon="2.97194">
        <ele>966.26</ele>
        <time>2015-07-13T07:05:48Z</time>
      </trkpt>
      <trkpt lat="45.70884" lon="2.97196">
        <ele>966.74</ele>
        <time>2015-07-13T07:05:49Z</time>
      </trkpt>
      <trkpt lat="45.70889" lon="2.97198">
        <ele>966.74</ele>
        <time>2015-07-13T07:05:50Z</time>
      </trkpt>
      <trkpt lat="45.70893" lon="2.972">
        <ele>967.22</ele>
        <time>2015-07-13T07:05:51Z</time>
      </trkpt>
      <trkpt lat="45.70896" lon="2.97202">
        <ele>966.74</ele>
        <time>2015-07-13T07:05:52Z</time>
      </trkpt>
      <trkpt lat="45.70902" lon="2.97204">
        <ele>966.74</ele>
        <time>2015-07-13T07:05:54Z</time>
      </trkpt>
      <trkpt lat="45.70917" lon="2.97211">
        <ele>965.78</ele>
        <time>2015-07-13T07:05:57Z</time>
      </trkpt>
      <trkpt lat="45.70923" lon="2.97213">
        <ele>965.3</ele>
        <time>2015-07-13T07:05:58Z</time>
      </trkpt>
      <trkpt lat="45.70929" lon="2.97215">
        <ele>964.82</ele>
        <time>2015-07-13T07:05:59Z</time>
      </trkpt>
      <trkpt lat="45.70942" lon="2.97217">
        <ele>963.38</ele>
        <time>2015-07-13T07:06:01Z</time>
      </trkpt>
      <trkpt lat="45.70967" lon="2.97221">
        <ele>961.94</ele>
        <time>2015-07-13T07:06:05Z</time>
      </trkpt>
      <trkpt lat="45.71018" lon="2.97233">
        <ele>961.46</ele>
        <time>2015-07-13T07:06:13Z</time>
      </trkpt>
      <trkpt lat="45.71024" lon="2.97234">
        <ele>961.46</ele>
        <time>2015-07-13T07:06:14Z</time>
      </trkpt>
      <trkpt lat="45.71029" lon="2.97235">
        <ele>961.46</ele>
        <time>2015-07-13T07:06:15Z</time>
      </trkpt>
      <trkpt lat="45.71059" lon="2.97238">
        <ele>962.42</ele>
        <time>2015-07-13T07:06:20Z</time>
      </trkpt>
      <trkpt lat="45.71104" lon="2.97241">
        <ele>965.3</ele>
        <time>2015-07-13T07:06:29Z</time>
      </trkpt>
      <trkpt lat="45.71117" lon="2.97242">
        <ele>965.3</ele>
        <time>2015-07-13T07:06:32Z</time>
      </trkpt>
      <trkpt lat="45.71122" lon="2.9724">
        <ele>964.82</ele>
        <time>2015-07-13T07:06:33Z</time>
      </trkpt>
      <trkpt lat="45.71127" lon="2.97238">
        <ele>964.82</ele>
        <time>2015-07-13T07:06:34Z</time>
      </trkpt>
      <trkpt lat="45.71133" lon="2.97236">
        <ele>964.34</ele>
        <time>2015-07-13T07:06:35Z</time>
      </trkpt>
      <trkpt lat="45.71138" lon="2.97235">
        <ele>964.34</ele>
        <time>2015-07-13T07:06:36Z</time>
      </trkpt>
      <trkpt lat="45.71152" lon="2.97233">
        <ele>963.86</ele>
        <time>2015-07-13T07:06:38Z</time>
      </trkpt>
      <trkpt lat="45.71159" lon="2.97231">
        <ele>963.86</ele>
        <time>2015-07-13T07:06:39Z</time>
      </trkpt>
      <trkpt lat="45.71191" lon="2.97215">
        <ele>963.38</ele>
        <time>2015-07-13T07:06:45Z</time>
      </trkpt>
      <trkpt lat="45.71196" lon="2.97211">
        <ele>963.38</ele>
        <time>2015-07-13T07:06:46Z</time>
      </trkpt>
      <trkpt lat="45.71201" lon="2.97207">
        <ele>963.38</ele>
        <time>2015-07-13T07:06:47Z</time>
      </trkpt>
      <trkpt lat="45.71217" lon="2.97194">
        <ele>963.86</ele>
        <time>2015-07-13T07:06:51Z</time>
      </trkpt>
      <trkpt lat="45.7122" lon="2.97189">
        <ele>963.86</ele>
        <time>2015-07-13T07:06:52Z</time>
      </trkpt>
      <trkpt lat="45.71232" lon="2.97171">
        <ele>963.86</ele>
        <time>2015-07-13T07:06:56Z</time>
      </trkpt>
      <trkpt lat="45.71239" lon="2.97163">
        <ele>964.34</ele>
        <time>2015-07-13T07:06:58Z</time>
      </trkpt>
      <trkpt lat="45.71261" lon="2.97149">
        <ele>964.34</ele>
        <time>2015-07-13T07:07:04Z</time>
      </trkpt>
      <trkpt lat="45.71275" lon="2.97142">
        <ele>964.82</ele>
        <time>2015-07-13T07:07:07Z</time>
      </trkpt>
      <trkpt lat="45.71279" lon="2.97141">
        <ele>964.82</ele>
        <time>2015-07-13T07:07:08Z</time>
      </trkpt>
      <trkpt lat="45.71293" lon="2.97137">
        <ele>965.3</ele>
        <time>2015-07-13T07:07:11Z</time>
      </trkpt>
      <trkpt lat="45.71302" lon="2.97133">
        <ele>965.3</ele>
        <time>2015-07-13T07:07:13Z</time>
      </trkpt>
      <trkpt lat="45.71307" lon="2.97132">
        <ele>965.78</ele>
        <time>2015-07-13T07:07:14Z</time>
      </trkpt>
      <trkpt lat="45.71335" lon="2.97119">
        <ele>966.74</ele>
        <time>2015-07-13T07:07:20Z</time>
      </trkpt>
      <trkpt lat="45.7134" lon="2.97118">
        <ele>966.74</ele>
        <time>2015-07-13T07:07:21Z</time>
      </trkpt>
      <trkpt lat="45.71359" lon="2.97118">
        <ele>964.82</ele>
        <time>2015-07-13T07:07:25Z</time>
      </trkpt>
      <trkpt lat="45.71364" lon="2.97118">
        <ele>964.34</ele>
        <time>2015-07-13T07:07:26Z</time>
      </trkpt>
      <trkpt lat="45.71369" lon="2.97118">
        <ele>964.34</ele>
        <time>2015-07-13T07:07:27Z</time>
      </trkpt>
      <trkpt lat="45.71375" lon="2.97119">
        <ele>963.86</ele>
        <time>2015-07-13T07:07:28Z</time>
      </trkpt>
      <trkpt lat="45.7138" lon="2.97121">
        <ele>963.38</ele>
        <time>2015-07-13T07:07:29Z</time>
      </trkpt>
      <trkpt lat="45.71385" lon="2.97123">
        <ele>962.9</ele>
        <time>2015-07-13T07:07:30Z</time>
      </trkpt>
      <trkpt lat="45.7139" lon="2.97127">
        <ele>962.42</ele>
        <time>2015-07-13T07:07:31Z</time>
      </trkpt>
      <trkpt lat="45.71395" lon="2.97131">
        <ele>961.46</ele>
        <time>2015-07-13T07:07:32Z</time>
      </trkpt>
      <trkpt lat="45.714" lon="2.97135">
        <ele>960.98</ele>
        <time>2015-07-13T07:07:33Z</time>
      </trkpt>
      <trkpt lat="45.71406" lon="2.97137">
        <ele>960.49</ele>
        <time>2015-07-13T07:07:34Z</time>
      </trkpt>
      <trkpt lat="45.71413" lon="2.97138">
        <ele>960.49</ele>
        <time>2015-07-13T07:07:35Z</time>
      </trkpt>
      <trkpt lat="45.7142" lon="2.97138">
        <ele>959.53</ele>
        <time>2015-07-13T07:07:36Z</time>
      </trkpt>
      <trkpt lat="45.71427" lon="2.97137">
        <ele>959.05</ele>
        <time>2015-07-13T07:07:37Z</time>
      </trkpt>
      <trkpt lat="45.71435" lon="2.97134">
        <ele>958.57</ele>
        <time>2015-07-13T07:07:38Z</time>
      </trkpt>
      <trkpt lat="45.71474" lon="2.97117">
        <ele>955.21</ele>
        <time>2015-07-13T07:07:43Z</time>
      </trkpt>
      <trkpt lat="45.71481" lon="2.97114">
        <ele>954.73</ele>
        <time>2015-07-13T07:07:44Z</time>
      </trkpt>
      <trkpt lat="45.71494" lon="2.97109">
        <ele>953.77</ele>
        <time>2015-07-13T07:07:46Z</time>
      </trkpt>
      <trkpt lat="45.71501" lon="2.97108">
        <ele>953.28</ele>
        <time>2015-07-13T07:07:47Z</time>
      </trkpt>
      <trkpt lat="45.71508" lon="2.97108">
        <ele>952.32</ele>
        <time>2015-07-13T07:07:48Z</time>
      </trkpt>
      <trkpt lat="45.71514" lon="2.9711">
        <ele>951.84</ele>
        <time>2015-07-13T07:07:49Z</time>
      </trkpt>
      <trkpt lat="45.7152" lon="2.97113">
        <ele>951.36</ele>
        <time>2015-07-13T07:07:50Z</time>
      </trkpt>
      <trkpt lat="45.71526" lon="2.97116">
        <ele>950.88</ele>
        <time>2015-07-13T07:07:51Z</time>
      </trkpt>
      <trkpt lat="45.71544" lon="2.97124">
        <ele>949.44</ele>
        <time>2015-07-13T07:07:54Z</time>
      </trkpt>
      <trkpt lat="45.71552" lon="2.97122">
        <ele>948.96</ele>
        <time>2015-07-13T07:07:55Z</time>
      </trkpt>
      <trkpt lat="45.7156" lon="2.97116">
        <ele>948.96</ele>
        <time>2015-07-13T07:07:56Z</time>
      </trkpt>
      <trkpt lat="45.71566" lon="2.97108">
        <ele>948.48</ele>
        <time>2015-07-13T07:07:57Z</time>
      </trkpt>
      <trkpt lat="45.7157" lon="2.97099">
        <ele>948</ele>
        <time>2015-07-13T07:07:58Z</time>
      </trkpt>
      <trkpt lat="45.71573" lon="2.97091">
        <ele>947.52</ele>
        <time>2015-07-13T07:07:59Z</time>
      </trkpt>
      <trkpt lat="45.71573" lon="2.97082">
        <ele>947.52</ele>
        <time>2015-07-13T07:08:00Z</time>
      </trkpt>
      <trkpt lat="45.71573" lon="2.97072">
        <ele>947.52</ele>
        <time>2015-07-13T07:08:01Z</time>
      </trkpt>
      <trkpt lat="45.71575" lon="2.97062">
        <ele>947.04</ele>
        <time>2015-07-13T07:08:02Z</time>
      </trkpt>
      <trkpt lat="45.71578" lon="2.97054">
        <ele>947.04</ele>
        <time>2015-07-13T07:08:03Z</time>
      </trkpt>
      <trkpt lat="45.71582" lon="2.97048">
        <ele>946.56</ele>
        <time>2015-07-13T07:08:04Z</time>
      </trkpt>
      <trkpt lat="45.71586" lon="2.97041">
        <ele>946.56</ele>
        <time>2015-07-13T07:08:05Z</time>
      </trkpt>
      <trkpt lat="45.71592" lon="2.97034">
        <ele>946.56</ele>
        <time>2015-07-13T07:08:06Z</time>
      </trkpt>
      <trkpt lat="45.71597" lon="2.97029">
        <ele>946.07</ele>
        <time>2015-07-13T07:08:07Z</time>
      </trkpt>
      <trkpt lat="45.71603" lon="2.97025">
        <ele>945.59</ele>
        <time>2015-07-13T07:08:08Z</time>
      </trkpt>
      <trkpt lat="45.71608" lon="2.97021">
        <ele>945.59</ele>
        <time>2015-07-13T07:08:09Z</time>
      </trkpt>
      <trkpt lat="45.71614" lon="2.97018">
        <ele>946.07</ele>
        <time>2015-07-13T07:08:10Z</time>
      </trkpt>
      <trkpt lat="45.7162" lon="2.97016">
        <ele>945.59</ele>
        <time>2015-07-13T07:08:11Z</time>
      </trkpt>
      <trkpt lat="45.71626" lon="2.97015">
        <ele>945.59</ele>
        <time>2015-07-13T07:08:12Z</time>
      </trkpt>
      <trkpt lat="45.71676" lon="2.97009">
        <ele>945.59</ele>
        <time>2015-07-13T07:08:21Z</time>
      </trkpt>
      <trkpt lat="45.71691" lon="2.9701">
        <ele>945.59</ele>
        <time>2015-07-13T07:08:24Z</time>
      </trkpt>
      <trkpt lat="45.71697" lon="2.97009">
        <ele>946.07</ele>
        <time>2015-07-13T07:08:25Z</time>
      </trkpt>
      <trkpt lat="45.71702" lon="2.97008">
        <ele>946.07</ele>
        <time>2015-07-13T07:08:26Z</time>
      </trkpt>
      <trkpt lat="45.71708" lon="2.97008">
        <ele>945.59</ele>
        <time>2015-07-13T07:08:27Z</time>
      </trkpt>
      <trkpt lat="45.71713" lon="2.97008">
        <ele>945.59</ele>
        <time>2015-07-13T07:08:28Z</time>
      </trkpt>
      <trkpt lat="45.71776" lon="2.97012">
        <ele>946.07</ele>
        <time>2015-07-13T07:08:41Z</time>
      </trkpt>
      <trkpt lat="45.71828" lon="2.97025">
        <ele>947.04</ele>
        <time>2015-07-13T07:08:53Z</time>
      </trkpt>
      <trkpt lat="45.71832" lon="2.97025">
        <ele>947.04</ele>
        <time>2015-07-13T07:08:54Z</time>
      </trkpt>
      <trkpt lat="45.71837" lon="2.97026">
        <ele>947.52</ele>
        <time>2015-07-13T07:08:55Z</time>
      </trkpt>
      <trkpt lat="45.71902" lon="2.97043">
        <ele>948</ele>
        <time>2015-07-13T07:09:11Z</time>
      </trkpt>
      <trkpt lat="45.71944" lon="2.97057">
        <ele>948.96</ele>
        <time>2015-07-13T07:09:23Z</time>
      </trkpt>
      <trkpt lat="45.7198" lon="2.97064">
        <ele>951.36</ele>
        <time>2015-07-13T07:09:34Z</time>
      </trkpt>
      <trkpt lat="45.72008" lon="2.97082">
        <ele>953.28</ele>
        <time>2015-07-13T07:09:45Z</time>
      </trkpt>
      <trkpt lat="45.72047" lon="2.97093">
        <ele>954.73</ele>
        <time>2015-07-13T07:09:56Z</time>
      </trkpt>
      <trkpt lat="45.72083" lon="2.97105">
        <ele>955.69</ele>
        <time>2015-07-13T07:10:06Z</time>
      </trkpt>
      <trkpt lat="45.72126" lon="2.97115">
        <ele>956.65</ele>
        <time>2015-07-13T07:10:19Z</time>
      </trkpt>
      <trkpt lat="45.72159" lon="2.97128">
        <ele>958.09</ele>
        <time>2015-07-13T07:10:30Z</time>
      </trkpt>
      <trkpt lat="45.72193" lon="2.97137">
        <ele>959.05</ele>
        <time>2015-07-13T07:10:41Z</time>
      </trkpt>
      <trkpt lat="45.72232" lon="2.97144">
        <ele>960.49</ele>
        <time>2015-07-13T07:10:53Z</time>
      </trkpt>
      <trkpt lat="45.72259" lon="2.97153">
        <ele>961.94</ele>
        <time>2015-07-13T07:11:03Z</time>
      </trkpt>
      <trkpt lat="45.72261" lon="2.97154">
        <ele>961.94</ele>
        <time>2015-07-13T07:11:04Z</time>
      </trkpt>
      <trkpt lat="45.72297" lon="2.97165">
        <ele>963.86</ele>
        <time>2015-07-13T07:11:15Z</time>
      </trkpt>
      <trkpt lat="45.72303" lon="2.97167">
        <ele>964.34</ele>
        <time>2015-07-13T07:11:17Z</time>
      </trkpt>
      <trkpt lat="45.72305" lon="2.97169">
        <ele>964.34</ele>
        <time>2015-07-13T07:11:18Z</time>
      </trkpt>
      <trkpt lat="45.72307" lon="2.9717">
        <ele>965.3</ele>
        <time>2015-07-13T07:11:19Z</time>
      </trkpt>
      <trkpt lat="45.7231" lon="2.97172">
        <ele>964.82</ele>
        <time>2015-07-13T07:11:20Z</time>
      </trkpt>
      <trkpt lat="45.72313" lon="2.97172">
        <ele>964.82</ele>
        <time>2015-07-13T07:11:21Z</time>
      </trkpt>
      <trkpt lat="45.72316" lon="2.97172">
        <ele>964.82</ele>
        <time>2015-07-13T07:11:22Z</time>
      </trkpt>
      <trkpt lat="45.72319" lon="2.97172">
        <ele>964.82</ele>
        <time>2015-07-13T07:11:23Z</time>
      </trkpt>
      <trkpt lat="45.72343" lon="2.97181">
        <ele>965.78</ele>
        <time>2015-07-13T07:11:31Z</time>
      </trkpt>
      <trkpt lat="45.72382" lon="2.972">
        <ele>966.74</ele>
        <time>2015-07-13T07:11:43Z</time>
      </trkpt>
      <trkpt lat="45.72421" lon="2.97214">
        <ele>967.22</ele>
        <time>2015-07-13T07:11:55Z</time>
      </trkpt>
      <trkpt lat="45.72457" lon="2.97216">
        <ele>968.18</ele>
        <time>2015-07-13T07:12:05Z</time>
      </trkpt>
      <trkpt lat="45.72496" lon="2.97207">
        <ele>968.67</ele>
        <time>2015-07-13T07:12:16Z</time>
      </trkpt>
      <trkpt lat="45.72527" lon="2.97201">
        <ele>969.63</ele>
        <time>2015-07-13T07:12:25Z</time>
      </trkpt>
      <trkpt lat="45.72558" lon="2.97184">
        <ele>970.11</ele>
        <time>2015-07-13T07:12:34Z</time>
      </trkpt>
      <trkpt lat="45.72591" lon="2.97171">
        <ele>971.55</ele>
        <time>2015-07-13T07:12:44Z</time>
      </trkpt>
      <trkpt lat="45.726" lon="2.97171">
        <ele>972.03</ele>
        <time>2015-07-13T07:12:47Z</time>
      </trkpt>
      <trkpt lat="45.72603" lon="2.97171">
        <ele>972.51</ele>
        <time>2015-07-13T07:12:48Z</time>
      </trkpt>
      <trkpt lat="45.72606" lon="2.97171">
        <ele>972.51</ele>
        <time>2015-07-13T07:12:49Z</time>
      </trkpt>
      <trkpt lat="45.72617" lon="2.97169">
        <ele>972.99</ele>
        <time>2015-07-13T07:12:53Z</time>
      </trkpt>
      <trkpt lat="45.7262" lon="2.97169">
        <ele>972.99</ele>
        <time>2015-07-13T07:12:54Z</time>
      </trkpt>
      <trkpt lat="45.72647" lon="2.97173">
        <ele>973.95</ele>
        <time>2015-07-13T07:13:03Z</time>
      </trkpt>
      <trkpt lat="45.72684" lon="2.97157">
        <ele>974.43</ele>
        <time>2015-07-13T07:13:14Z</time>
      </trkpt>
      <trkpt lat="45.72727" lon="2.97134">
        <ele>974.91</ele>
        <time>2015-07-13T07:13:27Z</time>
      </trkpt>
      <trkpt lat="45.72761" lon="2.97112">
        <ele>975.88</ele>
        <time>2015-07-13T07:13:38Z</time>
      </trkpt>
      <trkpt lat="45.72789" lon="2.97092">
        <ele>976.36</ele>
        <time>2015-07-13T07:13:47Z</time>
      </trkpt>
      <trkpt lat="45.72828" lon="2.97082">
        <ele>977.32</ele>
        <time>2015-07-13T07:13:58Z</time>
      </trkpt>
      <trkpt lat="45.72875" lon="2.97085">
        <ele>977.8</ele>
        <time>2015-07-13T07:14:10Z</time>
      </trkpt>
      <trkpt lat="45.72915" lon="2.97091">
        <ele>978.76</ele>
        <time>2015-07-13T07:14:21Z</time>
      </trkpt>
      <trkpt lat="45.72957" lon="2.97077">
        <ele>979.24</ele>
        <time>2015-07-13T07:14:33Z</time>
      </trkpt>
      <trkpt lat="45.73001" lon="2.97033">
        <ele>978.76</ele>
        <time>2015-07-13T07:14:47Z</time>
      </trkpt>
      <trkpt lat="45.73009" lon="2.97028">
        <ele>978.76</ele>
        <time>2015-07-13T07:14:49Z</time>
      </trkpt>
      <trkpt lat="45.73013" lon="2.97026">
        <ele>978.28</ele>
        <time>2015-07-13T07:14:50Z</time>
      </trkpt>
      <trkpt lat="45.73026" lon="2.97023">
        <ele>978.76</ele>
        <time>2015-07-13T07:14:53Z</time>
      </trkpt>
      <trkpt lat="45.7303" lon="2.97023">
        <ele>978.76</ele>
        <time>2015-07-13T07:14:54Z</time>
      </trkpt>
      <trkpt lat="45.73034" lon="2.97023">
        <ele>978.76</ele>
        <time>2015-07-13T07:14:55Z</time>
      </trkpt>
      <trkpt lat="45.73038" lon="2.97024">
        <ele>978.76</ele>
        <time>2015-07-13T07:14:56Z</time>
      </trkpt>
      <trkpt lat="45.73042" lon="2.97025">
        <ele>978.28</ele>
        <time>2015-07-13T07:14:57Z</time>
      </trkpt>
      <trkpt lat="45.7305" lon="2.97027">
        <ele>978.76</ele>
        <time>2015-07-13T07:14:59Z</time>
      </trkpt>
      <trkpt lat="45.73066" lon="2.97032">
        <ele>978.76</ele>
        <time>2015-07-13T07:15:03Z</time>
      </trkpt>
      <trkpt lat="45.73071" lon="2.97033">
        <ele>978.76</ele>
        <time>2015-07-13T07:15:04Z</time>
      </trkpt>
      <trkpt lat="45.73075" lon="2.97035">
        <ele>978.76</ele>
        <time>2015-07-13T07:15:05Z</time>
      </trkpt>
      <trkpt lat="45.73127" lon="2.97071">
        <ele>980.2</ele>
        <time>2015-07-13T07:15:20Z</time>
      </trkpt>
      <trkpt lat="45.7317" lon="2.97105">
        <ele>980.68</ele>
        <time>2015-07-13T07:15:33Z</time>
      </trkpt>
      <trkpt lat="45.73188" lon="2.97109">
        <ele>980.68</ele>
        <time>2015-07-13T07:15:38Z</time>
      </trkpt>
      <trkpt lat="45.73191" lon="2.97106">
        <ele>981.16</ele>
        <time>2015-07-13T07:15:39Z</time>
      </trkpt>
      <trkpt lat="45.73221" lon="2.97088">
        <ele>982.12</ele>
        <time>2015-07-13T07:15:50Z</time>
      </trkpt>
      <trkpt lat="45.73225" lon="2.97086">
        <ele>982.6</ele>
        <time>2015-07-13T07:15:59Z</time>
      </trkpt>
      <trkpt lat="45.73225" lon="2.97085">
        <ele>983.09</ele>
        <time>2015-07-13T07:16:18Z</time>
      </trkpt>
      <trkpt lat="45.73225" lon="2.97086">
        <ele>982.6</ele>
        <time>2015-07-13T07:16:34Z</time>
      </trkpt>
      <trkpt lat="45.73225" lon="2.97086">
        <ele>983.09</ele>
        <time>2015-07-13T07:16:52Z</time>
      </trkpt>
      <trkpt lat="45.73224" lon="2.97084">
        <ele>983.09</ele>
        <time>2015-07-13T07:16:59Z</time>
      </trkpt>
      <trkpt lat="45.73222" lon="2.97083">
        <ele>982.6</ele>
        <time>2015-07-13T07:17:00Z</time>
      </trkpt>
      <trkpt lat="45.73221" lon="2.97081">
        <ele>982.6</ele>
        <time>2015-07-13T07:17:01Z</time>
      </trkpt>
      <trkpt lat="45.73219" lon="2.97079">
        <ele>982.6</ele>
        <time>2015-07-13T07:17:02Z</time>
      </trkpt>
      <trkpt lat="45.73219" lon="2.97077">
        <ele>982.6</ele>
        <time>2015-07-13T07:17:03Z</time>
      </trkpt>
      <trkpt lat="45.73218" lon="2.97075">
        <ele>982.6</ele>
        <time>2015-07-13T07:17:04Z</time>
      </trkpt>
      <trkpt lat="45.73199" lon="2.9703">
        <ele>983.09</ele>
        <time>2015-07-13T07:17:17Z</time>
      </trkpt>
      <trkpt lat="45.73161" lon="2.96962">
        <ele>984.05</ele>
        <time>2015-07-13T07:17:36Z</time>
      </trkpt>
      <trkpt lat="45.73131" lon="2.9691">
        <ele>984.53</ele>
        <time>2015-07-13T07:17:52Z</time>
      </trkpt>
      <trkpt lat="45.73104" lon="2.96875">
        <ele>985.49</ele>
        <time>2015-07-13T07:18:05Z</time>
      </trkpt>
      <trkpt lat="45.73095" lon="2.96862">
        <ele>986.45</ele>
        <time>2015-07-13T07:18:09Z</time>
      </trkpt>
      <trkpt lat="45.73088" lon="2.96806">
        <ele>987.41</ele>
        <time>2015-07-13T07:18:22Z</time>
      </trkpt>
      <trkpt lat="45.73094" lon="2.96753">
        <ele>988.85</ele>
        <time>2015-07-13T07:18:35Z</time>
      </trkpt>
      <trkpt lat="45.73098" lon="2.96696">
        <ele>990.3</ele>
        <time>2015-07-13T07:18:48Z</time>
      </trkpt>
      <trkpt lat="45.73104" lon="2.96645">
        <ele>991.74</ele>
        <time>2015-07-13T07:19:00Z</time>
      </trkpt>
      <trkpt lat="45.73105" lon="2.96581">
        <ele>993.18</ele>
        <time>2015-07-13T07:19:15Z</time>
      </trkpt>
      <trkpt lat="45.73107" lon="2.96542">
        <ele>995.1</ele>
        <time>2015-07-13T07:19:26Z</time>
      </trkpt>
      <trkpt lat="45.73107" lon="2.96538">
        <ele>995.1</ele>
        <time>2015-07-13T07:19:27Z</time>
      </trkpt>
      <trkpt lat="45.73108" lon="2.96523">
        <ele>996.06</ele>
        <time>2015-07-13T07:19:32Z</time>
      </trkpt>
      <trkpt lat="45.73109" lon="2.96508">
        <ele>997.02</ele>
        <time>2015-07-13T07:19:37Z</time>
      </trkpt>
      <trkpt lat="45.73111" lon="2.96493">
        <ele>997.51</ele>
        <time>2015-07-13T07:19:42Z</time>
      </trkpt>
      <trkpt lat="45.73112" lon="2.96485">
        <ele>997.99</ele>
        <time>2015-07-13T07:19:45Z</time>
      </trkpt>
      <trkpt lat="45.73116" lon="2.96474">
        <ele>999.43</ele>
        <time>2015-07-13T07:19:50Z</time>
      </trkpt>
      <trkpt lat="45.73112" lon="2.96429">
        <ele>1000.87</ele>
        <time>2015-07-13T07:20:00Z</time>
      </trkpt>
      <trkpt lat="45.73115" lon="2.96419">
        <ele>1001.35</ele>
        <time>2015-07-13T07:20:03Z</time>
      </trkpt>
      <trkpt lat="45.73116" lon="2.96409">
        <ele>1002.31</ele>
        <time>2015-07-13T07:20:07Z</time>
      </trkpt>
      <trkpt lat="45.7312" lon="2.96404">
        <ele>1002.79</ele>
        <time>2015-07-13T07:20:10Z</time>
      </trkpt>
      <trkpt lat="45.7312" lon="2.96378">
        <ele>1003.75</ele>
        <time>2015-07-13T07:20:17Z</time>
      </trkpt>
      <trkpt lat="45.73122" lon="2.96336">
        <ele>1005.68</ele>
        <time>2015-07-13T07:20:29Z</time>
      </trkpt>
      <trkpt lat="45.73128" lon="2.96302">
        <ele>1007.6</ele>
        <time>2015-07-13T07:20:41Z</time>
      </trkpt>
      <trkpt lat="45.73127" lon="2.96294">
        <ele>1007.6</ele>
        <time>2015-07-13T07:20:43Z</time>
      </trkpt>
      <trkpt lat="45.73129" lon="2.96253">
        <ele>1009.04</ele>
        <time>2015-07-13T07:20:55Z</time>
      </trkpt>
      <trkpt lat="45.7313" lon="2.96237">
        <ele>1010</ele>
        <time>2015-07-13T07:21:01Z</time>
      </trkpt>
      <trkpt lat="45.7313" lon="2.96217">
        <ele>1010.96</ele>
        <time>2015-07-13T07:21:07Z</time>
      </trkpt>
      <trkpt lat="45.73135" lon="2.96174">
        <ele>1013.85</ele>
        <time>2015-07-13T07:21:20Z</time>
      </trkpt>
      <trkpt lat="45.73136" lon="2.96169">
        <ele>1013.37</ele>
        <time>2015-07-13T07:21:22Z</time>
      </trkpt>
      <trkpt lat="45.73126" lon="2.96162">
        <ele>1014.33</ele>
        <time>2015-07-13T07:21:29Z</time>
      </trkpt>
      <trkpt lat="45.7311" lon="2.96161">
        <ele>1015.29</ele>
        <time>2015-07-13T07:21:37Z</time>
      </trkpt>
      <trkpt lat="45.73104" lon="2.96158">
        <ele>1015.77</ele>
        <time>2015-07-13T07:21:41Z</time>
      </trkpt>
      <trkpt lat="45.73085" lon="2.96146">
        <ele>1017.69</ele>
        <time>2015-07-13T07:21:54Z</time>
      </trkpt>
      <trkpt lat="45.73081" lon="2.96144">
        <ele>1018.17</ele>
        <time>2015-07-13T07:21:56Z</time>
      </trkpt>
      <trkpt lat="45.73073" lon="2.96137">
        <ele>1019.13</ele>
        <time>2015-07-13T07:22:01Z</time>
      </trkpt>
      <trkpt lat="45.73055" lon="2.96122">
        <ele>1021.06</ele>
        <time>2015-07-13T07:22:14Z</time>
      </trkpt>
      <trkpt lat="45.73052" lon="2.9612">
        <ele>1021.06</ele>
        <time>2015-07-13T07:22:16Z</time>
      </trkpt>
      <trkpt lat="45.73045" lon="2.96115">
        <ele>1022.5</ele>
        <time>2015-07-13T07:22:21Z</time>
      </trkpt>
      <trkpt lat="45.73043" lon="2.96113">
        <ele>1022.5</ele>
        <time>2015-07-13T07:22:23Z</time>
      </trkpt>
      <trkpt lat="45.73027" lon="2.96096">
        <ele>1024.9</ele>
        <time>2015-07-13T07:22:35Z</time>
      </trkpt>
      <trkpt lat="45.73024" lon="2.96094">
        <ele>1025.38</ele>
        <time>2015-07-13T07:22:38Z</time>
      </trkpt>
      <trkpt lat="45.73008" lon="2.96068">
        <ele>1027.79</ele>
        <time>2015-07-13T07:22:50Z</time>
      </trkpt>
      <trkpt lat="45.73003" lon="2.96054">
        <ele>1030.19</ele>
        <time>2015-07-13T07:23:01Z</time>
      </trkpt>
      <trkpt lat="45.72996" lon="2.96042">
        <ele>1031.63</ele>
        <time>2015-07-13T07:23:08Z</time>
      </trkpt>
      <trkpt lat="45.72989" lon="2.96021">
        <ele>1032.11</ele>
        <time>2015-07-13T07:23:14Z</time>
      </trkpt>
      <trkpt lat="45.7297" lon="2.95991">
        <ele>1035</ele>
        <time>2015-07-13T07:23:29Z</time>
      </trkpt>
      <trkpt lat="45.72968" lon="2.95989">
        <ele>1035.48</ele>
        <time>2015-07-13T07:23:31Z</time>
      </trkpt>
      <trkpt lat="45.7296" lon="2.95978">
        <ele>1036.92</ele>
        <time>2015-07-13T07:23:39Z</time>
      </trkpt>
      <trkpt lat="45.72949" lon="2.95964">
        <ele>1038.36</ele>
        <time>2015-07-13T07:23:49Z</time>
      </trkpt>
      <trkpt lat="45.72942" lon="2.95954">
        <ele>1039.32</ele>
        <time>2015-07-13T07:23:57Z</time>
      </trkpt>
      <trkpt lat="45.72931" lon="2.9595">
        <ele>1041.25</ele>
        <time>2015-07-13T07:24:06Z</time>
      </trkpt>
      <trkpt lat="45.72915" lon="2.95931">
        <ele>1043.65</ele>
        <time>2015-07-13T07:24:18Z</time>
      </trkpt>
      <trkpt lat="45.72903" lon="2.95918">
        <ele>1045.57</ele>
        <time>2015-07-13T07:24:29Z</time>
      </trkpt>
      <trkpt lat="45.72896" lon="2.95914">
        <ele>1046.05</ele>
        <time>2015-07-13T07:24:33Z</time>
      </trkpt>
      <trkpt lat="45.72892" lon="2.9591">
        <ele>1046.05</ele>
        <time>2015-07-13T07:24:35Z</time>
      </trkpt>
      <trkpt lat="45.72882" lon="2.95899">
        <ele>1047.01</ele>
        <time>2015-07-13T07:24:40Z</time>
      </trkpt>
      <trkpt lat="45.72867" lon="2.95884">
        <ele>1048.45</ele>
        <time>2015-07-13T07:24:51Z</time>
      </trkpt>
      <trkpt lat="45.72866" lon="2.95881">
        <ele>1048.94</ele>
        <time>2015-07-13T07:24:53Z</time>
      </trkpt>
      <trkpt lat="45.72858" lon="2.9587">
        <ele>1049.9</ele>
        <time>2015-07-13T07:25:03Z</time>
      </trkpt>
      <trkpt lat="45.72853" lon="2.95856">
        <ele>1050.86</ele>
        <time>2015-07-13T07:25:11Z</time>
      </trkpt>
      <trkpt lat="45.72843" lon="2.95833">
        <ele>1052.78</ele>
        <time>2015-07-13T07:25:23Z</time>
      </trkpt>
      <trkpt lat="45.72837" lon="2.95819">
        <ele>1054.22</ele>
        <time>2015-07-13T07:25:30Z</time>
      </trkpt>
      <trkpt lat="45.72834" lon="2.95812">
        <ele>1054.22</ele>
        <time>2015-07-13T07:25:33Z</time>
      </trkpt>
      <trkpt lat="45.72818" lon="2.95786">
        <ele>1055.67</ele>
        <time>2015-07-13T07:25:44Z</time>
      </trkpt>
      <trkpt lat="45.72801" lon="2.95762">
        <ele>1057.11</ele>
        <time>2015-07-13T07:25:55Z</time>
      </trkpt>
      <trkpt lat="45.72796" lon="2.95754">
        <ele>1057.59</ele>
        <time>2015-07-13T07:25:59Z</time>
      </trkpt>
      <trkpt lat="45.72776" lon="2.95723">
        <ele>1059.51</ele>
        <time>2015-07-13T07:26:13Z</time>
      </trkpt>
      <trkpt lat="45.72769" lon="2.95714">
        <ele>1059.99</ele>
        <time>2015-07-13T07:26:16Z</time>
      </trkpt>
      <trkpt lat="45.7276" lon="2.957">
        <ele>1060.95</ele>
        <time>2015-07-13T07:26:22Z</time>
      </trkpt>
      <trkpt lat="45.72755" lon="2.95696">
        <ele>1060.95</ele>
        <time>2015-07-13T07:26:26Z</time>
      </trkpt>
      <trkpt lat="45.72733" lon="2.95663">
        <ele>1062.39</ele>
        <time>2015-07-13T07:26:38Z</time>
      </trkpt>
      <trkpt lat="45.7271" lon="2.95647">
        <ele>1063.36</ele>
        <time>2015-07-13T07:26:47Z</time>
      </trkpt>
      <trkpt lat="45.72696" lon="2.95644">
        <ele>1063.36</ele>
        <time>2015-07-13T07:26:54Z</time>
      </trkpt>
      <trkpt lat="45.72687" lon="2.95647">
        <ele>1063.36</ele>
        <time>2015-07-13T07:26:58Z</time>
      </trkpt>
      <trkpt lat="45.72661" lon="2.95646">
        <ele>1063.84</ele>
        <time>2015-07-13T07:27:09Z</time>
      </trkpt>
      <trkpt lat="45.7263" lon="2.95643">
        <ele>1065.76</ele>
        <time>2015-07-13T07:27:20Z</time>
      </trkpt>
      <trkpt lat="45.726" lon="2.95639">
        <ele>1066.24</ele>
        <time>2015-07-13T07:27:31Z</time>
      </trkpt>
      <trkpt lat="45.72569" lon="2.95615">
        <ele>1067.68</ele>
        <time>2015-07-13T07:27:42Z</time>
      </trkpt>
      <trkpt lat="45.72536" lon="2.95589">
        <ele>1069.6</ele>
        <time>2015-07-13T07:27:53Z</time>
      </trkpt>
      <trkpt lat="45.72511" lon="2.95568">
        <ele>1071.53</ele>
        <time>2015-07-13T07:28:03Z</time>
      </trkpt>
      <trkpt lat="45.7249" lon="2.95544">
        <ele>1072.97</ele>
        <time>2015-07-13T07:28:14Z</time>
      </trkpt>
      <trkpt lat="45.72468" lon="2.95524">
        <ele>1074.89</ele>
        <time>2015-07-13T07:28:27Z</time>
      </trkpt>
      <trkpt lat="45.72462" lon="2.95518">
        <ele>1075.37</ele>
        <time>2015-07-13T07:28:31Z</time>
      </trkpt>
      <trkpt lat="45.72459" lon="2.95514">
        <ele>1075.85</ele>
        <time>2015-07-13T07:28:33Z</time>
      </trkpt>
      <trkpt lat="45.72445" lon="2.95501">
        <ele>1077.29</ele>
        <time>2015-07-13T07:28:42Z</time>
      </trkpt>
      <trkpt lat="45.72428" lon="2.95476">
        <ele>1079.22</ele>
        <time>2015-07-13T07:28:55Z</time>
      </trkpt>
      <trkpt lat="45.7241" lon="2.95451">
        <ele>1081.14</ele>
        <time>2015-07-13T07:29:07Z</time>
      </trkpt>
      <trkpt lat="45.72392" lon="2.95427">
        <ele>1083.06</ele>
        <time>2015-07-13T07:29:19Z</time>
      </trkpt>
      <trkpt lat="45.72371" lon="2.95404">
        <ele>1085.47</ele>
        <time>2015-07-13T07:29:32Z</time>
      </trkpt>
      <trkpt lat="45.72362" lon="2.95394">
        <ele>1086.43</ele>
        <time>2015-07-13T07:29:39Z</time>
      </trkpt>
      <trkpt lat="45.7236" lon="2.95391">
        <ele>1086.91</ele>
        <time>2015-07-13T07:29:41Z</time>
      </trkpt>
      <trkpt lat="45.72355" lon="2.95388">
        <ele>1087.39</ele>
        <time>2015-07-13T07:29:46Z</time>
      </trkpt>
      <trkpt lat="45.72341" lon="2.95366">
        <ele>1088.83</ele>
        <time>2015-07-13T07:29:57Z</time>
      </trkpt>
      <trkpt lat="45.72339" lon="2.9536">
        <ele>1089.31</ele>
        <time>2015-07-13T07:30:00Z</time>
      </trkpt>
      <trkpt lat="45.72338" lon="2.95356">
        <ele>1089.79</ele>
        <time>2015-07-13T07:30:02Z</time>
      </trkpt>
      <trkpt lat="45.72327" lon="2.95348">
        <ele>1090.75</ele>
        <time>2015-07-13T07:30:08Z</time>
      </trkpt>
      <trkpt lat="45.72319" lon="2.95342">
        <ele>1091.23</ele>
        <time>2015-07-13T07:30:12Z</time>
      </trkpt>
      <trkpt lat="45.72312" lon="2.95337">
        <ele>1091.71</ele>
        <time>2015-07-13T07:30:17Z</time>
      </trkpt>
      <trkpt lat="45.723" lon="2.9532">
        <ele>1092.68</ele>
        <time>2015-07-13T07:30:25Z</time>
      </trkpt>
      <trkpt lat="45.72293" lon="2.95312">
        <ele>1093.64</ele>
        <time>2015-07-13T07:30:30Z</time>
      </trkpt>
      <trkpt lat="45.7227" lon="2.95281">
        <ele>1095.56</ele>
        <time>2015-07-13T07:30:43Z</time>
      </trkpt>
      <trkpt lat="45.72247" lon="2.95258">
        <ele>1096.52</ele>
        <time>2015-07-13T07:30:55Z</time>
      </trkpt>
      <trkpt lat="45.72229" lon="2.95239">
        <ele>1097.96</ele>
        <time>2015-07-13T07:31:04Z</time>
      </trkpt>
      <trkpt lat="45.72221" lon="2.95224">
        <ele>1098.92</ele>
        <time>2015-07-13T07:31:09Z</time>
      </trkpt>
      <trkpt lat="45.72202" lon="2.95217">
        <ele>1099.4</ele>
        <time>2015-07-13T07:31:20Z</time>
      </trkpt>
      <trkpt lat="45.72184" lon="2.95214">
        <ele>1098.92</ele>
        <time>2015-07-13T07:31:34Z</time>
      </trkpt>
      <trkpt lat="45.72183" lon="2.95214">
        <ele>1096.04</ele>
        <time>2015-07-13T07:31:44Z</time>
      </trkpt>
      <trkpt lat="45.72183" lon="2.95214">
        <ele>1100.85</ele>
        <time>2015-07-13T07:31:45Z</time>
      </trkpt>
      <trkpt lat="45.72183" lon="2.95214">
        <ele>1098.92</ele>
        <time>2015-07-13T07:32:08Z</time>
      </trkpt>
      <trkpt lat="45.72183" lon="2.95213">
        <ele>1099.4</ele>
        <time>2015-07-13T07:32:34Z</time>
      </trkpt>
      <trkpt lat="45.72184" lon="2.95211">
        <ele>1099.4</ele>
        <time>2015-07-13T07:32:59Z</time>
      </trkpt>
      <trkpt lat="45.72185" lon="2.9521">
        <ele>1098.92</ele>
        <time>2015-07-13T07:33:31Z</time>
      </trkpt>
      <trkpt lat="45.72184" lon="2.95211">
        <ele>1098.92</ele>
        <time>2015-07-13T07:33:56Z</time>
      </trkpt>
      <trkpt lat="45.72184" lon="2.9521">
        <ele>1098.92</ele>
        <time>2015-07-13T07:34:11Z</time>
      </trkpt>
      <trkpt lat="45.72161" lon="2.95189">
        <ele>1097</ele>
        <time>2015-07-13T07:34:21Z</time>
      </trkpt>
      <trkpt lat="45.72157" lon="2.95186">
        <ele>1097</ele>
        <time>2015-07-13T07:34:22Z</time>
      </trkpt>
      <trkpt lat="45.72145" lon="2.95179">
        <ele>1095.56</ele>
        <time>2015-07-13T07:34:25Z</time>
      </trkpt>
      <trkpt lat="45.72141" lon="2.95178">
        <ele>1095.08</ele>
        <time>2015-07-13T07:34:26Z</time>
      </trkpt>
      <trkpt lat="45.72137" lon="2.95176">
        <ele>1094.6</ele>
        <time>2015-07-13T07:34:27Z</time>
      </trkpt>
      <trkpt lat="45.72133" lon="2.95174">
        <ele>1094.12</ele>
        <time>2015-07-13T07:34:28Z</time>
      </trkpt>
      <trkpt lat="45.72129" lon="2.95171">
        <ele>1093.64</ele>
        <time>2015-07-13T07:34:29Z</time>
      </trkpt>
      <trkpt lat="45.72118" lon="2.95162">
        <ele>1092.68</ele>
        <time>2015-07-13T07:34:31Z</time>
      </trkpt>
      <trkpt lat="45.72103" lon="2.95143">
        <ele>1091.23</ele>
        <time>2015-07-13T07:34:34Z</time>
      </trkpt>
      <trkpt lat="45.72099" lon="2.95136">
        <ele>1090.75</ele>
        <time>2015-07-13T07:34:35Z</time>
      </trkpt>
      <trkpt lat="45.72064" lon="2.95096">
        <ele>1087.39</ele>
        <time>2015-07-13T07:34:41Z</time>
      </trkpt>
      <trkpt lat="45.72058" lon="2.95089">
        <ele>1086.91</ele>
        <time>2015-07-13T07:34:42Z</time>
      </trkpt>
      <trkpt lat="45.72052" lon="2.95083">
        <ele>1086.43</ele>
        <time>2015-07-13T07:34:43Z</time>
      </trkpt>
      <trkpt lat="45.72015" lon="2.95046">
        <ele>1083.06</ele>
        <time>2015-07-13T07:34:49Z</time>
      </trkpt>
      <trkpt lat="45.71988" lon="2.95029">
        <ele>1081.62</ele>
        <time>2015-07-13T07:34:54Z</time>
      </trkpt>
      <trkpt lat="45.71983" lon="2.95026">
        <ele>1081.14</ele>
        <time>2015-07-13T07:34:55Z</time>
      </trkpt>
      <trkpt lat="45.71973" lon="2.9502">
        <ele>1080.18</ele>
        <time>2015-07-13T07:34:57Z</time>
      </trkpt>
      <trkpt lat="45.71962" lon="2.95015">
        <ele>1079.22</ele>
        <time>2015-07-13T07:34:59Z</time>
      </trkpt>
      <trkpt lat="45.71956" lon="2.95013">
        <ele>1078.74</ele>
        <time>2015-07-13T07:35:00Z</time>
      </trkpt>
      <trkpt lat="45.7195" lon="2.9501">
        <ele>1078.74</ele>
        <time>2015-07-13T07:35:01Z</time>
      </trkpt>
      <trkpt lat="45.71944" lon="2.95007">
        <ele>1078.26</ele>
        <time>2015-07-13T07:35:02Z</time>
      </trkpt>
      <trkpt lat="45.71938" lon="2.95004">
        <ele>1077.78</ele>
        <time>2015-07-13T07:35:03Z</time>
      </trkpt>
      <trkpt lat="45.71932" lon="2.95">
        <ele>1077.29</ele>
        <time>2015-07-13T07:35:04Z</time>
      </trkpt>
      <trkpt lat="45.71927" lon="2.94996">
        <ele>1077.29</ele>
        <time>2015-07-13T07:35:05Z</time>
      </trkpt>
      <trkpt lat="45.71923" lon="2.94992">
        <ele>1077.29</ele>
        <time>2015-07-13T07:35:06Z</time>
      </trkpt>
      <trkpt lat="45.71897" lon="2.94955">
        <ele>1074.89</ele>
        <time>2015-07-13T07:35:14Z</time>
      </trkpt>
      <trkpt lat="45.71893" lon="2.94949">
        <ele>1074.41</ele>
        <time>2015-07-13T07:35:15Z</time>
      </trkpt>
      <trkpt lat="45.71889" lon="2.94943">
        <ele>1074.41</ele>
        <time>2015-07-13T07:35:16Z</time>
      </trkpt>
      <trkpt lat="45.71886" lon="2.94936">
        <ele>1073.93</ele>
        <time>2015-07-13T07:35:17Z</time>
      </trkpt>
      <trkpt lat="45.71882" lon="2.94929">
        <ele>1073.93</ele>
        <time>2015-07-13T07:35:18Z</time>
      </trkpt>
      <trkpt lat="45.71874" lon="2.94916">
        <ele>1072.97</ele>
        <time>2015-07-13T07:35:20Z</time>
      </trkpt>
      <trkpt lat="45.71867" lon="2.949">
        <ele>1072.97</ele>
        <time>2015-07-13T07:35:22Z</time>
      </trkpt>
      <trkpt lat="45.71856" lon="2.94869">
        <ele>1071.05</ele>
        <time>2015-07-13T07:35:26Z</time>
      </trkpt>
      <trkpt lat="45.71854" lon="2.94852">
        <ele>1070.08</ele>
        <time>2015-07-13T07:35:28Z</time>
      </trkpt>
      <trkpt lat="45.71858" lon="2.94809">
        <ele>1068.64</ele>
        <time>2015-07-13T07:35:33Z</time>
      </trkpt>
      <trkpt lat="45.71864" lon="2.94759">
        <ele>1065.76</ele>
        <time>2015-07-13T07:35:38Z</time>
      </trkpt>
      <trkpt lat="45.71862" lon="2.94734">
        <ele>1065.76</ele>
        <time>2015-07-13T07:35:45Z</time>
      </trkpt>
      <trkpt lat="45.71861" lon="2.94732">
        <ele>1065.76</ele>
        <time>2015-07-13T07:36:01Z</time>
      </trkpt>
      <trkpt lat="45.7186" lon="2.9473">
        <ele>1065.28</ele>
        <time>2015-07-13T07:36:17Z</time>
      </trkpt>
      <trkpt lat="45.71857" lon="2.94727">
        <ele>1065.28</ele>
        <time>2015-07-13T07:36:20Z</time>
      </trkpt>
      <trkpt lat="45.71844" lon="2.94696">
        <ele>1063.36</ele>
        <time>2015-07-13T07:36:32Z</time>
      </trkpt>
      <trkpt lat="45.7183" lon="2.94671">
        <ele>1061.91</ele>
        <time>2015-07-13T07:36:42Z</time>
      </trkpt>
      <trkpt lat="45.71813" lon="2.94647">
        <ele>1060.47</ele>
        <time>2015-07-13T07:36:51Z</time>
      </trkpt>
      <trkpt lat="45.71795" lon="2.94616">
        <ele>1057.59</ele>
        <time>2015-07-13T07:37:01Z</time>
      </trkpt>
      <trkpt lat="45.71789" lon="2.94607">
        <ele>1057.11</ele>
        <time>2015-07-13T07:37:03Z</time>
      </trkpt>
      <trkpt lat="45.71779" lon="2.9459">
        <ele>1056.15</ele>
        <time>2015-07-13T07:37:06Z</time>
      </trkpt>
      <trkpt lat="45.71774" lon="2.94577">
        <ele>1055.67</ele>
        <time>2015-07-13T07:37:08Z</time>
      </trkpt>
      <trkpt lat="45.71768" lon="2.94565">
        <ele>1054.7</ele>
        <time>2015-07-13T07:37:10Z</time>
      </trkpt>
      <trkpt lat="45.71763" lon="2.9455">
        <ele>1054.22</ele>
        <time>2015-07-13T07:37:12Z</time>
      </trkpt>
      <trkpt lat="45.71758" lon="2.94536">
        <ele>1053.26</ele>
        <time>2015-07-13T07:37:14Z</time>
      </trkpt>
      <trkpt lat="45.71753" lon="2.94523">
        <ele>1052.3</ele>
        <time>2015-07-13T07:37:16Z</time>
      </trkpt>
      <trkpt lat="45.7175" lon="2.94505">
        <ele>1051.34</ele>
        <time>2015-07-13T07:37:19Z</time>
      </trkpt>
      <trkpt lat="45.71733" lon="2.94443">
        <ele>1049.9</ele>
        <time>2015-07-13T07:37:30Z</time>
      </trkpt>
      <trkpt lat="45.71731" lon="2.94441">
        <ele>1050.38</ele>
        <time>2015-07-13T07:37:31Z</time>
      </trkpt>
      <trkpt lat="45.71727" lon="2.94439">
        <ele>1050.38</ele>
        <time>2015-07-13T07:37:33Z</time>
      </trkpt>
      <trkpt lat="45.71714" lon="2.94443">
        <ele>1050.86</ele>
        <time>2015-07-13T07:37:46Z</time>
      </trkpt>
      <trkpt lat="45.71706" lon="2.94446">
        <ele>1051.34</ele>
        <time>2015-07-13T07:38:05Z</time>
      </trkpt>
      <trkpt lat="45.71699" lon="2.94446">
        <ele>1051.34</ele>
        <time>2015-07-13T07:38:09Z</time>
      </trkpt>
      <trkpt lat="45.71668" lon="2.94453">
        <ele>1052.3</ele>
        <time>2015-07-13T07:38:21Z</time>
      </trkpt>
      <trkpt lat="45.71652" lon="2.94459">
        <ele>1053.74</ele>
        <time>2015-07-13T07:38:28Z</time>
      </trkpt>
      <trkpt lat="45.71635" lon="2.94458">
        <ele>1055.18</ele>
        <time>2015-07-13T07:38:38Z</time>
      </trkpt>
      <trkpt lat="45.71634" lon="2.94456">
        <ele>1055.18</ele>
        <time>2015-07-13T07:38:57Z</time>
      </trkpt>
      <trkpt lat="45.71634" lon="2.94455">
        <ele>1055.67</ele>
        <time>2015-07-13T07:39:25Z</time>
      </trkpt>
      <trkpt lat="45.71634" lon="2.94455">
        <ele>1056.63</ele>
        <time>2015-07-13T07:39:32Z</time>
      </trkpt>
      <trkpt lat="45.71634" lon="2.94456">
        <ele>1055.67</ele>
        <time>2015-07-13T07:39:34Z</time>
      </trkpt>
      <trkpt lat="45.71633" lon="2.94452">
        <ele>1056.15</ele>
        <time>2015-07-13T07:39:47Z</time>
      </trkpt>
      <trkpt lat="45.7163" lon="2.94439">
        <ele>1056.15</ele>
        <time>2015-07-13T07:39:51Z</time>
      </trkpt>
      <trkpt lat="45.71622" lon="2.9438">
        <ele>1055.18</ele>
        <time>2015-07-13T07:40:05Z</time>
      </trkpt>
      <trkpt lat="45.71616" lon="2.94307">
        <ele>1053.74</ele>
        <time>2015-07-13T07:40:19Z</time>
      </trkpt>
      <trkpt lat="45.71608" lon="2.94249">
        <ele>1051.82</ele>
        <time>2015-07-13T07:40:30Z</time>
      </trkpt>
      <trkpt lat="45.71596" lon="2.94211">
        <ele>1053.26</ele>
        <time>2015-07-13T07:40:39Z</time>
      </trkpt>
      <trkpt lat="45.71596" lon="2.94206">
        <ele>1053.26</ele>
        <time>2015-07-13T07:40:40Z</time>
      </trkpt>
      <trkpt lat="45.71587" lon="2.94149">
        <ele>1051.82</ele>
        <time>2015-07-13T07:40:51Z</time>
      </trkpt>
      <trkpt lat="45.71585" lon="2.94129">
        <ele>1050.38</ele>
        <time>2015-07-13T07:40:54Z</time>
      </trkpt>
      <trkpt lat="45.71585" lon="2.941">
        <ele>1048.94</ele>
        <time>2015-07-13T07:40:58Z</time>
      </trkpt>
      <trkpt lat="45.71584" lon="2.94084">
        <ele>1047.97</ele>
        <time>2015-07-13T07:41:00Z</time>
      </trkpt>
      <trkpt lat="45.71581" lon="2.94068">
        <ele>1047.01</ele>
        <time>2015-07-13T07:41:02Z</time>
      </trkpt>
      <trkpt lat="45.71573" lon="2.94035">
        <ele>1044.61</ele>
        <time>2015-07-13T07:41:06Z</time>
      </trkpt>
      <trkpt lat="45.71566" lon="2.93987">
        <ele>1043.17</ele>
        <time>2015-07-13T07:41:12Z</time>
      </trkpt>
      <trkpt lat="45.71563" lon="2.93964">
        <ele>1042.69</ele>
        <time>2015-07-13T07:41:15Z</time>
      </trkpt>
      <trkpt lat="45.71551" lon="2.9389">
        <ele>1040.76</ele>
        <time>2015-07-13T07:41:25Z</time>
      </trkpt>
      <trkpt lat="45.71542" lon="2.93822">
        <ele>1039.32</ele>
        <time>2015-07-13T07:41:34Z</time>
      </trkpt>
      <trkpt lat="45.71534" lon="2.93783">
        <ele>1038.84</ele>
        <time>2015-07-13T07:41:41Z</time>
      </trkpt>
      <trkpt lat="45.71515" lon="2.93798">
        <ele>1038.84</ele>
        <time>2015-07-13T07:41:50Z</time>
      </trkpt>
      <trkpt lat="45.71482" lon="2.93836">
        <ele>1039.32</ele>
        <time>2015-07-13T07:42:03Z</time>
      </trkpt>
      <trkpt lat="45.71449" lon="2.93855">
        <ele>1040.28</ele>
        <time>2015-07-13T07:42:17Z</time>
      </trkpt>
      <trkpt lat="45.7144" lon="2.93866">
        <ele>1040.76</ele>
        <time>2015-07-13T07:42:28Z</time>
      </trkpt>
      <trkpt lat="45.71416" lon="2.93892">
        <ele>1042.21</ele>
        <time>2015-07-13T07:42:41Z</time>
      </trkpt>
      <trkpt lat="45.71389" lon="2.93909">
        <ele>1043.65</ele>
        <time>2015-07-13T07:42:53Z</time>
      </trkpt>
      <trkpt lat="45.71362" lon="2.93921">
        <ele>1045.09</ele>
        <time>2015-07-13T07:43:06Z</time>
      </trkpt>
      <trkpt lat="45.71334" lon="2.9393">
        <ele>1047.01</ele>
        <time>2015-07-13T07:43:18Z</time>
      </trkpt>
      <trkpt lat="45.71308" lon="2.93926">
        <ele>1048.45</ele>
        <time>2015-07-13T07:43:29Z</time>
      </trkpt>
      <trkpt lat="45.71277" lon="2.93945">
        <ele>1049.9</ele>
        <time>2015-07-13T07:43:43Z</time>
      </trkpt>
      <trkpt lat="45.71249" lon="2.93957">
        <ele>1051.82</ele>
        <time>2015-07-13T07:43:55Z</time>
      </trkpt>
      <trkpt lat="45.71222" lon="2.93987">
        <ele>1053.26</ele>
        <time>2015-07-13T07:44:09Z</time>
      </trkpt>
      <trkpt lat="45.71216" lon="2.93994">
        <ele>1053.26</ele>
        <time>2015-07-13T07:44:13Z</time>
      </trkpt>
      <trkpt lat="45.71213" lon="2.93976">
        <ele>1053.26</ele>
        <time>2015-07-13T07:44:21Z</time>
      </trkpt>
      <trkpt lat="45.7121" lon="2.93923">
        <ele>1053.26</ele>
        <time>2015-07-13T07:44:37Z</time>
      </trkpt>
      <trkpt lat="45.71208" lon="2.93879">
        <ele>1053.74</ele>
        <time>2015-07-13T07:44:49Z</time>
      </trkpt>
      <trkpt lat="45.71199" lon="2.93832">
        <ele>1055.67</ele>
        <time>2015-07-13T07:45:03Z</time>
      </trkpt>
      <trkpt lat="45.71197" lon="2.9382">
        <ele>1056.15</ele>
        <time>2015-07-13T07:45:07Z</time>
      </trkpt>
      <trkpt lat="45.71197" lon="2.93813">
        <ele>1056.15</ele>
        <time>2015-07-13T07:45:10Z</time>
      </trkpt>
      <trkpt lat="45.71202" lon="2.93799">
        <ele>1057.11</ele>
        <time>2015-07-13T07:45:17Z</time>
      </trkpt>
      <trkpt lat="45.71204" lon="2.93793">
        <ele>1057.11</ele>
        <time>2015-07-13T07:45:19Z</time>
      </trkpt>
      <trkpt lat="45.71211" lon="2.93787">
        <ele>1057.59</ele>
        <time>2015-07-13T07:45:23Z</time>
      </trkpt>
      <trkpt lat="45.71218" lon="2.93783">
        <ele>1057.59</ele>
        <time>2015-07-13T07:45:28Z</time>
      </trkpt>
      <trkpt lat="45.71229" lon="2.93773">
        <ele>1057.11</ele>
        <time>2015-07-13T07:45:34Z</time>
      </trkpt>
      <trkpt lat="45.71234" lon="2.93769">
        <ele>1057.11</ele>
        <time>2015-07-13T07:45:37Z</time>
      </trkpt>
      <trkpt lat="45.71244" lon="2.9375">
        <ele>1057.59</ele>
        <time>2015-07-13T07:45:44Z</time>
      </trkpt>
      <trkpt lat="45.71264" lon="2.93709">
        <ele>1056.63</ele>
        <time>2015-07-13T07:45:56Z</time>
      </trkpt>
      <trkpt lat="45.71283" lon="2.93677">
        <ele>1053.26</ele>
        <time>2015-07-13T07:46:06Z</time>
      </trkpt>
      <trkpt lat="45.71288" lon="2.93667">
        <ele>1052.3</ele>
        <time>2015-07-13T07:46:09Z</time>
      </trkpt>
      <trkpt lat="45.71289" lon="2.93663">
        <ele>1051.82</ele>
        <time>2015-07-13T07:46:11Z</time>
      </trkpt>
      <trkpt lat="45.71304" lon="2.93618">
        <ele>1049.42</ele>
        <time>2015-07-13T07:46:19Z</time>
      </trkpt>
      <trkpt lat="45.71322" lon="2.93567">
        <ele>1047.01</ele>
        <time>2015-07-13T07:46:25Z</time>
      </trkpt>
      <trkpt lat="45.71326" lon="2.93557">
        <ele>1046.05</ele>
        <time>2015-07-13T07:46:26Z</time>
      </trkpt>
      <trkpt lat="45.71329" lon="2.93547">
        <ele>1045.57</ele>
        <time>2015-07-13T07:46:27Z</time>
      </trkpt>
      <trkpt lat="45.7133" lon="2.93537">
        <ele>1045.57</ele>
        <time>2015-07-13T07:46:28Z</time>
      </trkpt>
      <trkpt lat="45.71332" lon="2.93525">
        <ele>1045.09</ele>
        <time>2015-07-13T07:46:29Z</time>
      </trkpt>
      <trkpt lat="45.71335" lon="2.93518">
        <ele>1044.13</ele>
        <time>2015-07-13T07:46:30Z</time>
      </trkpt>
      <trkpt lat="45.71341" lon="2.93495">
        <ele>1043.17</ele>
        <time>2015-07-13T07:46:33Z</time>
      </trkpt>
      <trkpt lat="45.71346" lon="2.93483">
        <ele>1040.76</ele>
        <time>2015-07-13T07:46:35Z</time>
      </trkpt>
      <trkpt lat="45.7135" lon="2.9347">
        <ele>1039.8</ele>
        <time>2015-07-13T07:46:37Z</time>
      </trkpt>
      <trkpt lat="45.71354" lon="2.93435">
        <ele>1036.92</ele>
        <time>2015-07-13T07:46:42Z</time>
      </trkpt>
      <trkpt lat="45.71355" lon="2.93427">
        <ele>1035.96</ele>
        <time>2015-07-13T07:46:43Z</time>
      </trkpt>
      <trkpt lat="45.71357" lon="2.93421">
        <ele>1035.48</ele>
        <time>2015-07-13T07:46:44Z</time>
      </trkpt>
      <trkpt lat="45.71363" lon="2.93406">
        <ele>1035</ele>
        <time>2015-07-13T07:46:46Z</time>
      </trkpt>
      <trkpt lat="45.71365" lon="2.93398">
        <ele>1034.52</ele>
        <time>2015-07-13T07:46:47Z</time>
      </trkpt>
      <trkpt lat="45.71368" lon="2.93379">
        <ele>1033.55</ele>
        <time>2015-07-13T07:46:49Z</time>
      </trkpt>
      <trkpt lat="45.71369" lon="2.93371">
        <ele>1033.07</ele>
        <time>2015-07-13T07:46:50Z</time>
      </trkpt>
      <trkpt lat="45.71369" lon="2.93353">
        <ele>1031.63</ele>
        <time>2015-07-13T07:46:52Z</time>
      </trkpt>
      <trkpt lat="45.7137" lon="2.93345">
        <ele>1031.15</ele>
        <time>2015-07-13T07:46:53Z</time>
      </trkpt>
      <trkpt lat="45.71371" lon="2.93337">
        <ele>1031.15</ele>
        <time>2015-07-13T07:46:54Z</time>
      </trkpt>
      <trkpt lat="45.71373" lon="2.93329">
        <ele>1030.67</ele>
        <time>2015-07-13T07:46:55Z</time>
      </trkpt>
      <trkpt lat="45.71374" lon="2.93323">
        <ele>1030.19</ele>
        <time>2015-07-13T07:46:56Z</time>
      </trkpt>
      <trkpt lat="45.71376" lon="2.93318">
        <ele>1029.23</ele>
        <time>2015-07-13T07:46:57Z</time>
      </trkpt>
      <trkpt lat="45.71377" lon="2.93315">
        <ele>1028.75</ele>
        <time>2015-07-13T07:46:58Z</time>
      </trkpt>
      <trkpt lat="45.71378" lon="2.93312">
        <ele>1028.27</ele>
        <time>2015-07-13T07:46:59Z</time>
      </trkpt>
      <trkpt lat="45.71378" lon="2.93308">
        <ele>1027.79</ele>
        <time>2015-07-13T07:47:00Z</time>
      </trkpt>
      <trkpt lat="45.71379" lon="2.93304">
        <ele>1027.79</ele>
        <time>2015-07-13T07:47:01Z</time>
      </trkpt>
      <trkpt lat="45.71381" lon="2.93299">
        <ele>1026.83</ele>
        <time>2015-07-13T07:47:02Z</time>
      </trkpt>
      <trkpt lat="45.71384" lon="2.93278">
        <ele>1025.86</ele>
        <time>2015-07-13T07:47:05Z</time>
      </trkpt>
      <trkpt lat="45.71384" lon="2.93269">
        <ele>1025.38</ele>
        <time>2015-07-13T07:47:06Z</time>
      </trkpt>
      <trkpt lat="45.71383" lon="2.9326">
        <ele>1024.9</ele>
        <time>2015-07-13T07:47:07Z</time>
      </trkpt>
      <trkpt lat="45.71381" lon="2.93253">
        <ele>1024.42</ele>
        <time>2015-07-13T07:47:08Z</time>
      </trkpt>
      <trkpt lat="45.71379" lon="2.93245">
        <ele>1023.94</ele>
        <time>2015-07-13T07:47:09Z</time>
      </trkpt>
      <trkpt lat="45.71376" lon="2.93229">
        <ele>1022.98</ele>
        <time>2015-07-13T07:47:11Z</time>
      </trkpt>
      <trkpt lat="45.71376" lon="2.93221">
        <ele>1022.5</ele>
        <time>2015-07-13T07:47:12Z</time>
      </trkpt>
      <trkpt lat="45.71376" lon="2.93213">
        <ele>1022.02</ele>
        <time>2015-07-13T07:47:13Z</time>
      </trkpt>
      <trkpt lat="45.71377" lon="2.93206">
        <ele>1021.54</ele>
        <time>2015-07-13T07:47:14Z</time>
      </trkpt>
      <trkpt lat="45.71378" lon="2.93199">
        <ele>1021.06</ele>
        <time>2015-07-13T07:47:15Z</time>
      </trkpt>
      <trkpt lat="45.71379" lon="2.93193">
        <ele>1021.06</ele>
        <time>2015-07-13T07:47:16Z</time>
      </trkpt>
      <trkpt lat="45.71379" lon="2.93188">
        <ele>1020.58</ele>
        <time>2015-07-13T07:47:17Z</time>
      </trkpt>
      <trkpt lat="45.71377" lon="2.9315">
        <ele>1017.21</ele>
        <time>2015-07-13T07:47:22Z</time>
      </trkpt>
      <trkpt lat="45.71376" lon="2.93141">
        <ele>1018.17</ele>
        <time>2015-07-13T07:47:23Z</time>
      </trkpt>
      <trkpt lat="45.71375" lon="2.93132">
        <ele>1017.21</ele>
        <time>2015-07-13T07:47:24Z</time>
      </trkpt>
      <trkpt lat="45.71375" lon="2.93124">
        <ele>1016.73</ele>
        <time>2015-07-13T07:47:25Z</time>
      </trkpt>
      <trkpt lat="45.71376" lon="2.93115">
        <ele>1016.73</ele>
        <time>2015-07-13T07:47:26Z</time>
      </trkpt>
      <trkpt lat="45.71376" lon="2.93108">
        <ele>1016.25</ele>
        <time>2015-07-13T07:47:27Z</time>
      </trkpt>
      <trkpt lat="45.71375" lon="2.93101">
        <ele>1016.25</ele>
        <time>2015-07-13T07:47:28Z</time>
      </trkpt>
      <trkpt lat="45.71374" lon="2.93094">
        <ele>1016.25</ele>
        <time>2015-07-13T07:47:29Z</time>
      </trkpt>
      <trkpt lat="45.71372" lon="2.93087">
        <ele>1015.77</ele>
        <time>2015-07-13T07:47:30Z</time>
      </trkpt>
      <trkpt lat="45.71357" lon="2.93025">
        <ele>1014.81</ele>
        <time>2015-07-13T07:47:38Z</time>
      </trkpt>
      <trkpt lat="45.71354" lon="2.93015">
        <ele>1014.81</ele>
        <time>2015-07-13T07:47:39Z</time>
      </trkpt>
      <trkpt lat="45.71344" lon="2.92976">
        <ele>1013.85</ele>
        <time>2015-07-13T07:47:44Z</time>
      </trkpt>
      <trkpt lat="45.7134" lon="2.92958">
        <ele>1013.37</ele>
        <time>2015-07-13T07:47:46Z</time>
      </trkpt>
      <trkpt lat="45.71337" lon="2.92949">
        <ele>1012.89</ele>
        <time>2015-07-13T07:47:47Z</time>
      </trkpt>
      <trkpt lat="45.71328" lon="2.92925">
        <ele>1012.41</ele>
        <time>2015-07-13T07:47:50Z</time>
      </trkpt>
      <trkpt lat="45.71322" lon="2.92911">
        <ele>1011.93</ele>
        <time>2015-07-13T07:47:52Z</time>
      </trkpt>
      <trkpt lat="45.71315" lon="2.92898">
        <ele>1011.44</ele>
        <time>2015-07-13T07:47:54Z</time>
      </trkpt>
      <trkpt lat="45.71312" lon="2.92891">
        <ele>1010.96</ele>
        <time>2015-07-13T07:47:55Z</time>
      </trkpt>
      <trkpt lat="45.71301" lon="2.92868">
        <ele>1010</ele>
        <time>2015-07-13T07:47:58Z</time>
      </trkpt>
      <trkpt lat="45.71297" lon="2.9286">
        <ele>1010</ele>
        <time>2015-07-13T07:47:59Z</time>
      </trkpt>
      <trkpt lat="45.71284" lon="2.92835">
        <ele>1008.56</ele>
        <time>2015-07-13T07:48:02Z</time>
      </trkpt>
      <trkpt lat="45.71265" lon="2.92794">
        <ele>1005.2</ele>
        <time>2015-07-13T07:48:07Z</time>
      </trkpt>
      <trkpt lat="45.71225" lon="2.92738">
        <ele>1003.75</ele>
        <time>2015-07-13T07:48:15Z</time>
      </trkpt>
      <trkpt lat="45.71219" lon="2.92733">
        <ele>1003.75</ele>
        <time>2015-07-13T07:48:16Z</time>
      </trkpt>
      <trkpt lat="45.71213" lon="2.92729">
        <ele>1003.27</ele>
        <time>2015-07-13T07:48:17Z</time>
      </trkpt>
      <trkpt lat="45.71208" lon="2.92726">
        <ele>1003.27</ele>
        <time>2015-07-13T07:48:18Z</time>
      </trkpt>
      <trkpt lat="45.71202" lon="2.92722">
        <ele>1003.27</ele>
        <time>2015-07-13T07:48:19Z</time>
      </trkpt>
      <trkpt lat="45.71197" lon="2.9272">
        <ele>1003.75</ele>
        <time>2015-07-13T07:48:20Z</time>
      </trkpt>
      <trkpt lat="45.71192" lon="2.92718">
        <ele>1004.23</ele>
        <time>2015-07-13T07:48:21Z</time>
      </trkpt>
      <trkpt lat="45.71187" lon="2.92715">
        <ele>1004.23</ele>
        <time>2015-07-13T07:48:22Z</time>
      </trkpt>
      <trkpt lat="45.71154" lon="2.92702">
        <ele>1006.64</ele>
        <time>2015-07-13T07:48:31Z</time>
      </trkpt>
      <trkpt lat="45.71132" lon="2.92695">
        <ele>1009.04</ele>
        <time>2015-07-13T07:48:40Z</time>
      </trkpt>
      <trkpt lat="45.71129" lon="2.92694">
        <ele>1009.04</ele>
        <time>2015-07-13T07:48:42Z</time>
      </trkpt>
      <trkpt lat="45.71128" lon="2.92693">
        <ele>1009.52</ele>
        <time>2015-07-13T07:48:43Z</time>
      </trkpt>
      <trkpt lat="45.71126" lon="2.92691">
        <ele>1010</ele>
        <time>2015-07-13T07:48:44Z</time>
      </trkpt>
      <trkpt lat="45.71125" lon="2.9269">
        <ele>1010</ele>
        <time>2015-07-13T07:48:45Z</time>
      </trkpt>
      <trkpt lat="45.71124" lon="2.92688">
        <ele>1010</ele>
        <time>2015-07-13T07:48:46Z</time>
      </trkpt>
      <trkpt lat="45.71124" lon="2.92686">
        <ele>1010</ele>
        <time>2015-07-13T07:48:47Z</time>
      </trkpt>
      <trkpt lat="45.71124" lon="2.92684">
        <ele>1010</ele>
        <time>2015-07-13T07:48:48Z</time>
      </trkpt>
      <trkpt lat="45.71125" lon="2.92682">
        <ele>1010</ele>
        <time>2015-07-13T07:48:49Z</time>
      </trkpt>
      <trkpt lat="45.71125" lon="2.9268">
        <ele>1010</ele>
        <time>2015-07-13T07:48:50Z</time>
      </trkpt>
      <trkpt lat="45.71125" lon="2.92677">
        <ele>1010</ele>
        <time>2015-07-13T07:48:51Z</time>
      </trkpt>
      <trkpt lat="45.71125" lon="2.92672">
        <ele>1010</ele>
        <time>2015-07-13T07:48:53Z</time>
      </trkpt>
      <trkpt lat="45.71126" lon="2.9267">
        <ele>1010</ele>
        <time>2015-07-13T07:48:54Z</time>
      </trkpt>
      <trkpt lat="45.71126" lon="2.92667">
        <ele>1010.48</ele>
        <time>2015-07-13T07:48:55Z</time>
      </trkpt>
      <trkpt lat="45.71126" lon="2.92663">
        <ele>1010.48</ele>
        <time>2015-07-13T07:48:56Z</time>
      </trkpt>
      <trkpt lat="45.71126" lon="2.9266">
        <ele>1010.48</ele>
        <time>2015-07-13T07:48:57Z</time>
      </trkpt>
      <trkpt lat="45.71126" lon="2.92657">
        <ele>1010.48</ele>
        <time>2015-07-13T07:48:58Z</time>
      </trkpt>
      <trkpt lat="45.71127" lon="2.92654">
        <ele>1010.48</ele>
        <time>2015-07-13T07:48:59Z</time>
      </trkpt>
      <trkpt lat="45.71127" lon="2.92651">
        <ele>1010.48</ele>
        <time>2015-07-13T07:49:00Z</time>
      </trkpt>
      <trkpt lat="45.71134" lon="2.92616">
        <ele>1010.96</ele>
        <time>2015-07-13T07:49:11Z</time>
      </trkpt>
      <trkpt lat="45.71142" lon="2.92576">
        <ele>1007.6</ele>
        <time>2015-07-13T07:49:18Z</time>
      </trkpt>
      <trkpt lat="45.71143" lon="2.92567">
        <ele>1007.12</ele>
        <time>2015-07-13T07:49:19Z</time>
      </trkpt>
      <trkpt lat="45.71145" lon="2.92506">
        <ele>1006.64</ele>
        <time>2015-07-13T07:49:26Z</time>
      </trkpt>
      <trkpt lat="45.71143" lon="2.92498">
        <ele>1006.16</ele>
        <time>2015-07-13T07:49:27Z</time>
      </trkpt>
      <trkpt lat="45.71138" lon="2.92482">
        <ele>1005.68</ele>
        <time>2015-07-13T07:49:29Z</time>
      </trkpt>
      <trkpt lat="45.71112" lon="2.92413">
        <ele>1004.23</ele>
        <time>2015-07-13T07:49:39Z</time>
      </trkpt>
      <trkpt lat="45.7111" lon="2.92407">
        <ele>1004.23</ele>
        <time>2015-07-13T07:49:40Z</time>
      </trkpt>
      <trkpt lat="45.71108" lon="2.924">
        <ele>1004.72</ele>
        <time>2015-07-13T07:49:41Z</time>
      </trkpt>
      <trkpt lat="45.71106" lon="2.92394">
        <ele>1004.72</ele>
        <time>2015-07-13T07:49:42Z</time>
      </trkpt>
      <trkpt lat="45.71103" lon="2.92388">
        <ele>1004.72</ele>
        <time>2015-07-13T07:49:43Z</time>
      </trkpt>
      <trkpt lat="45.71093" lon="2.92358">
        <ele>1005.2</ele>
        <time>2015-07-13T07:49:48Z</time>
      </trkpt>
      <trkpt lat="45.71092" lon="2.92353">
        <ele>1005.2</ele>
        <time>2015-07-13T07:49:49Z</time>
      </trkpt>
      <trkpt lat="45.71092" lon="2.92335">
        <ele>1005.68</ele>
        <time>2015-07-13T07:49:52Z</time>
      </trkpt>
      <trkpt lat="45.71099" lon="2.92267">
        <ele>1002.79</ele>
        <time>2015-07-13T07:50:01Z</time>
      </trkpt>
      <trkpt lat="45.711" lon="2.92233">
        <ele>1001.83</ele>
        <time>2015-07-13T07:50:05Z</time>
      </trkpt>
      <trkpt lat="45.71099" lon="2.92225">
        <ele>1001.83</ele>
        <time>2015-07-13T07:50:06Z</time>
      </trkpt>
      <trkpt lat="45.71098" lon="2.92216">
        <ele>1001.35</ele>
        <time>2015-07-13T07:50:07Z</time>
      </trkpt>
      <trkpt lat="45.71084" lon="2.92142">
        <ele>1003.75</ele>
        <time>2015-07-13T07:50:19Z</time>
      </trkpt>
      <trkpt lat="45.71069" lon="2.92077">
        <ele>1006.64</ele>
        <time>2015-07-13T07:50:31Z</time>
      </trkpt>
      <trkpt lat="45.7104" lon="2.92027">
        <ele>1009.04</ele>
        <time>2015-07-13T07:50:46Z</time>
      </trkpt>
      <trkpt lat="45.71022" lon="2.9197">
        <ele>1008.08</ele>
        <time>2015-07-13T07:50:58Z</time>
      </trkpt>
      <trkpt lat="45.71018" lon="2.9195">
        <ele>1007.6</ele>
        <time>2015-07-13T07:51:01Z</time>
      </trkpt>
      <trkpt lat="45.71016" lon="2.91945">
        <ele>1007.6</ele>
        <time>2015-07-13T07:51:02Z</time>
      </trkpt>
      <trkpt lat="45.70992" lon="2.91896">
        <ele>1006.16</ele>
        <time>2015-07-13T07:51:10Z</time>
      </trkpt>
      <trkpt lat="45.70989" lon="2.91891">
        <ele>1006.16</ele>
        <time>2015-07-13T07:51:11Z</time>
      </trkpt>
      <trkpt lat="45.70969" lon="2.91842">
        <ele>1005.68</ele>
        <time>2015-07-13T07:51:19Z</time>
      </trkpt>
      <trkpt lat="45.70966" lon="2.91821">
        <ele>1005.2</ele>
        <time>2015-07-13T07:51:22Z</time>
      </trkpt>
      <trkpt lat="45.70966" lon="2.91813">
        <ele>1006.16</ele>
        <time>2015-07-13T07:51:23Z</time>
      </trkpt>
      <trkpt lat="45.70965" lon="2.91806">
        <ele>1004.72</ele>
        <time>2015-07-13T07:51:24Z</time>
      </trkpt>
      <trkpt lat="45.70957" lon="2.917">
        <ele>1000.87</ele>
        <time>2015-07-13T07:51:36Z</time>
      </trkpt>
      <trkpt lat="45.70956" lon="2.91691">
        <ele>1000.87</ele>
        <time>2015-07-13T07:51:37Z</time>
      </trkpt>
      <trkpt lat="45.70945" lon="2.91619">
        <ele>996.54</ele>
        <time>2015-07-13T07:51:44Z</time>
      </trkpt>
      <trkpt lat="45.70937" lon="2.9157">
        <ele>992.7</ele>
        <time>2015-07-13T07:51:48Z</time>
      </trkpt>
      <trkpt lat="45.70936" lon="2.91559">
        <ele>991.74</ele>
        <time>2015-07-13T07:51:49Z</time>
      </trkpt>
      <trkpt lat="45.70934" lon="2.91539">
        <ele>990.3</ele>
        <time>2015-07-13T07:51:51Z</time>
      </trkpt>
      <trkpt lat="45.70934" lon="2.91532">
        <ele>989.81</ele>
        <time>2015-07-13T07:51:52Z</time>
      </trkpt>
      <trkpt lat="45.70943" lon="2.91508">
        <ele>987.89</ele>
        <time>2015-07-13T07:51:57Z</time>
      </trkpt>
      <trkpt lat="45.70953" lon="2.91501">
        <ele>986.45</ele>
        <time>2015-07-13T07:52:00Z</time>
      </trkpt>
      <trkpt lat="45.70955" lon="2.91496">
        <ele>985.97</ele>
        <time>2015-07-13T07:52:01Z</time>
      </trkpt>
      <trkpt lat="45.70955" lon="2.9149">
        <ele>985.49</ele>
        <time>2015-07-13T07:52:02Z</time>
      </trkpt>
      <trkpt lat="45.70955" lon="2.91484">
        <ele>985.01</ele>
        <time>2015-07-13T07:52:03Z</time>
      </trkpt>
      <trkpt lat="45.70953" lon="2.9148">
        <ele>984.53</ele>
        <time>2015-07-13T07:52:04Z</time>
      </trkpt>
      <trkpt lat="45.70951" lon="2.91475">
        <ele>983.57</ele>
        <time>2015-07-13T07:52:05Z</time>
      </trkpt>
      <trkpt lat="45.70947" lon="2.91471">
        <ele>983.57</ele>
        <time>2015-07-13T07:52:06Z</time>
      </trkpt>
      <trkpt lat="45.70942" lon="2.91468">
        <ele>983.09</ele>
        <time>2015-07-13T07:52:07Z</time>
      </trkpt>
      <trkpt lat="45.70937" lon="2.91466">
        <ele>982.6</ele>
        <time>2015-07-13T07:52:08Z</time>
      </trkpt>
      <trkpt lat="45.70931" lon="2.91465">
        <ele>981.64</ele>
        <time>2015-07-13T07:52:09Z</time>
      </trkpt>
      <trkpt lat="45.70925" lon="2.91464">
        <ele>981.64</ele>
        <time>2015-07-13T07:52:10Z</time>
      </trkpt>
      <trkpt lat="45.7092" lon="2.91464">
        <ele>981.16</ele>
        <time>2015-07-13T07:52:11Z</time>
      </trkpt>
      <trkpt lat="45.70894" lon="2.91461">
        <ele>979.24</ele>
        <time>2015-07-13T07:52:15Z</time>
      </trkpt>
      <trkpt lat="45.70888" lon="2.91462">
        <ele>978.76</ele>
        <time>2015-07-13T07:52:16Z</time>
      </trkpt>
      <trkpt lat="45.70881" lon="2.91462">
        <ele>978.28</ele>
        <time>2015-07-13T07:52:17Z</time>
      </trkpt>
      <trkpt lat="45.70874" lon="2.91462">
        <ele>977.8</ele>
        <time>2015-07-13T07:52:18Z</time>
      </trkpt>
      <trkpt lat="45.70862" lon="2.9146">
        <ele>976.84</ele>
        <time>2015-07-13T07:52:20Z</time>
      </trkpt>
      <trkpt lat="45.70832" lon="2.91444">
        <ele>972.99</ele>
        <time>2015-07-13T07:52:25Z</time>
      </trkpt>
      <trkpt lat="45.70807" lon="2.9142">
        <ele>970.59</ele>
        <time>2015-07-13T07:52:29Z</time>
      </trkpt>
      <trkpt lat="45.70801" lon="2.91415">
        <ele>970.11</ele>
        <time>2015-07-13T07:52:30Z</time>
      </trkpt>
      <trkpt lat="45.70795" lon="2.91412">
        <ele>969.15</ele>
        <time>2015-07-13T07:52:31Z</time>
      </trkpt>
      <trkpt lat="45.7077" lon="2.91402">
        <ele>966.26</ele>
        <time>2015-07-13T07:52:35Z</time>
      </trkpt>
      <trkpt lat="45.70744" lon="2.91397">
        <ele>962.9</ele>
        <time>2015-07-13T07:52:39Z</time>
      </trkpt>
      <trkpt lat="45.70732" lon="2.91393">
        <ele>961.94</ele>
        <time>2015-07-13T07:52:41Z</time>
      </trkpt>
      <trkpt lat="45.70713" lon="2.91386">
        <ele>959.53</ele>
        <time>2015-07-13T07:52:44Z</time>
      </trkpt>
      <trkpt lat="45.70701" lon="2.91378">
        <ele>958.09</ele>
        <time>2015-07-13T07:52:46Z</time>
      </trkpt>
      <trkpt lat="45.70683" lon="2.91365">
        <ele>956.17</ele>
        <time>2015-07-13T07:52:49Z</time>
      </trkpt>
      <trkpt lat="45.70677" lon="2.91363">
        <ele>955.69</ele>
        <time>2015-07-13T07:52:50Z</time>
      </trkpt>
      <trkpt lat="45.70672" lon="2.91362">
        <ele>955.21</ele>
        <time>2015-07-13T07:52:51Z</time>
      </trkpt>
      <trkpt lat="45.70665" lon="2.91362">
        <ele>954.73</ele>
        <time>2015-07-13T07:52:52Z</time>
      </trkpt>
      <trkpt lat="45.70659" lon="2.91362">
        <ele>954.73</ele>
        <time>2015-07-13T07:52:53Z</time>
      </trkpt>
      <trkpt lat="45.70652" lon="2.91361">
        <ele>954.25</ele>
        <time>2015-07-13T07:52:54Z</time>
      </trkpt>
      <trkpt lat="45.70616" lon="2.91351">
        <ele>952.8</ele>
        <time>2015-07-13T07:53:02Z</time>
      </trkpt>
      <trkpt lat="45.70605" lon="2.91347">
        <ele>952.32</ele>
        <time>2015-07-13T07:53:06Z</time>
      </trkpt>
      <trkpt lat="45.706" lon="2.91348">
        <ele>951.84</ele>
        <time>2015-07-13T07:53:07Z</time>
      </trkpt>
      <trkpt lat="45.70575" lon="2.9136">
        <ele>950.4</ele>
        <time>2015-07-13T07:53:12Z</time>
      </trkpt>
      <trkpt lat="45.7057" lon="2.91364">
        <ele>950.4</ele>
        <time>2015-07-13T07:53:13Z</time>
      </trkpt>
      <trkpt lat="45.70553" lon="2.9138">
        <ele>951.84</ele>
        <time>2015-07-13T07:53:18Z</time>
      </trkpt>
      <trkpt lat="45.70549" lon="2.91384">
        <ele>952.32</ele>
        <time>2015-07-13T07:53:19Z</time>
      </trkpt>
      <trkpt lat="45.70543" lon="2.91392">
        <ele>952.32</ele>
        <time>2015-07-13T07:53:21Z</time>
      </trkpt>
      <trkpt lat="45.70533" lon="2.91405">
        <ele>952.32</ele>
        <time>2015-07-13T07:53:24Z</time>
      </trkpt>
      <trkpt lat="45.7053" lon="2.91408">
        <ele>952.8</ele>
        <time>2015-07-13T07:53:25Z</time>
      </trkpt>
      <trkpt lat="45.70527" lon="2.91411">
        <ele>952.8</ele>
        <time>2015-07-13T07:53:26Z</time>
      </trkpt>
      <trkpt lat="45.70524" lon="2.91416">
        <ele>952.8</ele>
        <time>2015-07-13T07:53:27Z</time>
      </trkpt>
      <trkpt lat="45.70521" lon="2.9142">
        <ele>952.8</ele>
        <time>2015-07-13T07:53:28Z</time>
      </trkpt>
      <trkpt lat="45.70518" lon="2.91423">
        <ele>952.8</ele>
        <time>2015-07-13T07:53:29Z</time>
      </trkpt>
      <trkpt lat="45.70515" lon="2.91427">
        <ele>953.28</ele>
        <time>2015-07-13T07:53:30Z</time>
      </trkpt>
      <trkpt lat="45.70511" lon="2.91431">
        <ele>953.28</ele>
        <time>2015-07-13T07:53:31Z</time>
      </trkpt>
      <trkpt lat="45.70505" lon="2.91439">
        <ele>953.77</ele>
        <time>2015-07-13T07:53:33Z</time>
      </trkpt>
      <trkpt lat="45.70495" lon="2.91453">
        <ele>954.25</ele>
        <time>2015-07-13T07:53:36Z</time>
      </trkpt>
      <trkpt lat="45.70493" lon="2.91458">
        <ele>954.25</ele>
        <time>2015-07-13T07:53:37Z</time>
      </trkpt>
      <trkpt lat="45.70491" lon="2.91463">
        <ele>954.73</ele>
        <time>2015-07-13T07:53:38Z</time>
      </trkpt>
      <trkpt lat="45.70487" lon="2.9147">
        <ele>955.21</ele>
        <time>2015-07-13T07:53:40Z</time>
      </trkpt>
      <trkpt lat="45.70485" lon="2.91473">
        <ele>955.69</ele>
        <time>2015-07-13T07:53:41Z</time>
      </trkpt>
      <trkpt lat="45.70483" lon="2.91477">
        <ele>956.65</ele>
        <time>2015-07-13T07:53:42Z</time>
      </trkpt>
      <trkpt lat="45.70481" lon="2.91481">
        <ele>956.65</ele>
        <time>2015-07-13T07:53:43Z</time>
      </trkpt>
      <trkpt lat="45.7048" lon="2.91484">
        <ele>957.13</ele>
        <time>2015-07-13T07:53:44Z</time>
      </trkpt>
      <trkpt lat="45.70446" lon="2.91524">
        <ele>958.09</ele>
        <time>2015-07-13T07:53:57Z</time>
      </trkpt>
      <trkpt lat="45.70412" lon="2.91555">
        <ele>960.49</ele>
        <time>2015-07-13T07:54:10Z</time>
      </trkpt>
      <trkpt lat="45.7038" lon="2.91591">
        <ele>962.9</ele>
        <time>2015-07-13T07:54:24Z</time>
      </trkpt>
      <trkpt lat="45.70362" lon="2.91636">
        <ele>964.82</ele>
        <time>2015-07-13T07:54:37Z</time>
      </trkpt>
      <trkpt lat="45.70344" lon="2.91646">
        <ele>964.34</ele>
        <time>2015-07-13T07:54:43Z</time>
      </trkpt>
      <trkpt lat="45.7034" lon="2.91648">
        <ele>964.34</ele>
        <time>2015-07-13T07:54:44Z</time>
      </trkpt>
      <trkpt lat="45.70336" lon="2.91649">
        <ele>963.86</ele>
        <time>2015-07-13T07:54:45Z</time>
      </trkpt>
      <trkpt lat="45.70316" lon="2.91655">
        <ele>963.86</ele>
        <time>2015-07-13T07:54:49Z</time>
      </trkpt>
      <trkpt lat="45.70312" lon="2.91658">
        <ele>963.38</ele>
        <time>2015-07-13T07:54:50Z</time>
      </trkpt>
      <trkpt lat="45.70309" lon="2.91661">
        <ele>963.38</ele>
        <time>2015-07-13T07:54:51Z</time>
      </trkpt>
      <trkpt lat="45.70306" lon="2.91664">
        <ele>963.86</ele>
        <time>2015-07-13T07:54:52Z</time>
      </trkpt>
      <trkpt lat="45.70303" lon="2.91666">
        <ele>964.34</ele>
        <time>2015-07-13T07:54:53Z</time>
      </trkpt>
      <trkpt lat="45.70257" lon="2.91678">
        <ele>965.3</ele>
        <time>2015-07-13T07:55:05Z</time>
      </trkpt>
      <trkpt lat="45.70221" lon="2.91692">
        <ele>966.74</ele>
        <time>2015-07-13T07:55:16Z</time>
      </trkpt>
      <trkpt lat="45.70179" lon="2.91724">
        <ele>968.67</ele>
        <time>2015-07-13T07:55:28Z</time>
      </trkpt>
      <trkpt lat="45.70153" lon="2.91761">
        <ele>969.63</ele>
        <time>2015-07-13T07:55:38Z</time>
      </trkpt>
      <trkpt lat="45.70117" lon="2.91804">
        <ele>971.07</ele>
        <time>2015-07-13T07:55:52Z</time>
      </trkpt>
      <trkpt lat="45.70079" lon="2.9181">
        <ele>972.51</ele>
        <time>2015-07-13T07:56:04Z</time>
      </trkpt>
      <trkpt lat="45.70039" lon="2.91828">
        <ele>974.91</ele>
        <time>2015-07-13T07:56:19Z</time>
      </trkpt>
      <trkpt lat="45.70017" lon="2.91834">
        <ele>977.8</ele>
        <time>2015-07-13T07:56:31Z</time>
      </trkpt>
      <trkpt lat="45.69995" lon="2.91835">
        <ele>980.68</ele>
        <time>2015-07-13T07:56:43Z</time>
      </trkpt>
      <trkpt lat="45.69964" lon="2.91831">
        <ele>982.6</ele>
        <time>2015-07-13T07:56:57Z</time>
      </trkpt>
      <trkpt lat="45.6995" lon="2.91828">
        <ele>984.05</ele>
        <time>2015-07-13T07:57:04Z</time>
      </trkpt>
      <trkpt lat="45.69948" lon="2.91828">
        <ele>984.05</ele>
        <time>2015-07-13T07:57:05Z</time>
      </trkpt>
      <trkpt lat="45.69946" lon="2.91828">
        <ele>984.53</ele>
        <time>2015-07-13T07:57:06Z</time>
      </trkpt>
      <trkpt lat="45.69944" lon="2.91828">
        <ele>984.53</ele>
        <time>2015-07-13T07:57:07Z</time>
      </trkpt>
      <trkpt lat="45.69942" lon="2.91827">
        <ele>984.53</ele>
        <time>2015-07-13T07:57:08Z</time>
      </trkpt>
      <trkpt lat="45.6994" lon="2.91826">
        <ele>985.01</ele>
        <time>2015-07-13T07:57:09Z</time>
      </trkpt>
      <trkpt lat="45.69938" lon="2.91826">
        <ele>985.01</ele>
        <time>2015-07-13T07:57:10Z</time>
      </trkpt>
      <trkpt lat="45.69936" lon="2.91826">
        <ele>985.01</ele>
        <time>2015-07-13T07:57:11Z</time>
      </trkpt>
      <trkpt lat="45.69934" lon="2.91826">
        <ele>985.49</ele>
        <time>2015-07-13T07:57:12Z</time>
      </trkpt>
      <trkpt lat="45.69932" lon="2.91825">
        <ele>985.49</ele>
        <time>2015-07-13T07:57:13Z</time>
      </trkpt>
      <trkpt lat="45.6993" lon="2.91825">
        <ele>985.97</ele>
        <time>2015-07-13T07:57:14Z</time>
      </trkpt>
      <trkpt lat="45.69928" lon="2.91825">
        <ele>985.97</ele>
        <time>2015-07-13T07:57:15Z</time>
      </trkpt>
      <trkpt lat="45.69905" lon="2.91843">
        <ele>986.93</ele>
        <time>2015-07-13T07:57:26Z</time>
      </trkpt>
      <trkpt lat="45.69877" lon="2.91866">
        <ele>987.41</ele>
        <time>2015-07-13T07:57:39Z</time>
      </trkpt>
      <trkpt lat="45.69858" lon="2.91892">
        <ele>985.49</ele>
        <time>2015-07-13T07:57:47Z</time>
      </trkpt>
      <trkpt lat="45.69854" lon="2.91896">
        <ele>985.01</ele>
        <time>2015-07-13T07:57:48Z</time>
      </trkpt>
      <trkpt lat="45.6985" lon="2.91901">
        <ele>985.01</ele>
        <time>2015-07-13T07:57:49Z</time>
      </trkpt>
      <trkpt lat="45.69846" lon="2.91907">
        <ele>984.53</ele>
        <time>2015-07-13T07:57:50Z</time>
      </trkpt>
      <trkpt lat="45.69842" lon="2.91912">
        <ele>984.05</ele>
        <time>2015-07-13T07:57:51Z</time>
      </trkpt>
      <trkpt lat="45.69803" lon="2.91955">
        <ele>982.6</ele>
        <time>2015-07-13T07:57:59Z</time>
      </trkpt>
      <trkpt lat="45.69797" lon="2.91959">
        <ele>982.6</ele>
        <time>2015-07-13T07:58:00Z</time>
      </trkpt>
      <trkpt lat="45.69785" lon="2.91963">
        <ele>982.12</ele>
        <time>2015-07-13T07:58:02Z</time>
      </trkpt>
      <trkpt lat="45.69779" lon="2.91965">
        <ele>982.12</ele>
        <time>2015-07-13T07:58:03Z</time>
      </trkpt>
      <trkpt lat="45.6973" lon="2.91981">
        <ele>982.6</ele>
        <time>2015-07-13T07:58:13Z</time>
      </trkpt>
      <trkpt lat="45.69726" lon="2.91983">
        <ele>982.6</ele>
        <time>2015-07-13T07:58:14Z</time>
      </trkpt>
      <trkpt lat="45.69722" lon="2.91984">
        <ele>982.6</ele>
        <time>2015-07-13T07:58:15Z</time>
      </trkpt>
      <trkpt lat="45.69717" lon="2.91986">
        <ele>982.6</ele>
        <time>2015-07-13T07:58:16Z</time>
      </trkpt>
      <trkpt lat="45.69713" lon="2.91988">
        <ele>982.6</ele>
        <time>2015-07-13T07:58:17Z</time>
      </trkpt>
      <trkpt lat="45.69672" lon="2.92011">
        <ele>982.6</ele>
        <time>2015-07-13T07:58:26Z</time>
      </trkpt>
      <trkpt lat="45.69668" lon="2.92015">
        <ele>983.09</ele>
        <time>2015-07-13T07:58:27Z</time>
      </trkpt>
      <trkpt lat="45.69632" lon="2.92038">
        <ele>983.57</ele>
        <time>2015-07-13T07:58:35Z</time>
      </trkpt>
      <trkpt lat="45.69628" lon="2.92041">
        <ele>984.05</ele>
        <time>2015-07-13T07:58:36Z</time>
      </trkpt>
      <trkpt lat="45.69602" lon="2.92059">
        <ele>983.57</ele>
        <time>2015-07-13T07:58:42Z</time>
      </trkpt>
      <trkpt lat="45.69563" lon="2.92091">
        <ele>983.09</ele>
        <time>2015-07-13T07:58:51Z</time>
      </trkpt>
      <trkpt lat="45.69559" lon="2.92096">
        <ele>982.6</ele>
        <time>2015-07-13T07:58:52Z</time>
      </trkpt>
      <trkpt lat="45.69507" lon="2.92182">
        <ele>982.12</ele>
        <time>2015-07-13T07:59:07Z</time>
      </trkpt>
      <trkpt lat="45.6945" lon="2.92279">
        <ele>982.6</ele>
        <time>2015-07-13T07:59:24Z</time>
      </trkpt>
      <trkpt lat="45.69429" lon="2.92314">
        <ele>981.64</ele>
        <time>2015-07-13T07:59:30Z</time>
      </trkpt>
      <trkpt lat="45.69426" lon="2.92319">
        <ele>981.64</ele>
        <time>2015-07-13T07:59:31Z</time>
      </trkpt>
      <trkpt lat="45.69403" lon="2.92359">
        <ele>982.12</ele>
        <time>2015-07-13T07:59:38Z</time>
      </trkpt>
      <trkpt lat="45.69399" lon="2.92365">
        <ele>982.12</ele>
        <time>2015-07-13T07:59:39Z</time>
      </trkpt>
      <trkpt lat="45.69396" lon="2.9237">
        <ele>982.12</ele>
        <time>2015-07-13T07:59:40Z</time>
      </trkpt>
      <trkpt lat="45.69393" lon="2.92376">
        <ele>982.12</ele>
        <time>2015-07-13T07:59:41Z</time>
      </trkpt>
      <trkpt lat="45.6939" lon="2.92382">
        <ele>982.12</ele>
        <time>2015-07-13T07:59:42Z</time>
      </trkpt>
      <trkpt lat="45.69386" lon="2.92388">
        <ele>982.12</ele>
        <time>2015-07-13T07:59:43Z</time>
      </trkpt>
      <trkpt lat="45.69335" lon="2.92477">
        <ele>983.09</ele>
        <time>2015-07-13T07:59:59Z</time>
      </trkpt>
      <trkpt lat="45.69308" lon="2.9255">
        <ele>982.6</ele>
        <time>2015-07-13T08:00:10Z</time>
      </trkpt>
      <trkpt lat="45.69277" lon="2.92651">
        <ele>984.05</ele>
        <time>2015-07-13T08:00:26Z</time>
      </trkpt>
      <trkpt lat="45.6926" lon="2.92704">
        <ele>985.49</ele>
        <time>2015-07-13T08:00:35Z</time>
      </trkpt>
      <trkpt lat="45.69258" lon="2.9271">
        <ele>985.97</ele>
        <time>2015-07-13T08:00:36Z</time>
      </trkpt>
      <trkpt lat="45.69227" lon="2.92798">
        <ele>986.93</ele>
        <time>2015-07-13T08:00:53Z</time>
      </trkpt>
      <trkpt lat="45.69192" lon="2.92884">
        <ele>988.37</ele>
        <time>2015-07-13T08:01:09Z</time>
      </trkpt>
      <trkpt lat="45.6919" lon="2.9289">
        <ele>988.37</ele>
        <time>2015-07-13T08:01:10Z</time>
      </trkpt>
      <trkpt lat="45.69152" lon="2.92985">
        <ele>988.37</ele>
        <time>2015-07-13T08:01:27Z</time>
      </trkpt>
      <trkpt lat="45.69124" lon="2.9305">
        <ele>988.37</ele>
        <time>2015-07-13T08:01:39Z</time>
      </trkpt>
      <trkpt lat="45.69121" lon="2.93056">
        <ele>988.37</ele>
        <time>2015-07-13T08:01:40Z</time>
      </trkpt>
      <trkpt lat="45.69119" lon="2.93061">
        <ele>988.37</ele>
        <time>2015-07-13T08:01:41Z</time>
      </trkpt>
      <trkpt lat="45.69083" lon="2.93146">
        <ele>988.85</ele>
        <time>2015-07-13T08:01:57Z</time>
      </trkpt>
      <trkpt lat="45.69081" lon="2.93151">
        <ele>988.85</ele>
        <time>2015-07-13T08:01:58Z</time>
      </trkpt>
      <trkpt lat="45.69048" lon="2.93235">
        <ele>989.33</ele>
        <time>2015-07-13T08:02:13Z</time>
      </trkpt>
      <trkpt lat="45.69046" lon="2.93241">
        <ele>989.33</ele>
        <time>2015-07-13T08:02:14Z</time>
      </trkpt>
      <trkpt lat="45.69044" lon="2.93246">
        <ele>989.33</ele>
        <time>2015-07-13T08:02:15Z</time>
      </trkpt>
      <trkpt lat="45.69021" lon="2.93297">
        <ele>989.33</ele>
        <time>2015-07-13T08:02:24Z</time>
      </trkpt>
      <trkpt lat="45.69019" lon="2.93303">
        <ele>989.33</ele>
        <time>2015-07-13T08:02:25Z</time>
      </trkpt>
      <trkpt lat="45.69016" lon="2.93309">
        <ele>989.33</ele>
        <time>2015-07-13T08:02:26Z</time>
      </trkpt>
      <trkpt lat="45.69005" lon="2.93339">
        <ele>989.81</ele>
        <time>2015-07-13T08:02:31Z</time>
      </trkpt>
      <trkpt lat="45.68997" lon="2.93356">
        <ele>989.33</ele>
        <time>2015-07-13T08:02:34Z</time>
      </trkpt>
      <trkpt lat="45.68955" lon="2.93461">
        <ele>989.33</ele>
        <time>2015-07-13T08:02:51Z</time>
      </trkpt>
      <trkpt lat="45.6895" lon="2.93474">
        <ele>989.33</ele>
        <time>2015-07-13T08:02:53Z</time>
      </trkpt>
      <trkpt lat="45.68906" lon="2.9358">
        <ele>987.89</ele>
        <time>2015-07-13T08:03:08Z</time>
      </trkpt>
      <trkpt lat="45.6888" lon="2.9364">
        <ele>987.41</ele>
        <time>2015-07-13T08:03:16Z</time>
      </trkpt>
      <trkpt lat="45.6883" lon="2.93765">
        <ele>986.45</ele>
        <time>2015-07-13T08:03:32Z</time>
      </trkpt>
      <trkpt lat="45.68784" lon="2.93875">
        <ele>984.05</ele>
        <time>2015-07-13T08:03:47Z</time>
      </trkpt>
      <trkpt lat="45.68774" lon="2.93905">
        <ele>984.53</ele>
        <time>2015-07-13T08:03:52Z</time>
      </trkpt>
      <trkpt lat="45.68776" lon="2.93908">
        <ele>984.05</ele>
        <time>2015-07-13T08:03:53Z</time>
      </trkpt>
      <trkpt lat="45.68778" lon="2.9391">
        <ele>984.05</ele>
        <time>2015-07-13T08:03:54Z</time>
      </trkpt>
      <trkpt lat="45.68781" lon="2.9391">
        <ele>984.05</ele>
        <time>2015-07-13T08:03:55Z</time>
      </trkpt>
      <trkpt lat="45.68784" lon="2.9391">
        <ele>984.05</ele>
        <time>2015-07-13T08:03:56Z</time>
      </trkpt>
      <trkpt lat="45.68842" lon="2.93931">
        <ele>984.53</ele>
        <time>2015-07-13T08:04:12Z</time>
      </trkpt>
      <trkpt lat="45.68875" lon="2.93945">
        <ele>985.01</ele>
        <time>2015-07-13T08:04:23Z</time>
      </trkpt>
      <trkpt lat="45.68915" lon="2.93959">
        <ele>986.93</ele>
        <time>2015-07-13T08:04:35Z</time>
      </trkpt>
      <trkpt lat="45.68945" lon="2.9397">
        <ele>987.41</ele>
        <time>2015-07-13T08:04:46Z</time>
      </trkpt>
      <trkpt lat="45.68947" lon="2.93971">
        <ele>987.41</ele>
        <time>2015-07-13T08:04:47Z</time>
      </trkpt>
      <trkpt lat="45.68949" lon="2.93972">
        <ele>987.41</ele>
        <time>2015-07-13T08:04:48Z</time>
      </trkpt>
      <trkpt lat="45.68951" lon="2.93973">
        <ele>987.41</ele>
        <time>2015-07-13T08:04:49Z</time>
      </trkpt>
      <trkpt lat="45.68952" lon="2.93974">
        <ele>987.41</ele>
        <time>2015-07-13T08:04:50Z</time>
      </trkpt>
      <trkpt lat="45.68954" lon="2.93975">
        <ele>987.89</ele>
        <time>2015-07-13T08:04:51Z</time>
      </trkpt>
      <trkpt lat="45.68957" lon="2.93976">
        <ele>987.89</ele>
        <time>2015-07-13T08:04:52Z</time>
      </trkpt>
      <trkpt lat="45.68994" lon="2.93984">
        <ele>988.37</ele>
        <time>2015-07-13T08:05:05Z</time>
      </trkpt>
      <trkpt lat="45.69036" lon="2.93991">
        <ele>987.41</ele>
        <time>2015-07-13T08:05:16Z</time>
      </trkpt>
      <trkpt lat="45.69062" lon="2.94007">
        <ele>987.89</ele>
        <time>2015-07-13T08:05:27Z</time>
      </trkpt>
      <trkpt lat="45.69088" lon="2.94016">
        <ele>988.85</ele>
        <time>2015-07-13T08:05:37Z</time>
      </trkpt>
      <trkpt lat="45.69092" lon="2.94016">
        <ele>988.85</ele>
        <time>2015-07-13T08:05:38Z</time>
      </trkpt>
      <trkpt lat="45.69095" lon="2.94017">
        <ele>988.85</ele>
        <time>2015-07-13T08:05:39Z</time>
      </trkpt>
      <trkpt lat="45.69117" lon="2.94015">
        <ele>989.81</ele>
        <time>2015-07-13T08:05:47Z</time>
      </trkpt>
      <trkpt lat="45.69124" lon="2.94017">
        <ele>989.81</ele>
        <time>2015-07-13T08:05:51Z</time>
      </trkpt>
      <trkpt lat="45.69126" lon="2.94018">
        <ele>990.3</ele>
        <time>2015-07-13T08:05:52Z</time>
      </trkpt>
      <trkpt lat="45.69148" lon="2.94026">
        <ele>992.22</ele>
        <time>2015-07-13T08:06:03Z</time>
      </trkpt>
      <trkpt lat="45.69151" lon="2.94028">
        <ele>992.22</ele>
        <time>2015-07-13T08:06:04Z</time>
      </trkpt>
      <trkpt lat="45.69163" lon="2.94038">
        <ele>994.14</ele>
        <time>2015-07-13T08:06:13Z</time>
      </trkpt>
      <trkpt lat="45.69166" lon="2.94038">
        <ele>994.14</ele>
        <time>2015-07-13T08:06:15Z</time>
      </trkpt>
      <trkpt lat="45.69188" lon="2.94037">
        <ele>995.58</ele>
        <time>2015-07-13T08:06:26Z</time>
      </trkpt>
      <trkpt lat="45.69191" lon="2.94038">
        <ele>995.58</ele>
        <time>2015-07-13T08:06:27Z</time>
      </trkpt>
      <trkpt lat="45.69193" lon="2.94038">
        <ele>996.06</ele>
        <time>2015-07-13T08:06:28Z</time>
      </trkpt>
      <trkpt lat="45.692" lon="2.94039">
        <ele>996.54</ele>
        <time>2015-07-13T08:06:31Z</time>
      </trkpt>
      <trkpt lat="45.69212" lon="2.94045">
        <ele>997.99</ele>
        <time>2015-07-13T08:06:40Z</time>
      </trkpt>
      <trkpt lat="45.69213" lon="2.94046">
        <ele>997.99</ele>
        <time>2015-07-13T08:06:41Z</time>
      </trkpt>
      <trkpt lat="45.69216" lon="2.94049">
        <ele>998.47</ele>
        <time>2015-07-13T08:06:43Z</time>
      </trkpt>
      <trkpt lat="45.69226" lon="2.94053">
        <ele>998.95</ele>
        <time>2015-07-13T08:06:49Z</time>
      </trkpt>
      <trkpt lat="45.69228" lon="2.94053">
        <ele>999.43</ele>
        <time>2015-07-13T08:06:50Z</time>
      </trkpt>
      <trkpt lat="45.6923" lon="2.94055">
        <ele>999.43</ele>
        <time>2015-07-13T08:06:52Z</time>
      </trkpt>
      <trkpt lat="45.69236" lon="2.94062">
        <ele>1000.39</ele>
        <time>2015-07-13T08:06:57Z</time>
      </trkpt>
      <trkpt lat="45.6925" lon="2.94066">
        <ele>1002.31</ele>
        <time>2015-07-13T08:07:07Z</time>
      </trkpt>
      <trkpt lat="45.69262" lon="2.94069">
        <ele>1003.27</ele>
        <time>2015-07-13T08:07:15Z</time>
      </trkpt>
      <trkpt lat="45.69264" lon="2.94069">
        <ele>1003.75</ele>
        <time>2015-07-13T08:07:16Z</time>
      </trkpt>
      <trkpt lat="45.69286" lon="2.94065">
        <ele>1005.2</ele>
        <time>2015-07-13T08:07:29Z</time>
      </trkpt>
      <trkpt lat="45.69299" lon="2.94072">
        <ele>1006.64</ele>
        <time>2015-07-13T08:07:40Z</time>
      </trkpt>
      <trkpt lat="45.69303" lon="2.94073">
        <ele>1007.12</ele>
        <time>2015-07-13T08:07:43Z</time>
      </trkpt>
      <trkpt lat="45.69317" lon="2.94078">
        <ele>1008.08</ele>
        <time>2015-07-13T08:07:52Z</time>
      </trkpt>
      <trkpt lat="45.6932" lon="2.94077">
        <ele>1008.08</ele>
        <time>2015-07-13T08:07:53Z</time>
      </trkpt>
      <trkpt lat="45.69333" lon="2.94081">
        <ele>1008.56</ele>
        <time>2015-07-13T08:08:02Z</time>
      </trkpt>
      <trkpt lat="45.69336" lon="2.94081">
        <ele>1008.56</ele>
        <time>2015-07-13T08:08:03Z</time>
      </trkpt>
      <trkpt lat="45.69342" lon="2.94081">
        <ele>1008.56</ele>
        <time>2015-07-13T08:08:07Z</time>
      </trkpt>
      <trkpt lat="45.69351" lon="2.94086">
        <ele>1009.04</ele>
        <time>2015-07-13T08:08:13Z</time>
      </trkpt>
      <trkpt lat="45.69356" lon="2.9409">
        <ele>1009.04</ele>
        <time>2015-07-13T08:08:16Z</time>
      </trkpt>
      <trkpt lat="45.69357" lon="2.94092">
        <ele>1009.04</ele>
        <time>2015-07-13T08:08:17Z</time>
      </trkpt>
      <trkpt lat="45.69363" lon="2.94097">
        <ele>1009.04</ele>
        <time>2015-07-13T08:08:21Z</time>
      </trkpt>
      <trkpt lat="45.69365" lon="2.94098">
        <ele>1009.04</ele>
        <time>2015-07-13T08:08:22Z</time>
      </trkpt>
      <trkpt lat="45.69367" lon="2.94098">
        <ele>1008.56</ele>
        <time>2015-07-13T08:08:23Z</time>
      </trkpt>
      <trkpt lat="45.6937" lon="2.94098">
        <ele>1009.04</ele>
        <time>2015-07-13T08:08:24Z</time>
      </trkpt>
      <trkpt lat="45.69372" lon="2.94098">
        <ele>1008.56</ele>
        <time>2015-07-13T08:08:25Z</time>
      </trkpt>
      <trkpt lat="45.69375" lon="2.94101">
        <ele>1008.56</ele>
        <time>2015-07-13T08:08:26Z</time>
      </trkpt>
      <trkpt lat="45.69377" lon="2.94102">
        <ele>1008.56</ele>
        <time>2015-07-13T08:08:27Z</time>
      </trkpt>
      <trkpt lat="45.69396" lon="2.94111">
        <ele>1008.08</ele>
        <time>2015-07-13T08:08:36Z</time>
      </trkpt>
      <trkpt lat="45.69399" lon="2.94111">
        <ele>1008.08</ele>
        <time>2015-07-13T08:08:37Z</time>
      </trkpt>
      <trkpt lat="45.69402" lon="2.94111">
        <ele>1008.08</ele>
        <time>2015-07-13T08:08:38Z</time>
      </trkpt>
      <trkpt lat="45.69405" lon="2.94112">
        <ele>1008.08</ele>
        <time>2015-07-13T08:08:39Z</time>
      </trkpt>
      <trkpt lat="45.69409" lon="2.94111">
        <ele>1008.08</ele>
        <time>2015-07-13T08:08:40Z</time>
      </trkpt>
      <trkpt lat="45.69413" lon="2.94111">
        <ele>1008.08</ele>
        <time>2015-07-13T08:08:41Z</time>
      </trkpt>
      <trkpt lat="45.69417" lon="2.94112">
        <ele>1008.08</ele>
        <time>2015-07-13T08:08:42Z</time>
      </trkpt>
      <trkpt lat="45.69419" lon="2.94112">
        <ele>1008.08</ele>
        <time>2015-07-13T08:08:43Z</time>
      </trkpt>
      <trkpt lat="45.69422" lon="2.94113">
        <ele>1008.08</ele>
        <time>2015-07-13T08:08:44Z</time>
      </trkpt>
      <trkpt lat="45.69425" lon="2.94113">
        <ele>1008.08</ele>
        <time>2015-07-13T08:08:45Z</time>
      </trkpt>
      <trkpt lat="45.69428" lon="2.94113">
        <ele>1008.56</ele>
        <time>2015-07-13T08:08:46Z</time>
      </trkpt>
      <trkpt lat="45.6943" lon="2.94113">
        <ele>1008.56</ele>
        <time>2015-07-13T08:08:47Z</time>
      </trkpt>
      <trkpt lat="45.69433" lon="2.94113">
        <ele>1008.56</ele>
        <time>2015-07-13T08:08:48Z</time>
      </trkpt>
      <trkpt lat="45.69465" lon="2.9411">
        <ele>1008.56</ele>
        <time>2015-07-13T08:08:58Z</time>
      </trkpt>
      <trkpt lat="45.69467" lon="2.9411">
        <ele>1008.56</ele>
        <time>2015-07-13T08:08:59Z</time>
      </trkpt>
      <trkpt lat="45.69469" lon="2.94112">
        <ele>1008.56</ele>
        <time>2015-07-13T08:09:00Z</time>
      </trkpt>
      <trkpt lat="45.69471" lon="2.94113">
        <ele>1008.56</ele>
        <time>2015-07-13T08:09:01Z</time>
      </trkpt>
      <trkpt lat="45.69473" lon="2.94115">
        <ele>1008.56</ele>
        <time>2015-07-13T08:09:02Z</time>
      </trkpt>
      <trkpt lat="45.69475" lon="2.94117">
        <ele>1008.56</ele>
        <time>2015-07-13T08:09:03Z</time>
      </trkpt>
      <trkpt lat="45.69477" lon="2.94119">
        <ele>1008.56</ele>
        <time>2015-07-13T08:09:04Z</time>
      </trkpt>
      <trkpt lat="45.69478" lon="2.94122">
        <ele>1008.56</ele>
        <time>2015-07-13T08:09:05Z</time>
      </trkpt>
      <trkpt lat="45.6948" lon="2.94124">
        <ele>1008.56</ele>
        <time>2015-07-13T08:09:06Z</time>
      </trkpt>
      <trkpt lat="45.69481" lon="2.94127">
        <ele>1008.56</ele>
        <time>2015-07-13T08:09:07Z</time>
      </trkpt>
      <trkpt lat="45.69482" lon="2.94129">
        <ele>1009.04</ele>
        <time>2015-07-13T08:09:08Z</time>
      </trkpt>
      <trkpt lat="45.69484" lon="2.94131">
        <ele>1009.04</ele>
        <time>2015-07-13T08:09:09Z</time>
      </trkpt>
      <trkpt lat="45.69502" lon="2.94163">
        <ele>1009.52</ele>
        <time>2015-07-13T08:09:22Z</time>
      </trkpt>
      <trkpt lat="45.69517" lon="2.94198">
        <ele>1010.96</ele>
        <time>2015-07-13T08:09:35Z</time>
      </trkpt>
      <trkpt lat="45.6953" lon="2.94224">
        <ele>1012.89</ele>
        <time>2015-07-13T08:09:48Z</time>
      </trkpt>
      <trkpt lat="45.69537" lon="2.94238">
        <ele>1013.85</ele>
        <time>2015-07-13T08:09:55Z</time>
      </trkpt>
      <trkpt lat="45.69538" lon="2.9424">
        <ele>1013.85</ele>
        <time>2015-07-13T08:09:56Z</time>
      </trkpt>
      <trkpt lat="45.69556" lon="2.94276">
        <ele>1013.85</ele>
        <time>2015-07-13T08:10:11Z</time>
      </trkpt>
      <trkpt lat="45.69576" lon="2.94316">
        <ele>1013.37</ele>
        <time>2015-07-13T08:10:23Z</time>
      </trkpt>
      <trkpt lat="45.69596" lon="2.9436">
        <ele>1011.93</ele>
        <time>2015-07-13T08:10:34Z</time>
      </trkpt>
      <trkpt lat="45.69619" lon="2.94401">
        <ele>1010.96</ele>
        <time>2015-07-13T08:10:43Z</time>
      </trkpt>
      <trkpt lat="45.69621" lon="2.94405">
        <ele>1010.48</ele>
        <time>2015-07-13T08:10:44Z</time>
      </trkpt>
      <trkpt lat="45.69651" lon="2.9447">
        <ele>1009.04</ele>
        <time>2015-07-13T08:10:56Z</time>
      </trkpt>
      <trkpt lat="45.69689" lon="2.94553">
        <ele>1007.12</ele>
        <time>2015-07-13T08:11:10Z</time>
      </trkpt>
      <trkpt lat="45.69706" lon="2.9459">
        <ele>1004.72</ele>
        <time>2015-07-13T08:11:16Z</time>
      </trkpt>
      <trkpt lat="45.69708" lon="2.94597">
        <ele>1004.72</ele>
        <time>2015-07-13T08:11:17Z</time>
      </trkpt>
      <trkpt lat="45.69716" lon="2.94619">
        <ele>1003.75</ele>
        <time>2015-07-13T08:11:20Z</time>
      </trkpt>
      <trkpt lat="45.6972" lon="2.94626">
        <ele>1003.27</ele>
        <time>2015-07-13T08:11:21Z</time>
      </trkpt>
      <trkpt lat="45.6974" lon="2.94675">
        <ele>1001.35</ele>
        <time>2015-07-13T08:11:27Z</time>
      </trkpt>
      <trkpt lat="45.69743" lon="2.94683">
        <ele>1001.35</ele>
        <time>2015-07-13T08:11:28Z</time>
      </trkpt>
      <trkpt lat="45.69745" lon="2.94692">
        <ele>1001.35</ele>
        <time>2015-07-13T08:11:29Z</time>
      </trkpt>
      <trkpt lat="45.69751" lon="2.94746">
        <ele>1000.87</ele>
        <time>2015-07-13T08:11:36Z</time>
      </trkpt>
      <trkpt lat="45.69747" lon="2.94752">
        <ele>1000.87</ele>
        <time>2015-07-13T08:11:37Z</time>
      </trkpt>
      <trkpt lat="45.69739" lon="2.94766">
        <ele>1000.87</ele>
        <time>2015-07-13T08:11:39Z</time>
      </trkpt>
      <trkpt lat="45.69728" lon="2.94793">
        <ele>999.43</ele>
        <time>2015-07-13T08:11:43Z</time>
      </trkpt>
      <trkpt lat="45.69687" lon="2.94866">
        <ele>998.47</ele>
        <time>2015-07-13T08:11:53Z</time>
      </trkpt>
      <trkpt lat="45.69682" lon="2.94872">
        <ele>998.47</ele>
        <time>2015-07-13T08:11:54Z</time>
      </trkpt>
      <trkpt lat="45.69679" lon="2.94878">
        <ele>997.99</ele>
        <time>2015-07-13T08:11:55Z</time>
      </trkpt>
      <trkpt lat="45.69676" lon="2.94884">
        <ele>997.99</ele>
        <time>2015-07-13T08:11:56Z</time>
      </trkpt>
      <trkpt lat="45.69673" lon="2.94891">
        <ele>997.99</ele>
        <time>2015-07-13T08:11:57Z</time>
      </trkpt>
      <trkpt lat="45.6967" lon="2.94897">
        <ele>997.99</ele>
        <time>2015-07-13T08:11:58Z</time>
      </trkpt>
      <trkpt lat="45.69667" lon="2.94902">
        <ele>997.51</ele>
        <time>2015-07-13T08:11:59Z</time>
      </trkpt>
      <trkpt lat="45.69663" lon="2.94908">
        <ele>997.51</ele>
        <time>2015-07-13T08:12:00Z</time>
      </trkpt>
      <trkpt lat="45.69659" lon="2.94914">
        <ele>997.51</ele>
        <time>2015-07-13T08:12:01Z</time>
      </trkpt>
      <trkpt lat="45.69656" lon="2.94919">
        <ele>997.51</ele>
        <time>2015-07-13T08:12:02Z</time>
      </trkpt>
      <trkpt lat="45.69644" lon="2.94942">
        <ele>996.54</ele>
        <time>2015-07-13T08:12:06Z</time>
      </trkpt>
      <trkpt lat="45.69642" lon="2.94948">
        <ele>996.54</ele>
        <time>2015-07-13T08:12:07Z</time>
      </trkpt>
      <trkpt lat="45.69639" lon="2.94953">
        <ele>996.54</ele>
        <time>2015-07-13T08:12:08Z</time>
      </trkpt>
      <trkpt lat="45.69636" lon="2.94958">
        <ele>996.54</ele>
        <time>2015-07-13T08:12:09Z</time>
      </trkpt>
      <trkpt lat="45.69633" lon="2.94963">
        <ele>996.54</ele>
        <time>2015-07-13T08:12:10Z</time>
      </trkpt>
      <trkpt lat="45.6963" lon="2.94969">
        <ele>996.54</ele>
        <time>2015-07-13T08:12:11Z</time>
      </trkpt>
      <trkpt lat="45.69624" lon="2.94984">
        <ele>996.06</ele>
        <time>2015-07-13T08:12:13Z</time>
      </trkpt>
      <trkpt lat="45.69621" lon="2.9499">
        <ele>996.06</ele>
        <time>2015-07-13T08:12:14Z</time>
      </trkpt>
      <trkpt lat="45.69618" lon="2.94997">
        <ele>996.06</ele>
        <time>2015-07-13T08:12:15Z</time>
      </trkpt>
      <trkpt lat="45.69612" lon="2.95019">
        <ele>995.1</ele>
        <time>2015-07-13T08:12:18Z</time>
      </trkpt>
      <trkpt lat="45.69607" lon="2.95034">
        <ele>994.14</ele>
        <time>2015-07-13T08:12:20Z</time>
      </trkpt>
      <trkpt lat="45.69605" lon="2.95041">
        <ele>993.66</ele>
        <time>2015-07-13T08:12:21Z</time>
      </trkpt>
      <trkpt lat="45.69594" lon="2.9508">
        <ele>991.74</ele>
        <time>2015-07-13T08:12:25Z</time>
      </trkpt>
      <trkpt lat="45.6959" lon="2.95091">
        <ele>991.26</ele>
        <time>2015-07-13T08:12:26Z</time>
      </trkpt>
      <trkpt lat="45.69586" lon="2.95102">
        <ele>990.78</ele>
        <time>2015-07-13T08:12:27Z</time>
      </trkpt>
      <trkpt lat="45.69576" lon="2.95122">
        <ele>989.33</ele>
        <time>2015-07-13T08:12:29Z</time>
      </trkpt>
      <trkpt lat="45.6957" lon="2.9513">
        <ele>988.37</ele>
        <time>2015-07-13T08:12:30Z</time>
      </trkpt>
      <trkpt lat="45.69558" lon="2.95145">
        <ele>987.41</ele>
        <time>2015-07-13T08:12:32Z</time>
      </trkpt>
      <trkpt lat="45.69552" lon="2.95153">
        <ele>986.93</ele>
        <time>2015-07-13T08:12:33Z</time>
      </trkpt>
      <trkpt lat="45.69548" lon="2.95162">
        <ele>986.93</ele>
        <time>2015-07-13T08:12:34Z</time>
      </trkpt>
      <trkpt lat="45.69543" lon="2.95173">
        <ele>986.45</ele>
        <time>2015-07-13T08:12:35Z</time>
      </trkpt>
      <trkpt lat="45.69524" lon="2.95231">
        <ele>983.09</ele>
        <time>2015-07-13T08:12:41Z</time>
      </trkpt>
      <trkpt lat="45.69482" lon="2.95324">
        <ele>980.2</ele>
        <time>2015-07-13T08:12:51Z</time>
      </trkpt>
      <trkpt lat="45.69479" lon="2.95332">
        <ele>979.72</ele>
        <time>2015-07-13T08:12:52Z</time>
      </trkpt>
      <trkpt lat="45.69476" lon="2.95338">
        <ele>979.72</ele>
        <time>2015-07-13T08:12:53Z</time>
      </trkpt>
      <trkpt lat="45.69473" lon="2.95343">
        <ele>979.72</ele>
        <time>2015-07-13T08:12:54Z</time>
      </trkpt>
      <trkpt lat="45.69471" lon="2.95346">
        <ele>979.24</ele>
        <time>2015-07-13T08:12:55Z</time>
      </trkpt>
      <trkpt lat="45.69469" lon="2.95348">
        <ele>979.24</ele>
        <time>2015-07-13T08:12:56Z</time>
      </trkpt>
      <trkpt lat="45.69468" lon="2.95349">
        <ele>979.24</ele>
        <time>2015-07-13T08:12:57Z</time>
      </trkpt>
      <trkpt lat="45.69465" lon="2.95348">
        <ele>978.76</ele>
        <time>2015-07-13T08:12:58Z</time>
      </trkpt>
      <trkpt lat="45.69463" lon="2.95345">
        <ele>978.76</ele>
        <time>2015-07-13T08:12:59Z</time>
      </trkpt>
      <trkpt lat="45.6946" lon="2.95342">
        <ele>978.76</ele>
        <time>2015-07-13T08:13:00Z</time>
      </trkpt>
      <trkpt lat="45.69457" lon="2.95337">
        <ele>978.28</ele>
        <time>2015-07-13T08:13:01Z</time>
      </trkpt>
      <trkpt lat="45.69454" lon="2.95332">
        <ele>978.28</ele>
        <time>2015-07-13T08:13:02Z</time>
      </trkpt>
      <trkpt lat="45.69451" lon="2.95327">
        <ele>978.28</ele>
        <time>2015-07-13T08:13:03Z</time>
      </trkpt>
      <trkpt lat="45.69448" lon="2.95323">
        <ele>977.8</ele>
        <time>2015-07-13T08:13:04Z</time>
      </trkpt>
      <trkpt lat="45.69444" lon="2.95318">
        <ele>977.8</ele>
        <time>2015-07-13T08:13:05Z</time>
      </trkpt>
      <trkpt lat="45.6944" lon="2.95313">
        <ele>977.32</ele>
        <time>2015-07-13T08:13:06Z</time>
      </trkpt>
      <trkpt lat="45.69425" lon="2.95291">
        <ele>976.84</ele>
        <time>2015-07-13T08:13:10Z</time>
      </trkpt>
      <trkpt lat="45.69418" lon="2.9528">
        <ele>977.32</ele>
        <time>2015-07-13T08:13:12Z</time>
      </trkpt>
      <trkpt lat="45.69414" lon="2.95274">
        <ele>976.84</ele>
        <time>2015-07-13T08:13:13Z</time>
      </trkpt>
      <trkpt lat="45.6941" lon="2.95269">
        <ele>976.84</ele>
        <time>2015-07-13T08:13:14Z</time>
      </trkpt>
      <trkpt lat="45.69406" lon="2.95264">
        <ele>976.36</ele>
        <time>2015-07-13T08:13:15Z</time>
      </trkpt>
      <trkpt lat="45.69402" lon="2.95259">
        <ele>976.84</ele>
        <time>2015-07-13T08:13:16Z</time>
      </trkpt>
      <trkpt lat="45.69399" lon="2.95253">
        <ele>976.84</ele>
        <time>2015-07-13T08:13:17Z</time>
      </trkpt>
      <trkpt lat="45.69378" lon="2.95222">
        <ele>976.84</ele>
        <time>2015-07-13T08:13:23Z</time>
      </trkpt>
      <trkpt lat="45.69374" lon="2.95217">
        <ele>976.84</ele>
        <time>2015-07-13T08:13:24Z</time>
      </trkpt>
      <trkpt lat="45.69324" lon="2.95145">
        <ele>977.32</ele>
        <time>2015-07-13T08:13:39Z</time>
      </trkpt>
      <trkpt lat="45.69296" lon="2.95121">
        <ele>976.84</ele>
        <time>2015-07-13T08:13:49Z</time>
      </trkpt>
      <trkpt lat="45.6929" lon="2.9512">
        <ele>975.88</ele>
        <time>2015-07-13T08:13:51Z</time>
      </trkpt>
      <trkpt lat="45.69285" lon="2.95119">
        <ele>975.39</ele>
        <time>2015-07-13T08:13:52Z</time>
      </trkpt>
      <trkpt lat="45.69276" lon="2.95117">
        <ele>974.43</ele>
        <time>2015-07-13T08:13:54Z</time>
      </trkpt>
      <trkpt lat="45.69216" lon="2.95114">
        <ele>971.55</ele>
        <time>2015-07-13T08:14:04Z</time>
      </trkpt>
      <trkpt lat="45.6919" lon="2.95113">
        <ele>969.63</ele>
        <time>2015-07-13T08:14:08Z</time>
      </trkpt>
      <trkpt lat="45.69183" lon="2.95113">
        <ele>969.15</ele>
        <time>2015-07-13T08:14:09Z</time>
      </trkpt>
      <trkpt lat="45.69175" lon="2.95113">
        <ele>968.67</ele>
        <time>2015-07-13T08:14:10Z</time>
      </trkpt>
      <trkpt lat="45.6916" lon="2.95112">
        <ele>967.22</ele>
        <time>2015-07-13T08:14:12Z</time>
      </trkpt>
      <trkpt lat="45.69105" lon="2.95112">
        <ele>966.74</ele>
        <time>2015-07-13T08:14:20Z</time>
      </trkpt>
      <trkpt lat="45.69099" lon="2.95111">
        <ele>966.74</ele>
        <time>2015-07-13T08:14:21Z</time>
      </trkpt>
      <trkpt lat="45.69074" lon="2.95108">
        <ele>966.74</ele>
        <time>2015-07-13T08:14:26Z</time>
      </trkpt>
      <trkpt lat="45.69069" lon="2.95107">
        <ele>966.26</ele>
        <time>2015-07-13T08:14:27Z</time>
      </trkpt>
      <trkpt lat="45.69063" lon="2.95106">
        <ele>966.26</ele>
        <time>2015-07-13T08:14:28Z</time>
      </trkpt>
      <trkpt lat="45.69058" lon="2.95106">
        <ele>966.26</ele>
        <time>2015-07-13T08:14:29Z</time>
      </trkpt>
      <trkpt lat="45.69053" lon="2.95107">
        <ele>966.26</ele>
        <time>2015-07-13T08:14:30Z</time>
      </trkpt>
      <trkpt lat="45.69048" lon="2.95109">
        <ele>966.26</ele>
        <time>2015-07-13T08:14:31Z</time>
      </trkpt>
      <trkpt lat="45.69043" lon="2.95111">
        <ele>966.26</ele>
        <time>2015-07-13T08:14:32Z</time>
      </trkpt>
      <trkpt lat="45.69038" lon="2.95114">
        <ele>965.3</ele>
        <time>2015-07-13T08:14:33Z</time>
      </trkpt>
      <trkpt lat="45.69033" lon="2.95118">
        <ele>965.3</ele>
        <time>2015-07-13T08:14:34Z</time>
      </trkpt>
      <trkpt lat="45.69029" lon="2.95123">
        <ele>964.82</ele>
        <time>2015-07-13T08:14:35Z</time>
      </trkpt>
      <trkpt lat="45.69015" lon="2.95137">
        <ele>964.82</ele>
        <time>2015-07-13T08:14:42Z</time>
      </trkpt>
      <trkpt lat="45.69015" lon="2.95137">
        <ele>964.82</ele>
        <time>2015-07-13T08:14:58Z</time>
      </trkpt>
      <trkpt lat="45.69014" lon="2.95136">
        <ele>965.3</ele>
        <time>2015-07-13T08:15:16Z</time>
      </trkpt>
      <trkpt lat="45.69014" lon="2.95135">
        <ele>964.82</ele>
        <time>2015-07-13T08:15:31Z</time>
      </trkpt>
      <trkpt lat="45.69016" lon="2.95135">
        <ele>964.34</ele>
        <time>2015-07-13T08:16:16Z</time>
      </trkpt>
      <trkpt lat="45.69015" lon="2.95136">
        <ele>965.3</ele>
        <time>2015-07-13T08:16:47Z</time>
      </trkpt>
      <trkpt lat="45.69015" lon="2.95136">
        <ele>965.3</ele>
        <time>2015-07-13T08:17:03Z</time>
      </trkpt>
      <trkpt lat="45.69014" lon="2.95137">
        <ele>964.82</ele>
        <time>2015-07-13T08:17:24Z</time>
      </trkpt>
      <trkpt lat="45.69015" lon="2.95136">
        <ele>964.34</ele>
        <time>2015-07-13T08:17:48Z</time>
      </trkpt>
      <trkpt lat="45.69014" lon="2.95137">
        <ele>964.34</ele>
        <time>2015-07-13T08:18:28Z</time>
      </trkpt>
      <trkpt lat="45.69013" lon="2.95136">
        <ele>964.82</ele>
        <time>2015-07-13T08:19:18Z</time>
      </trkpt>
      <trkpt lat="45.69013" lon="2.95136">
        <ele>964.82</ele>
        <time>2015-07-13T08:19:59Z</time>
      </trkpt>
      <trkpt lat="45.6901" lon="2.95137">
        <ele>964.82</ele>
        <time>2015-07-13T08:20:21Z</time>
      </trkpt>
      <trkpt lat="45.69009" lon="2.95137">
        <ele>964.82</ele>
        <time>2015-07-13T08:20:22Z</time>
      </trkpt>
      <trkpt lat="45.68986" lon="2.95125">
        <ele>964.82</ele>
        <time>2015-07-13T08:20:32Z</time>
      </trkpt>
      <trkpt lat="45.68949" lon="2.95111">
        <ele>964.82</ele>
        <time>2015-07-13T08:20:44Z</time>
      </trkpt>
      <trkpt lat="45.68918" lon="2.95117">
        <ele>964.82</ele>
        <time>2015-07-13T08:20:55Z</time>
      </trkpt>
      <trkpt lat="45.68877" lon="2.95131">
        <ele>963.86</ele>
        <time>2015-07-13T08:21:06Z</time>
      </trkpt>
      <trkpt lat="45.6883" lon="2.95123">
        <ele>962.9</ele>
        <time>2015-07-13T08:21:18Z</time>
      </trkpt>
      <trkpt lat="45.68815" lon="2.95121">
        <ele>961.94</ele>
        <time>2015-07-13T08:21:21Z</time>
      </trkpt>
      <trkpt lat="45.68809" lon="2.95122">
        <ele>961.94</ele>
        <time>2015-07-13T08:21:22Z</time>
      </trkpt>
      <trkpt lat="45.68769" lon="2.95137">
        <ele>962.9</ele>
        <time>2015-07-13T08:21:32Z</time>
      </trkpt>
      <trkpt lat="45.68766" lon="2.95141">
        <ele>963.38</ele>
        <time>2015-07-13T08:21:33Z</time>
      </trkpt>
      <trkpt lat="45.68762" lon="2.95145">
        <ele>962.9</ele>
        <time>2015-07-13T08:21:34Z</time>
      </trkpt>
      <trkpt lat="45.68757" lon="2.95147">
        <ele>962.42</ele>
        <time>2015-07-13T08:21:35Z</time>
      </trkpt>
      <trkpt lat="45.68751" lon="2.95148">
        <ele>962.42</ele>
        <time>2015-07-13T08:21:36Z</time>
      </trkpt>
      <trkpt lat="45.68746" lon="2.95149">
        <ele>961.46</ele>
        <time>2015-07-13T08:21:37Z</time>
      </trkpt>
      <trkpt lat="45.68724" lon="2.95153">
        <ele>960.49</ele>
        <time>2015-07-13T08:21:41Z</time>
      </trkpt>
      <trkpt lat="45.68719" lon="2.95156">
        <ele>960.49</ele>
        <time>2015-07-13T08:21:42Z</time>
      </trkpt>
      <trkpt lat="45.68715" lon="2.9516">
        <ele>960.49</ele>
        <time>2015-07-13T08:21:43Z</time>
      </trkpt>
      <trkpt lat="45.68711" lon="2.95165">
        <ele>960.98</ele>
        <time>2015-07-13T08:21:44Z</time>
      </trkpt>
      <trkpt lat="45.68707" lon="2.95169">
        <ele>960.98</ele>
        <time>2015-07-13T08:21:45Z</time>
      </trkpt>
      <trkpt lat="45.68703" lon="2.95174">
        <ele>960.49</ele>
        <time>2015-07-13T08:21:46Z</time>
      </trkpt>
      <trkpt lat="45.68672" lon="2.95209">
        <ele>960.49</ele>
        <time>2015-07-13T08:21:54Z</time>
      </trkpt>
      <trkpt lat="45.68669" lon="2.95214">
        <ele>960.49</ele>
        <time>2015-07-13T08:21:55Z</time>
      </trkpt>
      <trkpt lat="45.68667" lon="2.95219">
        <ele>960.49</ele>
        <time>2015-07-13T08:21:56Z</time>
      </trkpt>
      <trkpt lat="45.68665" lon="2.95225">
        <ele>960.49</ele>
        <time>2015-07-13T08:21:57Z</time>
      </trkpt>
      <trkpt lat="45.68663" lon="2.9523">
        <ele>960.49</ele>
        <time>2015-07-13T08:21:58Z</time>
      </trkpt>
      <trkpt lat="45.6866" lon="2.95245">
        <ele>960.49</ele>
        <time>2015-07-13T08:22:01Z</time>
      </trkpt>
      <trkpt lat="45.6866" lon="2.9525">
        <ele>960.49</ele>
        <time>2015-07-13T08:22:02Z</time>
      </trkpt>
      <trkpt lat="45.68658" lon="2.95322">
        <ele>960.49</ele>
        <time>2015-07-13T08:22:15Z</time>
      </trkpt>
      <trkpt lat="45.6865" lon="2.95379">
        <ele>961.46</ele>
        <time>2015-07-13T08:22:26Z</time>
      </trkpt>
      <trkpt lat="45.68647" lon="2.95421">
        <ele>960.49</ele>
        <time>2015-07-13T08:22:33Z</time>
      </trkpt>
      <trkpt lat="45.68645" lon="2.95427">
        <ele>960.01</ele>
        <time>2015-07-13T08:22:34Z</time>
      </trkpt>
      <trkpt lat="45.68642" lon="2.95432">
        <ele>960.49</ele>
        <time>2015-07-13T08:22:35Z</time>
      </trkpt>
      <trkpt lat="45.68638" lon="2.95434">
        <ele>960.49</ele>
        <time>2015-07-13T08:22:36Z</time>
      </trkpt>
      <trkpt lat="45.68635" lon="2.95436">
        <ele>960.49</ele>
        <time>2015-07-13T08:22:37Z</time>
      </trkpt>
      <trkpt lat="45.68631" lon="2.95436">
        <ele>960.49</ele>
        <time>2015-07-13T08:22:38Z</time>
      </trkpt>
      <trkpt lat="45.68627" lon="2.95435">
        <ele>960.49</ele>
        <time>2015-07-13T08:22:39Z</time>
      </trkpt>
      <trkpt lat="45.68624" lon="2.95433">
        <ele>960.49</ele>
        <time>2015-07-13T08:22:40Z</time>
      </trkpt>
      <trkpt lat="45.68621" lon="2.95431">
        <ele>960.98</ele>
        <time>2015-07-13T08:22:41Z</time>
      </trkpt>
      <trkpt lat="45.68619" lon="2.95428">
        <ele>960.98</ele>
        <time>2015-07-13T08:22:42Z</time>
      </trkpt>
      <trkpt lat="45.68616" lon="2.95426">
        <ele>961.46</ele>
        <time>2015-07-13T08:22:43Z</time>
      </trkpt>
      <trkpt lat="45.68592" lon="2.95405">
        <ele>963.38</ele>
        <time>2015-07-13T08:22:53Z</time>
      </trkpt>
      <trkpt lat="45.68566" lon="2.95404">
        <ele>965.3</ele>
        <time>2015-07-13T08:23:04Z</time>
      </trkpt>
      <trkpt lat="45.68561" lon="2.9541">
        <ele>966.26</ele>
        <time>2015-07-13T08:23:07Z</time>
      </trkpt>
      <trkpt lat="45.68559" lon="2.95411">
        <ele>966.26</ele>
        <time>2015-07-13T08:23:08Z</time>
      </trkpt>
      <trkpt lat="45.68557" lon="2.95413">
        <ele>966.74</ele>
        <time>2015-07-13T08:23:09Z</time>
      </trkpt>
      <trkpt lat="45.6854" lon="2.95442">
        <ele>969.63</ele>
        <time>2015-07-13T08:23:23Z</time>
      </trkpt>
      <trkpt lat="45.68528" lon="2.95451">
        <ele>971.07</ele>
        <time>2015-07-13T08:23:30Z</time>
      </trkpt>
      <trkpt lat="45.68526" lon="2.95452">
        <ele>971.07</ele>
        <time>2015-07-13T08:23:31Z</time>
      </trkpt>
      <trkpt lat="45.68521" lon="2.95456">
        <ele>971.55</ele>
        <time>2015-07-13T08:23:34Z</time>
      </trkpt>
      <trkpt lat="45.68519" lon="2.95457">
        <ele>971.55</ele>
        <time>2015-07-13T08:23:35Z</time>
      </trkpt>
      <trkpt lat="45.68518" lon="2.95459">
        <ele>972.03</ele>
        <time>2015-07-13T08:23:36Z</time>
      </trkpt>
      <trkpt lat="45.68497" lon="2.95483">
        <ele>972.99</ele>
        <time>2015-07-13T08:23:49Z</time>
      </trkpt>
      <trkpt lat="45.68489" lon="2.95494">
        <ele>973.95</ele>
        <time>2015-07-13T08:23:56Z</time>
      </trkpt>
      <trkpt lat="45.68488" lon="2.95495">
        <ele>973.95</ele>
        <time>2015-07-13T08:23:57Z</time>
      </trkpt>
      <trkpt lat="45.68482" lon="2.95504">
        <ele>973.95</ele>
        <time>2015-07-13T08:24:00Z</time>
      </trkpt>
      <trkpt lat="45.6848" lon="2.95506">
        <ele>973.95</ele>
        <time>2015-07-13T08:24:01Z</time>
      </trkpt>
      <trkpt lat="45.68478" lon="2.95508">
        <ele>973.95</ele>
        <time>2015-07-13T08:24:02Z</time>
      </trkpt>
      <trkpt lat="45.68476" lon="2.95509">
        <ele>973.95</ele>
        <time>2015-07-13T08:24:03Z</time>
      </trkpt>
      <trkpt lat="45.68449" lon="2.95537">
        <ele>974.43</ele>
        <time>2015-07-13T08:24:15Z</time>
      </trkpt>
      <trkpt lat="45.68425" lon="2.95562">
        <ele>973.95</ele>
        <time>2015-07-13T08:24:25Z</time>
      </trkpt>
      <trkpt lat="45.6842" lon="2.95567">
        <ele>973.95</ele>
        <time>2015-07-13T08:24:27Z</time>
      </trkpt>
      <trkpt lat="45.68402" lon="2.95604">
        <ele>972.99</ele>
        <time>2015-07-13T08:24:35Z</time>
      </trkpt>
      <trkpt lat="45.68385" lon="2.9565">
        <ele>971.55</ele>
        <time>2015-07-13T08:24:44Z</time>
      </trkpt>
      <trkpt lat="45.68377" lon="2.95673">
        <ele>971.55</ele>
        <time>2015-07-13T08:24:47Z</time>
      </trkpt>
      <trkpt lat="45.68375" lon="2.9568">
        <ele>971.55</ele>
        <time>2015-07-13T08:24:48Z</time>
      </trkpt>
      <trkpt lat="45.68373" lon="2.95687">
        <ele>971.55</ele>
        <time>2015-07-13T08:24:49Z</time>
      </trkpt>
      <trkpt lat="45.68357" lon="2.95735">
        <ele>970.11</ele>
        <time>2015-07-13T08:24:58Z</time>
      </trkpt>
      <trkpt lat="45.68347" lon="2.95755">
        <ele>969.63</ele>
        <time>2015-07-13T08:25:01Z</time>
      </trkpt>
      <trkpt lat="45.68343" lon="2.9577">
        <ele>969.15</ele>
        <time>2015-07-13T08:25:03Z</time>
      </trkpt>
      <trkpt lat="45.68338" lon="2.95791">
        <ele>968.18</ele>
        <time>2015-07-13T08:25:06Z</time>
      </trkpt>
      <trkpt lat="45.68337" lon="2.95806">
        <ele>968.67</ele>
        <time>2015-07-13T08:25:07Z</time>
      </trkpt>
      <trkpt lat="45.68335" lon="2.95821">
        <ele>968.18</ele>
        <time>2015-07-13T08:25:08Z</time>
      </trkpt>
      <trkpt lat="45.68334" lon="2.95833">
        <ele>968.18</ele>
        <time>2015-07-13T08:25:09Z</time>
      </trkpt>
      <trkpt lat="45.68334" lon="2.95843">
        <ele>968.67</ele>
        <time>2015-07-13T08:25:10Z</time>
      </trkpt>
      <trkpt lat="45.68334" lon="2.95872">
        <ele>969.15</ele>
        <time>2015-07-13T08:25:14Z</time>
      </trkpt>
      <trkpt lat="45.68335" lon="2.95879">
        <ele>969.63</ele>
        <time>2015-07-13T08:25:15Z</time>
      </trkpt>
      <trkpt lat="45.6834" lon="2.95997">
        <ele>970.11</ele>
        <time>2015-07-13T08:25:32Z</time>
      </trkpt>
      <trkpt lat="45.68342" lon="2.96044">
        <ele>970.11</ele>
        <time>2015-07-13T08:25:39Z</time>
      </trkpt>
      <trkpt lat="45.68342" lon="2.96051">
        <ele>970.11</ele>
        <time>2015-07-13T08:25:40Z</time>
      </trkpt>
      <trkpt lat="45.68344" lon="2.96077">
        <ele>969.63</ele>
        <time>2015-07-13T08:25:44Z</time>
      </trkpt>
      <trkpt lat="45.68344" lon="2.96085">
        <ele>969.63</ele>
        <time>2015-07-13T08:25:45Z</time>
      </trkpt>
      <trkpt lat="45.68349" lon="2.96215">
        <ele>968.67</ele>
        <time>2015-07-13T08:26:00Z</time>
      </trkpt>
      <trkpt lat="45.68349" lon="2.96311">
        <ele>969.15</ele>
        <time>2015-07-13T08:26:12Z</time>
      </trkpt>
      <trkpt lat="45.68328" lon="2.96385">
        <ele>967.22</ele>
        <time>2015-07-13T08:26:22Z</time>
      </trkpt>
      <trkpt lat="45.68325" lon="2.96393">
        <ele>967.22</ele>
        <time>2015-07-13T08:26:23Z</time>
      </trkpt>
      <trkpt lat="45.68322" lon="2.96401">
        <ele>967.22</ele>
        <time>2015-07-13T08:26:24Z</time>
      </trkpt>
      <trkpt lat="45.68319" lon="2.96409">
        <ele>967.22</ele>
        <time>2015-07-13T08:26:25Z</time>
      </trkpt>
      <trkpt lat="45.68316" lon="2.96416">
        <ele>967.22</ele>
        <time>2015-07-13T08:26:26Z</time>
      </trkpt>
      <trkpt lat="45.68292" lon="2.96476">
        <ele>968.18</ele>
        <time>2015-07-13T08:26:36Z</time>
      </trkpt>
      <trkpt lat="45.68289" lon="2.9648">
        <ele>967.7</ele>
        <time>2015-07-13T08:26:37Z</time>
      </trkpt>
      <trkpt lat="45.68287" lon="2.96484">
        <ele>968.18</ele>
        <time>2015-07-13T08:26:38Z</time>
      </trkpt>
      <trkpt lat="45.68284" lon="2.96489">
        <ele>968.18</ele>
        <time>2015-07-13T08:26:39Z</time>
      </trkpt>
      <trkpt lat="45.68282" lon="2.96493">
        <ele>968.67</ele>
        <time>2015-07-13T08:26:40Z</time>
      </trkpt>
      <trkpt lat="45.68261" lon="2.96536">
        <ele>969.63</ele>
        <time>2015-07-13T08:26:49Z</time>
      </trkpt>
      <trkpt lat="45.68252" lon="2.96559">
        <ele>971.07</ele>
        <time>2015-07-13T08:26:54Z</time>
      </trkpt>
      <trkpt lat="45.6825" lon="2.96561">
        <ele>971.07</ele>
        <time>2015-07-13T08:26:55Z</time>
      </trkpt>
      <trkpt lat="45.68249" lon="2.96561">
        <ele>971.55</ele>
        <time>2015-07-13T08:26:56Z</time>
      </trkpt>
      <trkpt lat="45.68245" lon="2.96559">
        <ele>972.51</ele>
        <time>2015-07-13T08:27:07Z</time>
      </trkpt>
      <trkpt lat="45.68241" lon="2.96556">
        <ele>972.51</ele>
        <time>2015-07-13T08:27:10Z</time>
      </trkpt>
      <trkpt lat="45.68239" lon="2.96556">
        <ele>972.51</ele>
        <time>2015-07-13T08:27:11Z</time>
      </trkpt>
      <trkpt lat="45.68237" lon="2.96558">
        <ele>972.51</ele>
        <time>2015-07-13T08:27:12Z</time>
      </trkpt>
      <trkpt lat="45.68234" lon="2.9656">
        <ele>972.51</ele>
        <time>2015-07-13T08:27:13Z</time>
      </trkpt>
      <trkpt lat="45.68232" lon="2.96563">
        <ele>972.99</ele>
        <time>2015-07-13T08:27:14Z</time>
      </trkpt>
      <trkpt lat="45.68231" lon="2.96566">
        <ele>972.99</ele>
        <time>2015-07-13T08:27:15Z</time>
      </trkpt>
      <trkpt lat="45.68229" lon="2.96571">
        <ele>972.99</ele>
        <time>2015-07-13T08:27:16Z</time>
      </trkpt>
      <trkpt lat="45.6822" lon="2.96613">
        <ele>972.99</ele>
        <time>2015-07-13T08:27:24Z</time>
      </trkpt>
      <trkpt lat="45.68213" lon="2.96637">
        <ele>972.99</ele>
        <time>2015-07-13T08:27:29Z</time>
      </trkpt>
      <trkpt lat="45.6821" lon="2.96638">
        <ele>972.99</ele>
        <time>2015-07-13T08:27:30Z</time>
      </trkpt>
      <trkpt lat="45.68206" lon="2.96636">
        <ele>972.99</ele>
        <time>2015-07-13T08:27:31Z</time>
      </trkpt>
      <trkpt lat="45.68204" lon="2.96634">
        <ele>972.99</ele>
        <time>2015-07-13T08:27:32Z</time>
      </trkpt>
      <trkpt lat="45.68202" lon="2.96632">
        <ele>972.99</ele>
        <time>2015-07-13T08:27:33Z</time>
      </trkpt>
      <trkpt lat="45.682" lon="2.96631">
        <ele>973.47</ele>
        <time>2015-07-13T08:27:34Z</time>
      </trkpt>
      <trkpt lat="45.68197" lon="2.96631">
        <ele>974.43</ele>
        <time>2015-07-13T08:27:35Z</time>
      </trkpt>
      <trkpt lat="45.68194" lon="2.96632">
        <ele>974.43</ele>
        <time>2015-07-13T08:27:36Z</time>
      </trkpt>
      <trkpt lat="45.68159" lon="2.96648">
        <ele>975.88</ele>
        <time>2015-07-13T08:27:48Z</time>
      </trkpt>
      <trkpt lat="45.68117" lon="2.96669">
        <ele>975.39</ele>
        <time>2015-07-13T08:28:01Z</time>
      </trkpt>
      <trkpt lat="45.68073" lon="2.96693">
        <ele>973.47</ele>
        <time>2015-07-13T08:28:13Z</time>
      </trkpt>
      <trkpt lat="45.68059" lon="2.967">
        <ele>972.99</ele>
        <time>2015-07-13T08:28:16Z</time>
      </trkpt>
      <trkpt lat="45.68054" lon="2.96702">
        <ele>972.99</ele>
        <time>2015-07-13T08:28:17Z</time>
      </trkpt>
      <trkpt lat="45.68049" lon="2.96704">
        <ele>972.99</ele>
        <time>2015-07-13T08:28:18Z</time>
      </trkpt>
      <trkpt lat="45.68034" lon="2.96717">
        <ele>971.55</ele>
        <time>2015-07-13T08:28:22Z</time>
      </trkpt>
      <trkpt lat="45.68022" lon="2.96731">
        <ele>970.59</ele>
        <time>2015-07-13T08:28:25Z</time>
      </trkpt>
      <trkpt lat="45.68019" lon="2.96736">
        <ele>970.11</ele>
        <time>2015-07-13T08:28:26Z</time>
      </trkpt>
      <trkpt lat="45.68015" lon="2.9674">
        <ele>970.11</ele>
        <time>2015-07-13T08:28:27Z</time>
      </trkpt>
      <trkpt lat="45.68013" lon="2.96745">
        <ele>969.63</ele>
        <time>2015-07-13T08:28:28Z</time>
      </trkpt>
      <trkpt lat="45.6801" lon="2.9675">
        <ele>968.67</ele>
        <time>2015-07-13T08:28:29Z</time>
      </trkpt>
      <trkpt lat="45.68009" lon="2.96756">
        <ele>967.7</ele>
        <time>2015-07-13T08:28:30Z</time>
      </trkpt>
      <trkpt lat="45.68009" lon="2.96761">
        <ele>966.74</ele>
        <time>2015-07-13T08:28:31Z</time>
      </trkpt>
      <trkpt lat="45.68007" lon="2.96767">
        <ele>965.78</ele>
        <time>2015-07-13T08:28:32Z</time>
      </trkpt>
      <trkpt lat="45.68004" lon="2.96772">
        <ele>964.82</ele>
        <time>2015-07-13T08:28:33Z</time>
      </trkpt>
      <trkpt lat="45.67999" lon="2.96777">
        <ele>964.82</ele>
        <time>2015-07-13T08:28:34Z</time>
      </trkpt>
      <trkpt lat="45.67994" lon="2.9678">
        <ele>964.34</ele>
        <time>2015-07-13T08:28:35Z</time>
      </trkpt>
      <trkpt lat="45.67989" lon="2.96782">
        <ele>963.86</ele>
        <time>2015-07-13T08:28:36Z</time>
      </trkpt>
      <trkpt lat="45.67984" lon="2.96783">
        <ele>964.34</ele>
        <time>2015-07-13T08:28:37Z</time>
      </trkpt>
      <trkpt lat="45.67978" lon="2.96783">
        <ele>964.34</ele>
        <time>2015-07-13T08:28:38Z</time>
      </trkpt>
      <trkpt lat="45.67973" lon="2.96782">
        <ele>964.34</ele>
        <time>2015-07-13T08:28:39Z</time>
      </trkpt>
      <trkpt lat="45.67968" lon="2.96784">
        <ele>964.82</ele>
        <time>2015-07-13T08:28:40Z</time>
      </trkpt>
      <trkpt lat="45.67962" lon="2.96786">
        <ele>964.34</ele>
        <time>2015-07-13T08:28:41Z</time>
      </trkpt>
      <trkpt lat="45.67957" lon="2.9679">
        <ele>964.34</ele>
        <time>2015-07-13T08:28:42Z</time>
      </trkpt>
      <trkpt lat="45.67952" lon="2.96795">
        <ele>964.82</ele>
        <time>2015-07-13T08:28:43Z</time>
      </trkpt>
      <trkpt lat="45.67946" lon="2.96798">
        <ele>964.82</ele>
        <time>2015-07-13T08:28:44Z</time>
      </trkpt>
      <trkpt lat="45.67941" lon="2.96801">
        <ele>965.3</ele>
        <time>2015-07-13T08:28:45Z</time>
      </trkpt>
      <trkpt lat="45.67925" lon="2.96811">
        <ele>965.3</ele>
        <time>2015-07-13T08:28:48Z</time>
      </trkpt>
      <trkpt lat="45.67884" lon="2.9683">
        <ele>966.26</ele>
        <time>2015-07-13T08:28:56Z</time>
      </trkpt>
      <trkpt lat="45.67879" lon="2.96832">
        <ele>966.26</ele>
        <time>2015-07-13T08:28:57Z</time>
      </trkpt>
      <trkpt lat="45.67869" lon="2.96837">
        <ele>966.26</ele>
        <time>2015-07-13T08:28:59Z</time>
      </trkpt>
      <trkpt lat="45.67859" lon="2.96842">
        <ele>966.26</ele>
        <time>2015-07-13T08:29:01Z</time>
      </trkpt>
      <trkpt lat="45.67854" lon="2.96843">
        <ele>966.74</ele>
        <time>2015-07-13T08:29:02Z</time>
      </trkpt>
      <trkpt lat="45.67824" lon="2.96851">
        <ele>966.26</ele>
        <time>2015-07-13T08:29:08Z</time>
      </trkpt>
      <trkpt lat="45.67766" lon="2.96853">
        <ele>965.3</ele>
        <time>2015-07-13T08:29:20Z</time>
      </trkpt>
      <trkpt lat="45.67714" lon="2.96843">
        <ele>965.3</ele>
        <time>2015-07-13T08:29:32Z</time>
      </trkpt>
      <trkpt lat="45.67689" lon="2.96835">
        <ele>965.78</ele>
        <time>2015-07-13T08:29:38Z</time>
      </trkpt>
      <trkpt lat="45.67635" lon="2.96822">
        <ele>965.78</ele>
        <time>2015-07-13T08:29:51Z</time>
      </trkpt>
      <trkpt lat="45.67615" lon="2.96817">
        <ele>964.34</ele>
        <time>2015-07-13T08:29:55Z</time>
      </trkpt>
      <trkpt lat="45.67545" lon="2.96812">
        <ele>961.46</ele>
        <time>2015-07-13T08:30:06Z</time>
      </trkpt>
      <trkpt lat="45.6749" lon="2.96791">
        <ele>958.09</ele>
        <time>2015-07-13T08:30:14Z</time>
      </trkpt>
      <trkpt lat="45.67476" lon="2.96783">
        <ele>957.61</ele>
        <time>2015-07-13T08:30:16Z</time>
      </trkpt>
      <trkpt lat="45.6744" lon="2.96768">
        <ele>956.17</ele>
        <time>2015-07-13T08:30:23Z</time>
      </trkpt>
      <trkpt lat="45.67439" lon="2.9677">
        <ele>956.17</ele>
        <time>2015-07-13T08:30:24Z</time>
      </trkpt>
      <trkpt lat="45.67439" lon="2.96773">
        <ele>956.17</ele>
        <time>2015-07-13T08:30:25Z</time>
      </trkpt>
      <trkpt lat="45.67439" lon="2.96776">
        <ele>955.69</ele>
        <time>2015-07-13T08:30:26Z</time>
      </trkpt>
      <trkpt lat="45.67441" lon="2.96779">
        <ele>955.21</ele>
        <time>2015-07-13T08:30:27Z</time>
      </trkpt>
      <trkpt lat="45.67444" lon="2.96781">
        <ele>955.21</ele>
        <time>2015-07-13T08:30:28Z</time>
      </trkpt>
      <trkpt lat="45.67473" lon="2.96837">
        <ele>952.8</ele>
        <time>2015-07-13T08:30:39Z</time>
      </trkpt>
      <trkpt lat="45.67495" lon="2.96892">
        <ele>951.84</ele>
        <time>2015-07-13T08:30:50Z</time>
      </trkpt>
      <trkpt lat="45.67494" lon="2.96893">
        <ele>951.84</ele>
        <time>2015-07-13T08:31:01Z</time>
      </trkpt>
      <trkpt lat="45.67494" lon="2.96893">
        <ele>951.84</ele>
        <time>2015-07-13T08:31:26Z</time>
      </trkpt>
      <trkpt lat="45.67494" lon="2.96893">
        <ele>951.84</ele>
        <time>2015-07-13T08:31:46Z</time>
      </trkpt>
      <trkpt lat="45.67495" lon="2.96894">
        <ele>952.32</ele>
        <time>2015-07-13T08:32:15Z</time>
      </trkpt>
      <trkpt lat="45.67495" lon="2.96893">
        <ele>951.84</ele>
        <time>2015-07-13T08:32:41Z</time>
      </trkpt>
      <trkpt lat="45.67496" lon="2.96894">
        <ele>951.84</ele>
        <time>2015-07-13T08:33:10Z</time>
      </trkpt>
      <trkpt lat="45.67495" lon="2.96892">
        <ele>952.32</ele>
        <time>2015-07-13T08:33:50Z</time>
      </trkpt>
      <trkpt lat="45.67495" lon="2.96893">
        <ele>951.84</ele>
        <time>2015-07-13T08:34:14Z</time>
      </trkpt>
      <trkpt lat="45.67496" lon="2.96893">
        <ele>952.32</ele>
        <time>2015-07-13T08:34:24Z</time>
      </trkpt>
      <trkpt lat="45.67497" lon="2.96894">
        <ele>951.84</ele>
        <time>2015-07-13T08:34:25Z</time>
      </trkpt>
      <trkpt lat="45.67499" lon="2.96896">
        <ele>951.84</ele>
        <time>2015-07-13T08:34:26Z</time>
      </trkpt>
      <trkpt lat="45.67501" lon="2.96899">
        <ele>951.36</ele>
        <time>2015-07-13T08:34:27Z</time>
      </trkpt>
      <trkpt lat="45.67502" lon="2.96903">
        <ele>951.84</ele>
        <time>2015-07-13T08:34:28Z</time>
      </trkpt>
      <trkpt lat="45.67508" lon="2.96917">
        <ele>950.4</ele>
        <time>2015-07-13T08:34:31Z</time>
      </trkpt>
      <trkpt lat="45.67521" lon="2.96949">
        <ele>948.48</ele>
        <time>2015-07-13T08:34:36Z</time>
      </trkpt>
      <trkpt lat="45.67527" lon="2.96962">
        <ele>947.52</ele>
        <time>2015-07-13T08:34:38Z</time>
      </trkpt>
      <trkpt lat="45.67536" lon="2.96985">
        <ele>945.59</ele>
        <time>2015-07-13T08:34:41Z</time>
      </trkpt>
      <trkpt lat="45.67555" lon="2.97027">
        <ele>943.67</ele>
        <time>2015-07-13T08:34:46Z</time>
      </trkpt>
      <trkpt lat="45.67575" lon="2.97064">
        <ele>942.23</ele>
        <time>2015-07-13T08:34:54Z</time>
      </trkpt>
      <trkpt lat="45.67584" lon="2.97081">
        <ele>941.27</ele>
        <time>2015-07-13T08:34:58Z</time>
      </trkpt>
      <trkpt lat="45.67594" lon="2.97093">
        <ele>938.86</ele>
        <time>2015-07-13T08:35:00Z</time>
      </trkpt>
      <trkpt lat="45.67598" lon="2.97101">
        <ele>937.9</ele>
        <time>2015-07-13T08:35:01Z</time>
      </trkpt>
      <trkpt lat="45.67608" lon="2.97117">
        <ele>936.46</ele>
        <time>2015-07-13T08:35:03Z</time>
      </trkpt>
      <trkpt lat="45.67614" lon="2.97123">
        <ele>935.5</ele>
        <time>2015-07-13T08:35:04Z</time>
      </trkpt>
      <trkpt lat="45.6763" lon="2.97135">
        <ele>932.14</ele>
        <time>2015-07-13T08:35:06Z</time>
      </trkpt>
      <trkpt lat="45.67684" lon="2.9717">
        <ele>928.77</ele>
        <time>2015-07-13T08:35:12Z</time>
      </trkpt>
      <trkpt lat="45.67752" lon="2.97246">
        <ele>925.41</ele>
        <time>2015-07-13T08:35:21Z</time>
      </trkpt>
      <trkpt lat="45.67779" lon="2.9728">
        <ele>924.93</ele>
        <time>2015-07-13T08:35:25Z</time>
      </trkpt>
      <trkpt lat="45.67784" lon="2.9729">
        <ele>924.93</ele>
        <time>2015-07-13T08:35:26Z</time>
      </trkpt>
      <trkpt lat="45.67787" lon="2.97299">
        <ele>925.41</ele>
        <time>2015-07-13T08:35:27Z</time>
      </trkpt>
      <trkpt lat="45.67821" lon="2.9738">
        <ele>926.37</ele>
        <time>2015-07-13T08:35:38Z</time>
      </trkpt>
      <trkpt lat="45.67828" lon="2.97392">
        <ele>925.89</ele>
        <time>2015-07-13T08:35:40Z</time>
      </trkpt>
      <trkpt lat="45.67831" lon="2.97399">
        <ele>925.41</ele>
        <time>2015-07-13T08:35:41Z</time>
      </trkpt>
      <trkpt lat="45.67879" lon="2.97483">
        <ele>923.48</ele>
        <time>2015-07-13T08:35:52Z</time>
      </trkpt>
      <trkpt lat="45.67895" lon="2.97516">
        <ele>923</ele>
        <time>2015-07-13T08:35:56Z</time>
      </trkpt>
      <trkpt lat="45.679" lon="2.97523">
        <ele>923.48</ele>
        <time>2015-07-13T08:35:57Z</time>
      </trkpt>
      <trkpt lat="45.67905" lon="2.9753">
        <ele>923.48</ele>
        <time>2015-07-13T08:35:58Z</time>
      </trkpt>
      <trkpt lat="45.67923" lon="2.97558">
        <ele>923.48</ele>
        <time>2015-07-13T08:36:02Z</time>
      </trkpt>
      <trkpt lat="45.67928" lon="2.97564">
        <ele>923.48</ele>
        <time>2015-07-13T08:36:03Z</time>
      </trkpt>
      <trkpt lat="45.6795" lon="2.97583">
        <ele>923.48</ele>
        <time>2015-07-13T08:36:07Z</time>
      </trkpt>
      <trkpt lat="45.67957" lon="2.97587">
        <ele>923.48</ele>
        <time>2015-07-13T08:36:08Z</time>
      </trkpt>
      <trkpt lat="45.68033" lon="2.97653">
        <ele>920.12</ele>
        <time>2015-07-13T08:36:21Z</time>
      </trkpt>
      <trkpt lat="45.68039" lon="2.97659">
        <ele>919.64</ele>
        <time>2015-07-13T08:36:22Z</time>
      </trkpt>
      <trkpt lat="45.68066" lon="2.97705">
        <ele>917.72</ele>
        <time>2015-07-13T08:36:28Z</time>
      </trkpt>
      <trkpt lat="45.6807" lon="2.97714">
        <ele>917.24</ele>
        <time>2015-07-13T08:36:29Z</time>
      </trkpt>
      <trkpt lat="45.68092" lon="2.97774">
        <ele>913.87</ele>
        <time>2015-07-13T08:36:35Z</time>
      </trkpt>
      <trkpt lat="45.68123" lon="2.97873">
        <ele>913.87</ele>
        <time>2015-07-13T08:36:46Z</time>
      </trkpt>
      <trkpt lat="45.68151" lon="2.97923">
        <ele>914.83</ele>
        <time>2015-07-13T08:36:57Z</time>
      </trkpt>
      <trkpt lat="45.68186" lon="2.97938">
        <ele>915.31</ele>
        <time>2015-07-13T08:37:07Z</time>
      </trkpt>
      <trkpt lat="45.68214" lon="2.97951">
        <ele>915.79</ele>
        <time>2015-07-13T08:37:16Z</time>
      </trkpt>
      <trkpt lat="45.68216" lon="2.97954">
        <ele>916.27</ele>
        <time>2015-07-13T08:37:17Z</time>
      </trkpt>
      <trkpt lat="45.68218" lon="2.97957">
        <ele>916.27</ele>
        <time>2015-07-13T08:37:18Z</time>
      </trkpt>
      <trkpt lat="45.6822" lon="2.97959">
        <ele>916.27</ele>
        <time>2015-07-13T08:37:19Z</time>
      </trkpt>
      <trkpt lat="45.68222" lon="2.9796">
        <ele>916.75</ele>
        <time>2015-07-13T08:37:20Z</time>
      </trkpt>
      <trkpt lat="45.68225" lon="2.97961">
        <ele>916.75</ele>
        <time>2015-07-13T08:37:21Z</time>
      </trkpt>
      <trkpt lat="45.68229" lon="2.97961">
        <ele>916.75</ele>
        <time>2015-07-13T08:37:22Z</time>
      </trkpt>
      <trkpt lat="45.68256" lon="2.97966">
        <ele>918.2</ele>
        <time>2015-07-13T08:37:32Z</time>
      </trkpt>
      <trkpt lat="45.68258" lon="2.97966">
        <ele>918.68</ele>
        <time>2015-07-13T08:37:33Z</time>
      </trkpt>
      <trkpt lat="45.6826" lon="2.97967">
        <ele>919.16</ele>
        <time>2015-07-13T08:37:34Z</time>
      </trkpt>
      <trkpt lat="45.68262" lon="2.97968">
        <ele>919.16</ele>
        <time>2015-07-13T08:37:35Z</time>
      </trkpt>
      <trkpt lat="45.68264" lon="2.97969">
        <ele>919.16</ele>
        <time>2015-07-13T08:37:36Z</time>
      </trkpt>
      <trkpt lat="45.68266" lon="2.9797">
        <ele>919.16</ele>
        <time>2015-07-13T08:37:37Z</time>
      </trkpt>
      <trkpt lat="45.68269" lon="2.97971">
        <ele>919.64</ele>
        <time>2015-07-13T08:37:38Z</time>
      </trkpt>
      <trkpt lat="45.68277" lon="2.97972">
        <ele>920.12</ele>
        <time>2015-07-13T08:37:42Z</time>
      </trkpt>
      <trkpt lat="45.68282" lon="2.97975">
        <ele>920.6</ele>
        <time>2015-07-13T08:37:45Z</time>
      </trkpt>
      <trkpt lat="45.68299" lon="2.97977">
        <ele>920.6</ele>
        <time>2015-07-13T08:37:53Z</time>
      </trkpt>
      <trkpt lat="45.68306" lon="2.97989">
        <ele>920.6</ele>
        <time>2015-07-13T08:38:00Z</time>
      </trkpt>
      <trkpt lat="45.68306" lon="2.98019">
        <ele>921.08</ele>
        <time>2015-07-13T08:38:09Z</time>
      </trkpt>
      <trkpt lat="45.68309" lon="2.98032">
        <ele>921.56</ele>
        <time>2015-07-13T08:38:14Z</time>
      </trkpt>
      <trkpt lat="45.68403" lon="2.97988">
        <ele>922.52</ele>
        <time>2015-07-13T08:38:19Z</time>
      </trkpt>
      <trkpt lat="45.68409" lon="2.97988">
        <ele>922.52</ele>
        <time>2015-07-13T08:38:22Z</time>
      </trkpt>
      <trkpt lat="45.68417" lon="2.97985">
        <ele>923</ele>
        <time>2015-07-13T08:38:26Z</time>
      </trkpt>
      <trkpt lat="45.68422" lon="2.97983">
        <ele>923.96</ele>
        <time>2015-07-13T08:38:29Z</time>
      </trkpt>
      <trkpt lat="45.6844" lon="2.97972">
        <ele>925.89</ele>
        <time>2015-07-13T08:38:41Z</time>
      </trkpt>
      <trkpt lat="45.68445" lon="2.97972">
        <ele>926.85</ele>
        <time>2015-07-13T08:38:44Z</time>
      </trkpt>
      <trkpt lat="45.68453" lon="2.9798">
        <ele>927.33</ele>
        <time>2015-07-13T08:38:48Z</time>
      </trkpt>
      <trkpt lat="45.68455" lon="2.97983">
        <ele>927.33</ele>
        <time>2015-07-13T08:38:50Z</time>
      </trkpt>
      <trkpt lat="45.68456" lon="2.97995">
        <ele>928.77</ele>
        <time>2015-07-13T08:38:55Z</time>
      </trkpt>
      <trkpt lat="45.68473" lon="2.98029">
        <ele>927.33</ele>
        <time>2015-07-13T08:39:08Z</time>
      </trkpt>
      <trkpt lat="45.68482" lon="2.9804">
        <ele>926.37</ele>
        <time>2015-07-13T08:39:11Z</time>
      </trkpt>
      <trkpt lat="45.68538" lon="2.9806">
        <ele>926.37</ele>
        <time>2015-07-13T08:39:22Z</time>
      </trkpt>
      <trkpt lat="45.68554" lon="2.98065">
        <ele>926.85</ele>
        <time>2015-07-13T08:39:27Z</time>
      </trkpt>
      <trkpt lat="45.68557" lon="2.98068">
        <ele>927.81</ele>
        <time>2015-07-13T08:39:28Z</time>
      </trkpt>
      <trkpt lat="45.68559" lon="2.98071">
        <ele>926.85</ele>
        <time>2015-07-13T08:39:29Z</time>
      </trkpt>
      <trkpt lat="45.68561" lon="2.98074">
        <ele>926.85</ele>
        <time>2015-07-13T08:39:30Z</time>
      </trkpt>
      <trkpt lat="45.68564" lon="2.98077">
        <ele>926.85</ele>
        <time>2015-07-13T08:39:31Z</time>
      </trkpt>
      <trkpt lat="45.68567" lon="2.98081">
        <ele>926.37</ele>
        <time>2015-07-13T08:39:32Z</time>
      </trkpt>
      <trkpt lat="45.6857" lon="2.98085">
        <ele>926.37</ele>
        <time>2015-07-13T08:39:33Z</time>
      </trkpt>
      <trkpt lat="45.68582" lon="2.98103">
        <ele>925.41</ele>
        <time>2015-07-13T08:39:37Z</time>
      </trkpt>
      <trkpt lat="45.68588" lon="2.98117">
        <ele>923.96</ele>
        <time>2015-07-13T08:39:39Z</time>
      </trkpt>
      <trkpt lat="45.6859" lon="2.98126">
        <ele>923.48</ele>
        <time>2015-07-13T08:39:40Z</time>
      </trkpt>
      <trkpt lat="45.68593" lon="2.98134">
        <ele>923</ele>
        <time>2015-07-13T08:39:41Z</time>
      </trkpt>
      <trkpt lat="45.68598" lon="2.98148">
        <ele>922.52</ele>
        <time>2015-07-13T08:39:43Z</time>
      </trkpt>
      <trkpt lat="45.68605" lon="2.98178">
        <ele>923</ele>
        <time>2015-07-13T08:39:47Z</time>
      </trkpt>
      <trkpt lat="45.68621" lon="2.98206">
        <ele>922.04</ele>
        <time>2015-07-13T08:39:52Z</time>
      </trkpt>
      <trkpt lat="45.68655" lon="2.98252">
        <ele>920.12</ele>
        <time>2015-07-13T08:40:04Z</time>
      </trkpt>
      <trkpt lat="45.6867" lon="2.98284">
        <ele>920.12</ele>
        <time>2015-07-13T08:40:10Z</time>
      </trkpt>
      <trkpt lat="45.68671" lon="2.98291">
        <ele>920.12</ele>
        <time>2015-07-13T08:40:11Z</time>
      </trkpt>
      <trkpt lat="45.68672" lon="2.98297">
        <ele>920.12</ele>
        <time>2015-07-13T08:40:12Z</time>
      </trkpt>
      <trkpt lat="45.68669" lon="2.98347">
        <ele>919.64</ele>
        <time>2015-07-13T08:40:21Z</time>
      </trkpt>
      <trkpt lat="45.68669" lon="2.98365">
        <ele>918.2</ele>
        <time>2015-07-13T08:40:25Z</time>
      </trkpt>
      <trkpt lat="45.68669" lon="2.98374">
        <ele>918.2</ele>
        <time>2015-07-13T08:40:26Z</time>
      </trkpt>
      <trkpt lat="45.68672" lon="2.98403">
        <ele>917.72</ele>
        <time>2015-07-13T08:40:29Z</time>
      </trkpt>
      <trkpt lat="45.68679" lon="2.9841">
        <ele>917.72</ele>
        <time>2015-07-13T08:40:30Z</time>
      </trkpt>
      <trkpt lat="45.68682" lon="2.98417">
        <ele>917.24</ele>
        <time>2015-07-13T08:40:31Z</time>
      </trkpt>
      <trkpt lat="45.68686" lon="2.98423">
        <ele>917.72</ele>
        <time>2015-07-13T08:40:32Z</time>
      </trkpt>
      <trkpt lat="45.68691" lon="2.98427">
        <ele>917.72</ele>
        <time>2015-07-13T08:40:33Z</time>
      </trkpt>
      <trkpt lat="45.68694" lon="2.98429">
        <ele>917.24</ele>
        <time>2015-07-13T08:40:34Z</time>
      </trkpt>
      <trkpt lat="45.68697" lon="2.9843">
        <ele>917.24</ele>
        <time>2015-07-13T08:40:35Z</time>
      </trkpt>
      <trkpt lat="45.687" lon="2.9843">
        <ele>917.72</ele>
        <time>2015-07-13T08:40:36Z</time>
      </trkpt>
      <trkpt lat="45.68703" lon="2.9843">
        <ele>917.72</ele>
        <time>2015-07-13T08:40:37Z</time>
      </trkpt>
      <trkpt lat="45.68705" lon="2.98429">
        <ele>917.24</ele>
        <time>2015-07-13T08:40:38Z</time>
      </trkpt>
      <trkpt lat="45.68709" lon="2.98431">
        <ele>917.72</ele>
        <time>2015-07-13T08:40:39Z</time>
      </trkpt>
      <trkpt lat="45.68711" lon="2.98434">
        <ele>917.72</ele>
        <time>2015-07-13T08:40:40Z</time>
      </trkpt>
      <trkpt lat="45.68716" lon="2.98441">
        <ele>917.72</ele>
        <time>2015-07-13T08:40:41Z</time>
      </trkpt>
      <trkpt lat="45.6872" lon="2.98448">
        <ele>917.72</ele>
        <time>2015-07-13T08:40:42Z</time>
      </trkpt>
      <trkpt lat="45.68725" lon="2.98455">
        <ele>917.24</ele>
        <time>2015-07-13T08:40:43Z</time>
      </trkpt>
      <trkpt lat="45.68727" lon="2.98463">
        <ele>917.24</ele>
        <time>2015-07-13T08:40:44Z</time>
      </trkpt>
      <trkpt lat="45.68729" lon="2.98471">
        <ele>916.75</ele>
        <time>2015-07-13T08:40:45Z</time>
      </trkpt>
      <trkpt lat="45.6873" lon="2.9848">
        <ele>916.75</ele>
        <time>2015-07-13T08:40:46Z</time>
      </trkpt>
      <trkpt lat="45.68731" lon="2.98488">
        <ele>916.27</ele>
        <time>2015-07-13T08:40:47Z</time>
      </trkpt>
      <trkpt lat="45.68735" lon="2.98514">
        <ele>915.31</ele>
        <time>2015-07-13T08:40:50Z</time>
      </trkpt>
      <trkpt lat="45.68739" lon="2.98531">
        <ele>915.31</ele>
        <time>2015-07-13T08:40:52Z</time>
      </trkpt>
      <trkpt lat="45.68742" lon="2.98539">
        <ele>915.31</ele>
        <time>2015-07-13T08:40:53Z</time>
      </trkpt>
      <trkpt lat="45.68748" lon="2.98554">
        <ele>915.31</ele>
        <time>2015-07-13T08:40:55Z</time>
      </trkpt>
      <trkpt lat="45.68755" lon="2.98567">
        <ele>915.31</ele>
        <time>2015-07-13T08:40:57Z</time>
      </trkpt>
      <trkpt lat="45.68783" lon="2.98622">
        <ele>918.2</ele>
        <time>2015-07-13T08:41:08Z</time>
      </trkpt>
      <trkpt lat="45.68801" lon="2.98659">
        <ele>920.6</ele>
        <time>2015-07-13T08:41:19Z</time>
      </trkpt>
      <trkpt lat="45.68827" lon="2.98686">
        <ele>922.04</ele>
        <time>2015-07-13T08:41:30Z</time>
      </trkpt>
      <trkpt lat="45.68857" lon="2.98706">
        <ele>923.96</ele>
        <time>2015-07-13T08:41:44Z</time>
      </trkpt>
      <trkpt lat="45.68876" lon="2.98708">
        <ele>925.41</ele>
        <time>2015-07-13T08:41:57Z</time>
      </trkpt>
      <trkpt lat="45.68881" lon="2.98706">
        <ele>925.41</ele>
        <time>2015-07-13T08:42:01Z</time>
      </trkpt>
      <trkpt lat="45.68883" lon="2.98705">
        <ele>925.41</ele>
        <time>2015-07-13T08:42:02Z</time>
      </trkpt>
      <trkpt lat="45.68888" lon="2.98705">
        <ele>924.93</ele>
        <time>2015-07-13T08:42:04Z</time>
      </trkpt>
      <trkpt lat="45.6889" lon="2.98707">
        <ele>924.93</ele>
        <time>2015-07-13T08:42:05Z</time>
      </trkpt>
      <trkpt lat="45.68892" lon="2.9871">
        <ele>924.45</ele>
        <time>2015-07-13T08:42:06Z</time>
      </trkpt>
      <trkpt lat="45.68893" lon="2.98713">
        <ele>923.96</ele>
        <time>2015-07-13T08:42:07Z</time>
      </trkpt>
      <trkpt lat="45.68894" lon="2.98717">
        <ele>923.96</ele>
        <time>2015-07-13T08:42:08Z</time>
      </trkpt>
      <trkpt lat="45.68897" lon="2.98721">
        <ele>923.96</ele>
        <time>2015-07-13T08:42:09Z</time>
      </trkpt>
      <trkpt lat="45.689" lon="2.98724">
        <ele>923.48</ele>
        <time>2015-07-13T08:42:10Z</time>
      </trkpt>
      <trkpt lat="45.68903" lon="2.98728">
        <ele>923.48</ele>
        <time>2015-07-13T08:42:11Z</time>
      </trkpt>
      <trkpt lat="45.68905" lon="2.98731">
        <ele>923.48</ele>
        <time>2015-07-13T08:42:12Z</time>
      </trkpt>
      <trkpt lat="45.68908" lon="2.98733">
        <ele>923.48</ele>
        <time>2015-07-13T08:42:13Z</time>
      </trkpt>
      <trkpt lat="45.68911" lon="2.98735">
        <ele>923.48</ele>
        <time>2015-07-13T08:42:14Z</time>
      </trkpt>
      <trkpt lat="45.68914" lon="2.98738">
        <ele>923.96</ele>
        <time>2015-07-13T08:42:15Z</time>
      </trkpt>
      <trkpt lat="45.68949" lon="2.98764">
        <ele>924.93</ele>
        <time>2015-07-13T08:42:25Z</time>
      </trkpt>
      <trkpt lat="45.69004" lon="2.98792">
        <ele>924.45</ele>
        <time>2015-07-13T08:42:37Z</time>
      </trkpt>
      <trkpt lat="45.69018" lon="2.98812">
        <ele>924.45</ele>
        <time>2015-07-13T08:42:42Z</time>
      </trkpt>
      <trkpt lat="45.69021" lon="2.98814">
        <ele>924.45</ele>
        <time>2015-07-13T08:42:43Z</time>
      </trkpt>
      <trkpt lat="45.69025" lon="2.98812">
        <ele>923.96</ele>
        <time>2015-07-13T08:42:44Z</time>
      </trkpt>
      <trkpt lat="45.69028" lon="2.98809">
        <ele>923.96</ele>
        <time>2015-07-13T08:42:45Z</time>
      </trkpt>
      <trkpt lat="45.69031" lon="2.98806">
        <ele>923.96</ele>
        <time>2015-07-13T08:42:46Z</time>
      </trkpt>
      <trkpt lat="45.69033" lon="2.98802">
        <ele>923.96</ele>
        <time>2015-07-13T08:42:47Z</time>
      </trkpt>
      <trkpt lat="45.69034" lon="2.98797">
        <ele>923.96</ele>
        <time>2015-07-13T08:42:48Z</time>
      </trkpt>
      <trkpt lat="45.69036" lon="2.98792">
        <ele>923.96</ele>
        <time>2015-07-13T08:42:49Z</time>
      </trkpt>
      <trkpt lat="45.69038" lon="2.98787">
        <ele>923.96</ele>
        <time>2015-07-13T08:42:50Z</time>
      </trkpt>
      <trkpt lat="45.69042" lon="2.98781">
        <ele>923.96</ele>
        <time>2015-07-13T08:42:51Z</time>
      </trkpt>
      <trkpt lat="45.69045" lon="2.98776">
        <ele>923.96</ele>
        <time>2015-07-13T08:42:52Z</time>
      </trkpt>
      <trkpt lat="45.69048" lon="2.98771">
        <ele>923.96</ele>
        <time>2015-07-13T08:42:53Z</time>
      </trkpt>
      <trkpt lat="45.69052" lon="2.98766">
        <ele>923.96</ele>
        <time>2015-07-13T08:42:54Z</time>
      </trkpt>
      <trkpt lat="45.69057" lon="2.98763">
        <ele>923.48</ele>
        <time>2015-07-13T08:42:55Z</time>
      </trkpt>
      <trkpt lat="45.69062" lon="2.98761">
        <ele>923</ele>
        <time>2015-07-13T08:42:56Z</time>
      </trkpt>
      <trkpt lat="45.69068" lon="2.98759">
        <ele>922.52</ele>
        <time>2015-07-13T08:42:57Z</time>
      </trkpt>
      <trkpt lat="45.69073" lon="2.98758">
        <ele>922.52</ele>
        <time>2015-07-13T08:42:58Z</time>
      </trkpt>
      <trkpt lat="45.69079" lon="2.98759">
        <ele>922.52</ele>
        <time>2015-07-13T08:42:59Z</time>
      </trkpt>
      <trkpt lat="45.69084" lon="2.98761">
        <ele>922.52</ele>
        <time>2015-07-13T08:43:00Z</time>
      </trkpt>
      <trkpt lat="45.69094" lon="2.98763">
        <ele>922.52</ele>
        <time>2015-07-13T08:43:02Z</time>
      </trkpt>
      <trkpt lat="45.69098" lon="2.98763">
        <ele>923</ele>
        <time>2015-07-13T08:43:03Z</time>
      </trkpt>
      <trkpt lat="45.69101" lon="2.98763">
        <ele>922.52</ele>
        <time>2015-07-13T08:43:04Z</time>
      </trkpt>
      <trkpt lat="45.69106" lon="2.98764">
        <ele>922.52</ele>
        <time>2015-07-13T08:43:05Z</time>
      </trkpt>
      <trkpt lat="45.69131" lon="2.98772">
        <ele>922.04</ele>
        <time>2015-07-13T08:43:10Z</time>
      </trkpt>
      <trkpt lat="45.69135" lon="2.98772">
        <ele>922.04</ele>
        <time>2015-07-13T08:43:11Z</time>
      </trkpt>
      <trkpt lat="45.6914" lon="2.9877">
        <ele>922.04</ele>
        <time>2015-07-13T08:43:12Z</time>
      </trkpt>
      <trkpt lat="45.69153" lon="2.98767">
        <ele>922.52</ele>
        <time>2015-07-13T08:43:15Z</time>
      </trkpt>
      <trkpt lat="45.69158" lon="2.98768">
        <ele>922.52</ele>
        <time>2015-07-13T08:43:16Z</time>
      </trkpt>
      <trkpt lat="45.69168" lon="2.98779">
        <ele>923.48</ele>
        <time>2015-07-13T08:43:19Z</time>
      </trkpt>
      <trkpt lat="45.69177" lon="2.98793">
        <ele>923.48</ele>
        <time>2015-07-13T08:43:22Z</time>
      </trkpt>
      <trkpt lat="45.69213" lon="2.98862">
        <ele>926.37</ele>
        <time>2015-07-13T08:43:38Z</time>
      </trkpt>
      <trkpt lat="45.69234" lon="2.98902">
        <ele>929.25</ele>
        <time>2015-07-13T08:43:52Z</time>
      </trkpt>
      <trkpt lat="45.69249" lon="2.98922">
        <ele>931.65</ele>
        <time>2015-07-13T08:44:03Z</time>
      </trkpt>
      <trkpt lat="45.69251" lon="2.98933">
        <ele>933.1</ele>
        <time>2015-07-13T08:44:08Z</time>
      </trkpt>
      <trkpt lat="45.69244" lon="2.98944">
        <ele>933.58</ele>
        <time>2015-07-13T08:44:13Z</time>
      </trkpt>
      <trkpt lat="45.69236" lon="2.9895">
        <ele>933.1</ele>
        <time>2015-07-13T08:44:16Z</time>
      </trkpt>
      <trkpt lat="45.69226" lon="2.98962">
        <ele>931.65</ele>
        <time>2015-07-13T08:44:19Z</time>
      </trkpt>
      <trkpt lat="45.6922" lon="2.98972">
        <ele>930.69</ele>
        <time>2015-07-13T08:44:21Z</time>
      </trkpt>
      <trkpt lat="45.69208" lon="2.99012">
        <ele>930.21</ele>
        <time>2015-07-13T08:44:27Z</time>
      </trkpt>
      <trkpt lat="45.69191" lon="2.99042">
        <ele>927.81</ele>
        <time>2015-07-13T08:44:33Z</time>
      </trkpt>
      <trkpt lat="45.69177" lon="2.99053">
        <ele>925.89</ele>
        <time>2015-07-13T08:44:37Z</time>
      </trkpt>
      <trkpt lat="45.69174" lon="2.99067">
        <ele>924.93</ele>
        <time>2015-07-13T08:44:40Z</time>
      </trkpt>
      <trkpt lat="45.69195" lon="2.99138">
        <ele>924.93</ele>
        <time>2015-07-13T08:44:52Z</time>
      </trkpt>
      <trkpt lat="45.69197" lon="2.99164">
        <ele>924.93</ele>
        <time>2015-07-13T08:44:56Z</time>
      </trkpt>
      <trkpt lat="45.692" lon="2.99211">
        <ele>925.41</ele>
        <time>2015-07-13T08:45:03Z</time>
      </trkpt>
      <trkpt lat="45.69225" lon="2.99291">
        <ele>926.37</ele>
        <time>2015-07-13T08:45:18Z</time>
      </trkpt>
      <trkpt lat="45.69227" lon="2.99296">
        <ele>926.37</ele>
        <time>2015-07-13T08:45:19Z</time>
      </trkpt>
      <trkpt lat="45.69229" lon="2.99301">
        <ele>926.37</ele>
        <time>2015-07-13T08:45:20Z</time>
      </trkpt>
      <trkpt lat="45.69236" lon="2.99316">
        <ele>926.85</ele>
        <time>2015-07-13T08:45:23Z</time>
      </trkpt>
      <trkpt lat="45.69238" lon="2.99322">
        <ele>926.85</ele>
        <time>2015-07-13T08:45:24Z</time>
      </trkpt>
      <trkpt lat="45.69242" lon="2.99332">
        <ele>926.85</ele>
        <time>2015-07-13T08:45:26Z</time>
      </trkpt>
      <trkpt lat="45.69256" lon="2.99365">
        <ele>926.37</ele>
        <time>2015-07-13T08:45:32Z</time>
      </trkpt>
      <trkpt lat="45.69273" lon="2.99396">
        <ele>924.45</ele>
        <time>2015-07-13T08:45:37Z</time>
      </trkpt>
      <trkpt lat="45.69282" lon="2.99415">
        <ele>923.96</ele>
        <time>2015-07-13T08:45:40Z</time>
      </trkpt>
      <trkpt lat="45.69286" lon="2.9942">
        <ele>923.96</ele>
        <time>2015-07-13T08:45:41Z</time>
      </trkpt>
      <trkpt lat="45.69289" lon="2.99426">
        <ele>923.96</ele>
        <time>2015-07-13T08:45:42Z</time>
      </trkpt>
      <trkpt lat="45.69305" lon="2.99448">
        <ele>923.48</ele>
        <time>2015-07-13T08:45:46Z</time>
      </trkpt>
      <trkpt lat="45.6931" lon="2.99452">
        <ele>923</ele>
        <time>2015-07-13T08:45:47Z</time>
      </trkpt>
      <trkpt lat="45.69315" lon="2.99456">
        <ele>923</ele>
        <time>2015-07-13T08:45:48Z</time>
      </trkpt>
      <trkpt lat="45.69344" lon="2.99476">
        <ele>922.52</ele>
        <time>2015-07-13T08:45:54Z</time>
      </trkpt>
      <trkpt lat="45.69348" lon="2.99481">
        <ele>922.52</ele>
        <time>2015-07-13T08:45:55Z</time>
      </trkpt>
      <trkpt lat="45.69351" lon="2.99486">
        <ele>922.04</ele>
        <time>2015-07-13T08:45:56Z</time>
      </trkpt>
      <trkpt lat="45.69355" lon="2.99491">
        <ele>922.52</ele>
        <time>2015-07-13T08:45:57Z</time>
      </trkpt>
      <trkpt lat="45.69359" lon="2.99497">
        <ele>922.04</ele>
        <time>2015-07-13T08:45:58Z</time>
      </trkpt>
      <trkpt lat="45.69401" lon="2.99569">
        <ele>920.6</ele>
        <time>2015-07-13T08:46:10Z</time>
      </trkpt>
      <trkpt lat="45.69404" lon="2.99576">
        <ele>920.12</ele>
        <time>2015-07-13T08:46:11Z</time>
      </trkpt>
      <trkpt lat="45.69408" lon="2.99582">
        <ele>919.16</ele>
        <time>2015-07-13T08:46:12Z</time>
      </trkpt>
      <trkpt lat="45.69415" lon="2.99593">
        <ele>919.64</ele>
        <time>2015-07-13T08:46:19Z</time>
      </trkpt>
      <trkpt lat="45.69415" lon="2.99591">
        <ele>920.6</ele>
        <time>2015-07-13T08:46:40Z</time>
      </trkpt>
    </trkseg>
  </trk>
</gpx>